Provisional Data: Little Mehoopany Creek near North Mehoopany, PA


Please select a monitoring station.
Please select start date.
Please select start date.

Toggle Unit: C/F Toggle Unit: C/F
Sample Time Temperature (C) Temperature (F) Specific Conductivity (mS/cm) pH   Turbidity (NTU+) DO (mg/L)
10/17/2022 12:00:00 AM 11.44 52.592 0.134 7.26 2.08 11.94
10/17/2022 12:15:00 AM 11.4 52.52 0.134 7.24 1.8 11.95
10/17/2022 12:30:00 AM 11.34 52.412 0.134 7.27 1.85 11.97
10/17/2022 12:45:00 AM 11.29 52.322 0.134 7.25 1.91 11.98
10/17/2022 1:00:00 AM 11.25 52.25 0.134 7.26 1.9 12
10/17/2022 1:15:00 AM 11.19 52.142 0.134 7.26 1.95 12.01
10/17/2022 1:30:00 AM 11.15 52.07 0.134 7.28 2.13 12.05
10/17/2022 1:45:00 AM 11.11 51.998 0.134 7.27 1.96 12.03
10/17/2022 2:00:00 AM 11.07 51.926 0.134 7.26 1.88 12.02
10/17/2022 2:15:00 AM 11.03 51.854 0.134 7.27 1.97 12.04
10/17/2022 2:30:00 AM 10.99 51.782 0.133 7.26 1.89 12.06
10/17/2022 2:45:00 AM 10.96 51.728 0.134 7.27 1.99 12.08
10/17/2022 3:00:00 AM 10.92 51.656 0.134 7.26 1.85 12.09
10/17/2022 3:15:00 AM 10.89 51.602 0.134 7.28 1.82 12.09
10/17/2022 3:30:00 AM 10.85 51.53 0.134 7.27 1.84 12.07
10/17/2022 3:45:00 AM 10.81 51.458 0.134 7.27 1.8 12.09
10/17/2022 4:00:00 AM 10.78 51.404 0.134 7.26 1.86 12.1
10/17/2022 4:15:00 AM 10.74 51.332 0.134 7.26 1.85 12.1
10/17/2022 4:30:00 AM 10.7 51.26 0.134 7.27 1.83 12.12
10/17/2022 4:45:00 AM 10.67 51.206 0.133 7.26 1.95 12.12
10/17/2022 5:00:00 AM 10.63 51.134 0.134 7.26 1.94 12.14
10/17/2022 5:15:00 AM 10.6 51.08 0.134 7.27 1.91 12.14
10/17/2022 5:30:00 AM 10.58 51.044 0.134 7.26 1.95 12.17
10/17/2022 5:45:00 AM 10.56 51.008 0.134 7.25 1.9 12.14
10/17/2022 6:00:00 AM 10.54 50.972 0.134 7.26 1.92 12.17
10/17/2022 6:15:00 AM 10.52 50.936 0.133 7.25 1.88 12.17
10/17/2022 6:30:00 AM 10.52 50.936 0.134 7.25 1.86 12.18
10/17/2022 6:45:00 AM 10.51 50.918 0.134 7.27 1.9 12.19
10/17/2022 7:00:00 AM 10.51 50.918 0.134 7.26 1.92 12.18
10/17/2022 7:15:00 AM 10.5 50.9 0.134 7.27 1.84 12.19
10/17/2022 7:30:00 AM 10.5 50.9 0.134 7.25 1.88 12.17
10/17/2022 7:45:00 AM 10.5 50.9 0.134 7.27 1.99 12.2
10/17/2022 8:00:00 AM 10.51 50.918 0.134 7.28 1.84 12.22
10/17/2022 8:15:00 AM 10.52 50.936 0.134 7.29 1.87 12.27
10/17/2022 8:30:00 AM 10.53 50.954 0.133 7.3 1.91 12.32
10/17/2022 8:45:00 AM 10.54 50.972 0.133 7.31 1.82 12.36
10/17/2022 9:00:00 AM 10.56 51.008 0.133 7.32 1.91 12.38
10/17/2022 9:15:00 AM 10.6 51.08 0.134 7.31 1.85 12.39
10/17/2022 9:30:00 AM 10.63 51.134 0.133 7.31 1.8 12.43
10/17/2022 9:45:00 AM 10.66 51.188 0.133 7.34 1.88 12.52
10/17/2022 10:00:00 AM 10.7 51.26 0.133 7.34 1.8 12.57
10/17/2022 10:15:00 AM 10.73 51.314 0.133 7.37 1.81 12.58
10/17/2022 10:30:00 AM 10.77 51.386 0.133 7.38 1.95 12.57
10/17/2022 10:45:00 AM 10.83 51.494 0.133 7.39 1.85 12.61
10/17/2022 11:00:00 AM 10.89 51.602 0.133 7.41 1.82 12.66
10/17/2022 11:15:00 AM 10.97 51.746 0.133 7.41 1.83 12.71
10/17/2022 11:30:00 AM 11.06 51.908 0.133 7.47 1.8 12.77
10/17/2022 11:45:00 AM 11.17 52.106 0.133 7.51 1.81 12.88
10/17/2022 12:00:00 PM 11.27 52.286 0.132 7.5 1.89 12.89
10/17/2022 12:15:00 PM 11.33 52.394 0.133 7.52 1.85 12.84
10/17/2022 12:30:00 PM 11.4 52.52 0.133 7.45 1.81 12.78
10/17/2022 12:45:00 PM 11.45 52.61 0.133 7.45 1.79 12.63
10/17/2022 1:00:00 PM 11.54 52.772 0.132 7.48 1.93 12.57
10/17/2022 1:15:00 PM 11.71 53.078 0.132 7.53 1.82 12.79
10/17/2022 1:30:00 PM 11.81 53.258 0.132 7.6 2 12.85
10/17/2022 1:45:00 PM 11.96 53.528 0.132 7.62 1.8 12.9
10/17/2022 2:00:00 PM 11.99 53.582 0.132 7.57 1.88 12.76
10/17/2022 2:15:00 PM 11.98 53.564 0.133 7.49 1.81 12.46
10/17/2022 2:30:00 PM 12 53.6 0.133 7.45 1.99 12.36
10/17/2022 2:45:00 PM 12.04 53.672 0.133 7.46 1.84 12.36
10/17/2022 3:00:00 PM 12.1 53.78 0.132 7.43 1.83 12.4
10/17/2022 3:15:00 PM 12.15 53.87 0.133 7.46 1.77 12.34
10/17/2022 3:30:00 PM 12.16 53.888 0.133 7.43 1.83 12.17
10/17/2022 3:45:00 PM 12.17 53.906 0.133 7.41 1.83 12.02
10/17/2022 4:00:00 PM 12.23 54.014 0.133 7.39 1.99 12.2
10/17/2022 4:15:00 PM 12.25 54.05 0.133 7.43 1.82 12.27
10/17/2022 4:30:00 PM 12.27 54.086 0.133 7.46 2.07 12.24
10/17/2022 4:45:00 PM 12.27 54.086 0.133 7.45 4.31 12.28
10/17/2022 5:00:00 PM 12.27 54.086 0.133 7.44 2.09 12.25
10/17/2022 5:15:00 PM 12.26 54.068 0.134 7.36 1.82 12.18
10/17/2022 5:30:00 PM 12.25 54.05 0.133 7.42 1.86 12.18
10/17/2022 5:45:00 PM 12.24 54.032 0.133 7.39 4.15 12.04
10/17/2022 6:00:00 PM 12.23 54.014 0.134 7.34 10.38 11.97
10/17/2022 6:15:00 PM 12.2 53.96 0.134 7.35 1.98 11.89
10/17/2022 6:30:00 PM 12.18 53.924 0.134 7.33 1.91 11.82
10/17/2022 6:45:00 PM 12.15 53.87 0.134 7.28 1.91 11.72
10/17/2022 7:00:00 PM 12.11 53.798 0.134 7.24 1.69 11.65
10/17/2022 7:15:00 PM 12.07 53.726 0.134 7.28 1.87 11.68
10/17/2022 7:30:00 PM 12.03 53.654 0.134 7.22 1.87 11.63
10/17/2022 7:45:00 PM 11.99 53.582 0.134 7.27 1.85 11.67
10/17/2022 8:00:00 PM 11.95 53.51 0.135 7.27 1.8 11.68
10/17/2022 8:15:00 PM 11.92 53.456 0.135 7.25 2.02 11.65
10/17/2022 8:30:00 PM 11.88 53.384 0.135 7.27 1.9 11.7
10/17/2022 8:45:00 PM 11.84 53.312 0.135 7.27 1.89 11.67
10/17/2022 9:00:00 PM 11.8 53.24 0.135 7.25 4.34 11.68
10/17/2022 9:15:00 PM 11.77 53.186 0.135 7.25 2.18 11.7
10/17/2022 9:30:00 PM 11.73 53.114 0.135 7.25 1.97 11.71
10/17/2022 9:45:00 PM 11.68 53.024 0.135 7.25 2.04 11.71
10/17/2022 10:00:00 PM 11.63 52.934 0.135 7.24 1.87 11.74
10/17/2022 10:15:00 PM 11.59 52.862 0.135 7.26 1.92 11.76
10/17/2022 10:30:00 PM 11.53 52.754 0.135 7.24 1.91 11.75
10/17/2022 10:45:00 PM 11.48 52.664 0.135 7.25 1.83 11.8
10/17/2022 11:00:00 PM 11.44 52.592 0.136 7.25 1.86 11.79
10/17/2022 11:15:00 PM 11.39 52.502 0.136 7.25 1.89 11.81
10/17/2022 11:30:00 PM 11.35 52.43 0.136 7.26 1.87 11.81
10/17/2022 11:45:00 PM 11.29 52.322 0.136 7.28 1.86 11.83
10/18/2022 12:00:00 AM 11.25 52.25 0.136 7.27 1.97 11.84
10/18/2022 12:15:00 AM 11.2 52.16 0.136 7.27 1.88 11.85
10/18/2022 12:30:00 AM 11.14 52.052 0.136 7.27 1.81 11.87
10/18/2022 12:45:00 AM 11.08 51.944 0.136 7.26 1.81 11.88
10/18/2022 1:00:00 AM 11.03 51.854 0.136 7.27 1.85 11.91
10/18/2022 1:15:00 AM 10.96 51.728 0.136 7.26 1.9 11.92
10/18/2022 1:30:00 AM 10.91 51.638 0.136 7.27 1.85 11.96
10/18/2022 1:45:00 AM 10.85 51.53 0.136 7.25 1.87 11.94
10/18/2022 2:00:00 AM 10.8 51.44 0.136 7.28 1.89 11.97
10/18/2022 2:15:00 AM 10.76 51.368 0.136 7.28 1.86 11.99
10/18/2022 2:30:00 AM 10.71 51.278 0.136 7.28 1.87 12.01
10/18/2022 2:45:00 AM 10.66 51.188 0.136 7.26 1.8 12.01
10/18/2022 3:00:00 AM 10.61 51.098 0.136 7.26 1.91 12.04
10/18/2022 3:15:00 AM 10.57 51.026 0.136 7.27 1.87 12.04
10/18/2022 3:30:00 AM 10.49 50.882 0.136 7.28 1.82 12.06
10/18/2022 3:45:00 AM 10.44 50.792 0.136 7.27 1.84 12.08
10/18/2022 4:00:00 AM 10.38 50.684 0.136 7.26 1.83 12.09
10/18/2022 4:15:00 AM 10.31 50.558 0.136 7.27 1.84 12.13
10/18/2022 4:30:00 AM 10.24 50.432 0.136 7.26 1.84 12.13
10/18/2022 4:45:00 AM 10.17 50.306 0.136 7.26 1.81 12.16
10/18/2022 5:00:00 AM 10.11 50.198 0.136 7.29 1.82 12.16
10/18/2022 5:15:00 AM 10.04 50.072 0.136 7.29 1.9 12.21
10/18/2022 5:30:00 AM 9.98 49.964 0.136 7.29 1.88 12.23
10/18/2022 5:45:00 AM 9.92 49.856 0.136 7.29 1.84 12.25
10/18/2022 6:00:00 AM 9.87 49.766 0.136 7.28 1.86 12.26
10/18/2022 6:15:00 AM 9.8 49.64 0.136 7.28 1.91 12.28
10/18/2022 6:30:00 AM 9.73 49.514 0.136 7.3 1.84 12.31
10/18/2022 6:45:00 AM 9.66 49.388 0.136 7.3 1.91 12.34
10/18/2022 7:00:00 AM 9.6 49.28 0.136 7.29 1.85 12.35
10/18/2022 7:15:00 AM 9.54 49.172 0.136 7.3 1.83 12.37
10/18/2022 7:30:00 AM 9.48 49.064 0.136 7.3 7.18 12.41
10/18/2022 7:45:00 AM 9.43 48.974 0.136 7.3 6.02 12.42
10/18/2022 8:00:00 AM 9.38 48.884 0.136 7.3 1.97 12.51
10/18/2022 8:15:00 AM 9.37 48.866 0.136 7.3 1.9 12.55
10/18/2022 8:30:00 AM 9.32 48.776 0.136 7.31 2.08 12.63
10/18/2022 8:45:00 AM 9.32 48.776 0.136 7.3 1.79 12.71
10/18/2022 9:00:00 AM 9.33 48.794 0.136 7.31 1.84 12.7
10/18/2022 9:15:00 AM 9.35 48.83 0.136 7.3 1.82 12.77
10/18/2022 9:30:00 AM 9.39 48.902 0.136 7.31 1.89 12.82
10/18/2022 9:45:00 AM 9.45 49.01 0.135 7.39 1.82 12.92
10/18/2022 10:00:00 AM 9.53 49.154 0.135 7.41 1.82 13.03
10/18/2022 10:15:00 AM 9.63 49.334 0.135 7.45 1.77 13.11
10/18/2022 10:30:00 AM 9.72 49.496 0.135 7.45 1.84 13.2
10/18/2022 10:45:00 AM 9.8 49.64 0.135 7.5 1.84 13.26
10/18/2022 11:00:00 AM 9.95 49.91 0.135 7.55 1.81 13.32
10/18/2022 11:15:00 AM 10.09 50.162 0.135 7.57 1.83 13.38
10/18/2022 11:30:00 AM 10.28 50.504 0.135 7.61 1.81 13.43
10/18/2022 11:45:00 AM 10.39 50.702 0.135 7.64 1.81 13.45
10/18/2022 12:00:00 PM 10.39 50.702 0.135 7.64 1.86 13.42
10/18/2022 12:15:00 PM 10.37 50.666 0.135 7.62 2.03 13.38
10/18/2022 12:30:00 PM 10.38 50.684 0.134 7.62 1.82 13.4
10/18/2022 12:45:00 PM 10.41 50.738 0.134 7.64 1.86 13.39
10/18/2022 1:00:00 PM 10.48 50.864 0.134 7.57 1.85 13.33
10/18/2022 1:15:00 PM 10.54 50.972 0.134 7.66 2.24 13.38
10/18/2022 1:30:00 PM 10.6 51.08 0.134 7.66 1.94 13.33
10/18/2022 1:45:00 PM 10.69 51.242 0.134 7.67 2.61 13.29
10/18/2022 2:00:00 PM 10.79 51.422 0.134 7.68 1.89 13.32
10/18/2022 2:15:00 PM 10.82 51.476 0.134 7.59 1.89 13.19
10/18/2022 2:30:00 PM 10.84 51.512 0.134 7.61 1.82 13.16
10/18/2022 2:45:00 PM 10.84 51.512 0.134 7.61 1.87 13.1
10/18/2022 3:00:00 PM 10.85 51.53 0.134 7.61 1.86 13.04
10/18/2022 3:15:00 PM 10.88 51.584 0.134 7.53 1.81 12.96
10/18/2022 3:30:00 PM 10.91 51.638 0.134 7.57 1.95 12.97
10/18/2022 3:45:00 PM 10.94 51.692 0.134 7.53 1.86 12.91
10/18/2022 4:00:00 PM 10.93 51.674 0.134 7.51 1.79 12.77
10/18/2022 4:15:00 PM 10.92 51.656 0.134 7.48 1.82 12.66
10/18/2022 4:30:00 PM 10.92 51.656 0.135 7.46 1.84 12.63
10/18/2022 4:45:00 PM 10.92 51.656 0.135 7.46 1.77 12.57
10/18/2022 5:00:00 PM 10.92 51.656 0.135 7.46 1.83 12.56
10/18/2022 5:15:00 PM 10.9 51.62 0.135 7.42 1.71 12.55
10/18/2022 5:30:00 PM 10.89 51.602 0.135 7.43 1.83 12.53
10/18/2022 5:45:00 PM 10.87 51.566 0.135 7.42 1.88 12.48
10/18/2022 6:00:00 PM 10.85 51.53 0.135 7.38 1.75 12.37
10/18/2022 6:15:00 PM 10.82 51.476 0.135 7.38 1.83 12.29
10/18/2022 6:30:00 PM 10.76 51.368 0.135 7.36 1.82 12.23
10/18/2022 6:45:00 PM 10.69 51.242 0.135 7.35 1.92 12.18
10/18/2022 7:00:00 PM 10.61 51.098 0.136 7.34 1.84 12.15
10/18/2022 7:15:00 PM 10.55 50.99 0.136 7.33 1.87 12.13
10/18/2022 7:30:00 PM 10.49 50.882 0.136 7.33 2.07 12.14
10/18/2022 7:45:00 PM 10.42 50.756 0.136 7.32 2 12.16
10/18/2022 8:00:00 PM 10.35 50.63 0.136 7.31 1.91 12.17
10/18/2022 8:15:00 PM 10.27 50.486 0.136 7.33 1.93 12.2
10/18/2022 8:30:00 PM 10.2 50.36 0.136 7.32 2.01 12.22
10/18/2022 8:45:00 PM 10.13 50.234 0.136 7.29 1.82 12.24
10/18/2022 9:00:00 PM 10.05 50.09 0.136 7.31 1.83 12.27
10/18/2022 9:15:00 PM 9.98 49.964 0.136 7.31 1.84 12.26
10/18/2022 9:30:00 PM 9.9 49.82 0.136 7.31 1.83 12.29
10/18/2022 9:45:00 PM 9.82 49.676 0.136 7.32 1.84 12.32
10/18/2022 10:00:00 PM 9.77 49.586 0.136 7.31 1.83 12.33
10/18/2022 10:15:00 PM 9.7 49.46 0.136 7.29 1.84 12.35
10/18/2022 10:30:00 PM 9.64 49.352 0.136 7.3 1.76 12.38
10/18/2022 10:45:00 PM 9.57 49.226 0.136 7.29 1.82 12.4
10/18/2022 11:00:00 PM 9.51 49.118 0.136 7.28 1.83 12.42
10/18/2022 11:15:00 PM 9.44 48.992 0.136 7.28 1.85 12.45
10/18/2022 11:30:00 PM 9.39 48.902 0.136 7.25 1.79 12.45
10/18/2022 11:45:00 PM 9.33 48.794 0.136 7.28 1.86 12.49
10/19/2022 12:00:00 AM 9.28 48.704 0.136 7.29 1.82 12.48
10/19/2022 12:15:00 AM 9.22 48.596 0.136 7.27 1.85 12.51
10/19/2022 12:30:00 AM 9.17 48.506 0.136 7.27 1.83 12.52
10/19/2022 12:45:00 AM 9.11 48.398 0.136 7.28 1.88 12.53
10/19/2022 1:00:00 AM 9.06 48.308 0.136 7.29 1.84 12.58
10/19/2022 1:15:00 AM 9.01 48.218 0.136 7.28 1.8 12.59
10/19/2022 1:30:00 AM 8.95 48.11 0.136 7.28 1.86 12.6
10/19/2022 1:45:00 AM 8.9 48.02 0.136 7.28 1.97 12.62
10/19/2022 2:00:00 AM 8.86 47.948 0.136 7.28 1.93 12.63
10/19/2022 2:15:00 AM 8.82 47.876 0.136 7.28 1.85 12.65
10/19/2022 2:30:00 AM 8.77 47.786 0.136 7.29 1.81 12.68
10/19/2022 2:45:00 AM 8.72 47.696 0.136 7.27 1.85 12.7
10/19/2022 3:00:00 AM 8.68 47.624 0.136 7.28 2.2 12.72
10/19/2022 3:15:00 AM 8.64 47.552 0.136 7.28 1.82 12.72
10/19/2022 3:30:00 AM 8.59 47.462 0.136 7.28 1.84 12.74
10/19/2022 3:45:00 AM 8.55 47.39 0.136 7.28 1.83 12.74
10/19/2022 4:00:00 AM 8.5 47.3 0.136 7.28 1.84 12.74
10/19/2022 4:15:00 AM 8.47 47.246 0.136 7.28 1.82 12.77
10/19/2022 4:30:00 AM 8.44 47.192 0.136 7.28 1.79 12.77
10/19/2022 4:45:00 AM 8.45 47.21 0.136 7.27 1.86 12.76
10/19/2022 5:00:00 AM 8.43 47.174 0.136 7.29 1.82 12.77
10/19/2022 5:15:00 AM 8.42 47.156 0.136 7.29 1.96 12.79
10/19/2022 5:30:00 AM 8.41 47.138 0.136 7.29 1.86 12.79
10/19/2022 5:45:00 AM 8.4 47.12 0.136 7.29 1.84 12.79
10/19/2022 6:00:00 AM 8.4 47.12 0.136 7.29 1.88 12.79
10/19/2022 6:15:00 AM 8.4 47.12 0.136 7.3 1.8 12.8
10/19/2022 6:30:00 AM 8.41 47.138 0.136 7.29 1.83 12.79
10/19/2022 6:45:00 AM 8.42 47.156 0.136 7.29 1.83 12.79
10/19/2022 7:00:00 AM 8.43 47.174 0.136 7.3 1.78 12.78
10/19/2022 7:15:00 AM 8.46 47.228 0.136 7.28 1.82 12.76
10/19/2022 7:30:00 AM 8.47 47.246 0.136 7.29 1.86 12.76
10/19/2022 7:45:00 AM 8.48 47.264 0.136 7.29 1.89 12.78
10/19/2022 8:00:00 AM 8.49 47.282 0.136 7.31 1.75 12.84
10/19/2022 8:15:00 AM 8.49 47.282 0.136 7.32 1.81 12.88
10/19/2022 8:30:00 AM 8.51 47.318 0.136 7.34 1.83 12.97
10/19/2022 8:45:00 AM 8.54 47.372 0.136 7.35 1.81 13.03
10/19/2022 9:00:00 AM 8.59 47.462 0.136 7.39 1.75 13.16
10/19/2022 9:15:00 AM 8.65 47.57 0.136 7.39 1.82 13.26
10/19/2022 9:30:00 AM 8.7 47.66 0.136 7.43 1.85 13.31
10/19/2022 9:45:00 AM 8.78 47.804 0.135 7.44 1.91 13.37
10/19/2022 10:00:00 AM 8.85 47.93 0.135 7.46 1.92 13.43
10/19/2022 10:15:00 AM 8.92 48.056 0.135 7.49 1.84 13.52
10/19/2022 10:30:00 AM 8.96 48.128 0.135 7.52 1.82 13.56
10/19/2022 10:45:00 AM 9.04 48.272 0.135 7.52 1.81 13.56
10/19/2022 11:00:00 AM 9.11 48.398 0.135 7.56 1.81 13.64
10/19/2022 11:15:00 AM 9.18 48.524 0.135 7.55 1.84 13.63
10/19/2022 11:30:00 AM 9.27 48.686 0.135 7.58 1.8 13.63
10/19/2022 11:45:00 AM 9.37 48.866 0.135 7.6 1.8 13.68
10/19/2022 12:00:00 PM 9.42 48.956 0.135 7.61 1.86 13.66
10/19/2022 12:15:00 PM 9.47 49.046 0.135 7.61 1.78 13.66
10/19/2022 12:30:00 PM 9.51 49.118 0.135 7.62 1.78 13.61
10/19/2022 12:45:00 PM 9.57 49.226 0.135 7.61 1.83 13.61
10/19/2022 1:00:00 PM 9.61 49.298 0.135 7.64 1.79 13.59
10/19/2022 1:15:00 PM 9.67 49.406 0.135 7.6 1.78 13.55
10/19/2022 1:30:00 PM 9.76 49.568 0.135 7.68 1.81 13.61
10/19/2022 1:45:00 PM 9.86 49.748 0.134 7.71 1.79 13.64
10/19/2022 2:00:00 PM 10.03 50.054 0.134 7.71 1.83 13.63
10/19/2022 2:15:00 PM 10.12 50.216 0.134 7.74 2.3 13.67
10/19/2022 2:30:00 PM 10.12 50.216 0.134 7.72 1.81 13.58
10/19/2022 2:45:00 PM 10.19 50.342 0.134 7.71 1.74 13.51
10/19/2022 3:00:00 PM 10.18 50.324 0.134 7.69 1.76 13.48
10/19/2022 3:15:00 PM 10.21 50.378 0.134 7.67 1.81 13.46
10/19/2022 3:30:00 PM 10.21 50.378 0.135 7.66 1.8 13.39
10/19/2022 3:45:00 PM 10.21 50.378 0.135 7.61 1.83 13.28
10/19/2022 4:00:00 PM 10.24 50.432 0.135 7.62 1.83 13.3
10/19/2022 4:15:00 PM 10.25 50.45 0.135 7.62 1.82 13.3
10/19/2022 4:30:00 PM 10.25 50.45 0.135 7.58 1.89 13.26
10/19/2022 4:45:00 PM 10.25 50.45 0.135 7.59 1.78 13.19
10/19/2022 5:00:00 PM 10.25 50.45 0.135 7.56 1.83 13.1
10/19/2022 5:15:00 PM 10.23 50.414 0.135 7.57 1.78 13.05
10/19/2022 5:30:00 PM 10.2 50.36 0.135 7.52 1.79 12.94
10/19/2022 5:45:00 PM 10.17 50.306 0.135 7.49 2.12 12.82
10/19/2022 6:00:00 PM 10.15 50.27 0.136 7.48 2.44 12.74
10/19/2022 6:15:00 PM 10.13 50.234 0.136 7.45 1.83 12.64
10/19/2022 6:30:00 PM 10.1 50.18 0.136 7.41 1.77 12.53
10/19/2022 6:45:00 PM 10.06 50.108 0.136 7.4 1.78 12.44
10/19/2022 7:00:00 PM 10.03 50.054 0.136 7.37 1.81 12.36
10/19/2022 7:15:00 PM 9.99 49.982 0.137 7.36 1.87 12.33
10/19/2022 7:30:00 PM 9.96 49.928 0.137 7.35 1.77 12.33
10/19/2022 7:45:00 PM 9.91 49.838 0.137 7.35 1.85 12.31
10/19/2022 8:00:00 PM 9.86 49.748 0.137 7.32 1.81 12.29
10/19/2022 8:15:00 PM 9.8 49.64 0.137 7.32 2.33 12.31
10/19/2022 8:30:00 PM 9.74 49.532 0.137 7.32 1.93 12.32
10/19/2022 8:45:00 PM 9.68 49.424 0.137 7.3 1.98 12.32
10/19/2022 9:00:00 PM 9.62 49.316 0.137 7.32 1.84 12.35
10/19/2022 9:15:00 PM 9.57 49.226 0.138 7.3 1.85 12.35
10/19/2022 9:30:00 PM 9.51 49.118 0.138 7.32 1.82 12.38
10/19/2022 9:45:00 PM 9.47 49.046 0.138 7.3 1.84 12.39
10/19/2022 10:00:00 PM 9.42 48.956 0.138 7.3 1.81 12.42
10/19/2022 10:15:00 PM 9.39 48.902 0.138 7.31 1.79 12.42
10/19/2022 10:30:00 PM 9.37 48.866 0.138 7.3 1.81 12.43
10/19/2022 10:45:00 PM 9.37 48.866 0.138 7.29 1.82 12.43
10/19/2022 11:00:00 PM 9.35 48.83 0.138 7.31 1.84 12.46
10/19/2022 11:15:00 PM 9.35 48.83 0.138 7.3 1.83 12.45
10/19/2022 11:30:00 PM 9.34 48.812 0.138 7.31 1.81 12.47
10/19/2022 11:45:00 PM 9.32 48.776 0.138 7.31 1.8 12.46
10/20/2022 12:00:00 AM 9.29 48.722 0.138 7.32 1.72 12.48
10/20/2022 12:15:00 AM 9.28 48.704 0.138 7.3 1.79 12.49
10/20/2022 12:30:00 AM 9.28 48.704 0.138 7.29 1.79 12.47
10/20/2022 12:45:00 AM 9.28 48.704 0.138 7.31 1.8 12.49
10/20/2022 1:00:00 AM 9.29 48.722 0.138 7.29 1.77 12.45
10/20/2022 1:15:00 AM 9.29 48.722 0.138 7.3 1.79 12.48
10/20/2022 1:30:00 AM 9.29 48.722 0.138 7.3 1.81 12.46
10/20/2022 1:45:00 AM 9.29 48.722 0.138 7.29 1.79 12.48
10/20/2022 2:00:00 AM 9.29 48.722 0.138 7.29 1.75 12.47
10/20/2022 2:15:00 AM 9.26 48.668 0.138 7.31 1.82 12.49
10/20/2022 2:30:00 AM 9.23 48.614 0.138 7.3 1.75 12.5
10/20/2022 2:45:00 AM 9.22 48.596 0.138 7.3 1.78 12.5
10/20/2022 3:00:00 AM 9.2 48.56 0.138 7.29 1.82 12.51
10/20/2022 3:15:00 AM 9.18 48.524 0.138 7.3 1.81 12.51
10/20/2022 3:30:00 AM 9.15 48.47 0.138 7.3 1.84 12.52
10/20/2022 3:45:00 AM 9.11 48.398 0.138 7.3 1.83 12.52
10/20/2022 4:00:00 AM 9.1 48.38 0.138 7.29 1.83 12.51
10/20/2022 4:15:00 AM 9.09 48.362 0.138 7.29 1.88 12.52
10/20/2022 4:30:00 AM 9.06 48.308 0.138 7.3 1.88 12.54
10/20/2022 4:45:00 AM 9.03 48.254 0.138 7.3 1.99 12.54
10/20/2022 5:00:00 AM 9 48.2 0.138 7.31 1.84 12.58
10/20/2022 5:15:00 AM 8.97 48.146 0.138 7.31 1.87 12.58
10/20/2022 5:30:00 AM 8.95 48.11 0.138 7.3 1.87 12.57
10/20/2022 5:45:00 AM 8.92 48.056 0.138 7.3 1.87 12.6
10/20/2022 6:00:00 AM 8.89 48.002 0.138 7.29 1.81 12.6
10/20/2022 6:15:00 AM 8.84 47.912 0.138 7.29 1.81 12.62
10/20/2022 6:30:00 AM 8.81 47.858 0.138 7.29 1.83 12.63
10/20/2022 6:45:00 AM 8.77 47.786 0.138 7.28 1.85 12.65
10/20/2022 7:00:00 AM 8.73 47.714 0.138 7.28 1.85 12.67
10/20/2022 7:15:00 AM 8.7 47.66 0.138 7.29 1.81 12.68
10/20/2022 7:30:00 AM 8.69 47.642 0.138 7.29 1.85 12.69
10/20/2022 7:45:00 AM 8.68 47.624 0.138 7.31 1.8 12.73
10/20/2022 8:00:00 AM 8.69 47.642 0.138 7.31 1.78 12.78
10/20/2022 8:15:00 AM 8.7 47.66 0.138 7.31 1.81 12.78
10/20/2022 8:30:00 AM 8.72 47.696 0.138 7.33 1.78 12.87
10/20/2022 8:45:00 AM 8.74 47.732 0.138 7.35 1.9 12.95
10/20/2022 9:00:00 AM 8.76 47.768 0.138 7.39 1.81 13.04
10/20/2022 9:15:00 AM 8.8 47.84 0.138 7.41 1.79 13.2
10/20/2022 9:30:00 AM 8.86 47.948 0.138 7.45 1.81 13.31
10/20/2022 9:45:00 AM 8.94 48.092 0.137 7.51 1.81 13.51
10/20/2022 10:00:00 AM 9.06 48.308 0.137 7.56 1.81 13.64
10/20/2022 10:15:00 AM 9.21 48.578 0.137 7.64 1.77 13.77
10/20/2022 10:30:00 AM 9.35 48.83 0.137 7.69 1.76 13.88
10/20/2022 10:45:00 AM 9.42 48.956 0.137 7.71 1.77 13.91
10/20/2022 11:00:00 AM 9.47 49.046 0.137 7.73 1.72 13.9
10/20/2022 11:15:00 AM 9.53 49.154 0.137 7.76 1.76 13.91
10/20/2022 11:30:00 AM 9.64 49.352 0.136 7.8 1.81 13.96
10/20/2022 11:45:00 AM 9.8 49.64 0.136 7.81 1.77 13.95
10/20/2022 12:00:00 PM 9.91 49.838 0.136 7.84 1.77 13.92
10/20/2022 12:15:00 PM 10.02 50.036 0.136 7.89 1.78 13.98
10/20/2022 12:30:00 PM 10.19 50.342 0.136 7.9 3.47 13.94
10/20/2022 12:45:00 PM 10.39 50.702 0.136 7.91 1.84 13.94
10/20/2022 1:00:00 PM 10.51 50.918 0.136 7.91 2.49 13.89
10/20/2022 1:15:00 PM 10.53 50.954 0.136 7.88 1.82 13.77
10/20/2022 1:30:00 PM 10.51 50.918 0.136 7.84 1.79 13.65
10/20/2022 1:45:00 PM 10.48 50.864 0.136 7.8 1.8 13.59
10/20/2022 2:00:00 PM 10.48 50.864 0.136 7.75 1.79 13.51
10/20/2022 2:15:00 PM 10.4 50.72 0.136 7.76 1.86 13.53
10/20/2022 2:30:00 PM 10.37 50.666 0.136 7.79 1.81 13.56
10/20/2022 2:45:00 PM 10.36 50.648 0.136 7.78 1.85 13.59
10/20/2022 3:00:00 PM 10.36 50.648 0.136 7.8 1.74 13.61
10/20/2022 3:15:00 PM 10.4 50.72 0.136 7.82 1.75 13.61
10/20/2022 3:30:00 PM 10.44 50.792 0.136 7.81 1.76 13.59
10/20/2022 3:45:00 PM 10.47 50.846 0.136 7.81 1.72 13.51
10/20/2022 4:00:00 PM 10.49 50.882 0.136 7.79 1.75 13.44
10/20/2022 4:15:00 PM 10.48 50.864 0.137 7.73 1.79 13.33
10/20/2022 4:30:00 PM 10.48 50.864 0.137 7.66 1.78 13.16
10/20/2022 4:45:00 PM 10.47 50.846 0.137 7.65 1.8 13.12
10/20/2022 5:00:00 PM 10.48 50.864 0.137 7.62 1.84 13.04
10/20/2022 5:15:00 PM 10.46 50.828 0.137 7.58 1.79 12.91
10/20/2022 5:30:00 PM 10.43 50.774 0.137 7.53 1.84 12.78
10/20/2022 5:45:00 PM 10.41 50.738 0.138 7.51 1.87 12.67
10/20/2022 6:00:00 PM 10.39 50.702 0.138 7.47 2.42 12.6
10/20/2022 6:15:00 PM 10.36 50.648 0.138 7.43 2.09 12.48
10/20/2022 6:30:00 PM 10.33 50.594 0.138 7.41 1.78 12.42
10/20/2022 6:45:00 PM 10.29 50.522 0.138 7.39 1.76 12.33
10/20/2022 7:00:00 PM 10.24 50.432 0.138 7.36 1.77 12.26
10/20/2022 7:15:00 PM 10.18 50.324 0.139 7.36 1.78 12.27
10/20/2022 7:30:00 PM 10.12 50.216 0.139 7.34 1.76 12.26
10/20/2022 7:45:00 PM 10.05 50.09 0.139 7.34 2.16 12.25
10/20/2022 8:00:00 PM 9.98 49.964 0.139 7.34 1.89 12.26
10/20/2022 8:15:00 PM 9.89 49.802 0.139 7.34 1.79 12.29
10/20/2022 8:30:00 PM 9.82 49.676 0.14 7.33 1.8 12.3
10/20/2022 8:45:00 PM 9.73 49.514 0.139 7.33 1.82 12.33
10/20/2022 9:00:00 PM 9.65 49.37 0.14 7.32 1.82 12.34
10/20/2022 9:15:00 PM 9.59 49.262 0.14 7.32 1.8 12.37
10/20/2022 9:30:00 PM 9.52 49.136 0.14 7.32 1.79 12.39
10/20/2022 9:45:00 PM 9.47 49.046 0.14 7.32 1.78 12.41
10/20/2022 10:00:00 PM 9.4 48.92 0.14 7.32 1.8 12.43
10/20/2022 10:15:00 PM 9.35 48.83 0.14 7.32 1.84 12.45
10/20/2022 10:30:00 PM 9.29 48.722 0.14 7.31 1.78 12.46
10/20/2022 10:45:00 PM 9.23 48.614 0.14 7.31 1.76 12.48
10/20/2022 11:00:00 PM 9.17 48.506 0.14 7.3 1.79 12.49
10/20/2022 11:15:00 PM 9.11 48.398 0.14 7.3 1.81 12.51
10/20/2022 11:30:00 PM 9.06 48.308 0.14 7.31 1.83 12.54
10/20/2022 11:45:00 PM 9.03 48.254 0.14 7.29 1.83 12.54
10/21/2022 12:00:00 AM 8.99 48.182 0.14 7.29 1.79 12.56
10/21/2022 12:15:00 AM 8.96 48.128 0.14 7.28 1.77 12.54
10/21/2022 12:30:00 AM 8.93 48.074 0.14 7.29 1.81 12.58
10/21/2022 12:45:00 AM 8.91 48.038 0.14 7.28 1.85 12.59
10/21/2022 1:00:00 AM 8.89 48.002 0.14 7.27 1.83 12.58
10/21/2022 1:15:00 AM 8.88 47.984 0.14 7.28 1.8 12.57
10/21/2022 1:30:00 AM 8.86 47.948 0.14 7.28 2.08 12.6
10/21/2022 1:45:00 AM 8.85 47.93 0.14 7.28 1.8 12.61
10/21/2022 2:00:00 AM 8.83 47.894 0.14 7.28 1.82 12.62
10/21/2022 2:15:00 AM 8.81 47.858 0.14 7.27 1.8 12.6
10/21/2022 2:30:00 AM 8.79 47.822 0.14 7.27 1.81 12.64
10/21/2022 2:45:00 AM 8.74 47.732 0.14 7.27 1.79 12.63
10/21/2022 3:00:00 AM 8.71 47.678 0.14 7.26 1.84 12.63
10/21/2022 3:15:00 AM 8.66 47.588 0.14 7.27 1.73 12.63
10/21/2022 3:30:00 AM 8.6 47.48 0.14 7.27 1.77 12.67
10/21/2022 3:45:00 AM 8.56 47.408 0.14 7.26 1.8 12.65
10/21/2022 4:00:00 AM 8.51 47.318 0.14 7.27 1.77 12.67
10/21/2022 4:15:00 AM 8.45 47.21 0.14 7.27 1.77 12.72
10/21/2022 4:30:00 AM 8.41 47.138 0.14 7.28 1.8 12.75
10/21/2022 4:45:00 AM 8.38 47.084 0.14 7.27 1.86 12.77
10/21/2022 5:00:00 AM 8.33 46.994 0.14 7.26 1.86 12.77
10/21/2022 5:15:00 AM 8.28 46.904 0.14 7.27 2.03 12.8
10/21/2022 5:30:00 AM 8.23 46.814 0.14 7.26 1.82 12.81
10/21/2022 5:45:00 AM 8.17 46.706 0.141 7.27 1.79 12.85
10/21/2022 6:00:00 AM 8.12 46.616 0.14 7.27 1.78 12.85
10/21/2022 6:15:00 AM 8.05 46.49 0.14 7.27 1.88 12.89
10/21/2022 6:30:00 AM 8.03 46.454 0.14 7.26 1.8 12.9
10/21/2022 6:45:00 AM 7.96 46.328 0.14 7.27 1.78 12.9
10/21/2022 7:00:00 AM 7.92 46.256 0.14 7.27 1.85 12.92
10/21/2022 7:15:00 AM 7.88 46.184 0.141 7.26 1.87 12.95
10/21/2022 7:30:00 AM 7.83 46.094 0.14 7.26 2.33 12.99
10/21/2022 7:45:00 AM 7.78 46.004 0.14 7.28 1.81 13.01
10/21/2022 8:00:00 AM 7.76 45.968 0.14 7.28 1.82 13.07
10/21/2022 8:15:00 AM 7.74 45.932 0.14 7.29 1.81 13.12
10/21/2022 8:30:00 AM 7.74 45.932 0.14 7.31 1.79 13.3
10/21/2022 8:45:00 AM 7.73 45.914 0.14 7.33 1.8 13.4
10/21/2022 9:00:00 AM 7.73 45.914 0.14 7.35 1.79 13.47
10/21/2022 9:15:00 AM 7.73 45.914 0.14 7.37 1.81 13.56
10/21/2022 9:30:00 AM 7.77 45.986 0.14 7.38 1.78 13.61
10/21/2022 9:45:00 AM 7.82 46.076 0.14 7.4 1.83 13.67
10/21/2022 10:00:00 AM 7.9 46.22 0.14 7.44 1.78 13.75
10/21/2022 10:15:00 AM 8.02 46.436 0.14 7.5 1.74 14
10/21/2022 10:30:00 AM 8.16 46.688 0.14 7.53 1.75 14.1
10/21/2022 10:45:00 AM 8.31 46.958 0.14 7.57 1.78 14.17
10/21/2022 11:00:00 AM 8.48 47.264 0.139 7.6 1.76 14.19
10/21/2022 11:15:00 AM 8.67 47.606 0.139 7.61 1.8 14.24
10/21/2022 11:30:00 AM 8.84 47.912 0.139 7.66 1.78 14.26
10/21/2022 11:45:00 AM 9.02 48.236 0.139 7.67 1.8 14.29
10/21/2022 12:00:00 PM 9.2 48.56 0.139 7.68 1.76 14.25
10/21/2022 12:15:00 PM 9.35 48.83 0.139 7.68 1.76 14.18
10/21/2022 12:30:00 PM 9.5 49.1 0.139 7.69 1.75 14.15
10/21/2022 12:45:00 PM 9.64 49.352 0.139 7.66 1.72 14.08
10/21/2022 1:00:00 PM 9.72 49.496 0.139 7.66 1.68 14.04
10/21/2022 1:15:00 PM 9.74 49.532 0.139 7.67 1.74 13.98
10/21/2022 1:30:00 PM 9.77 49.586 0.139 7.69 1.7 13.92
10/21/2022 1:45:00 PM 9.81 49.658 0.139 7.67 1.73 13.84
10/21/2022 2:00:00 PM 9.85 49.73 0.139 7.65 2.11 13.79
10/21/2022 2:15:00 PM 9.86 49.748 0.139 7.66 1.81 13.76
10/21/2022 2:30:00 PM 9.87 49.766 0.139 7.64 1.77 13.71
10/21/2022 2:45:00 PM 9.88 49.784 0.139 7.59 1.71 13.62
10/21/2022 3:00:00 PM 9.83 49.694 0.139 7.61 1.75 13.56
10/21/2022 3:15:00 PM 9.82 49.676 0.139 7.58 1.77 13.45
10/21/2022 3:30:00 PM 9.83 49.694 0.139 7.54 2.35 13.36
10/21/2022 3:45:00 PM 9.82 49.676 0.139 7.56 1.75 13.3
10/21/2022 4:00:00 PM 9.84 49.712 0.139 7.55 1.75 13.24
10/21/2022 4:15:00 PM 9.88 49.784 0.139 7.51 1.81 13.17
10/21/2022 4:30:00 PM 9.9 49.82 0.139 7.51 1.78 13.1
10/21/2022 4:45:00 PM 9.92 49.856 0.14 7.49 1.78 13.05
10/21/2022 5:00:00 PM 9.95 49.91 0.139 7.47 1.9 12.97
10/21/2022 5:15:00 PM 9.96 49.928 0.14 7.46 1.85 12.91
10/21/2022 5:30:00 PM 9.98 49.964 0.14 7.45 1.83 12.84
10/21/2022 5:45:00 PM 10 50 0.14 7.44 1.79 12.77
10/21/2022 6:00:00 PM 10.02 50.036 0.14 7.41 1.74 12.7
10/21/2022 6:15:00 PM 10.03 50.054 0.14 7.39 1.74 12.62
10/21/2022 6:30:00 PM 10.04 50.072 0.14 7.38 1.77 12.54
10/21/2022 6:45:00 PM 10.03 50.054 0.14 7.37 1.75 12.45
10/21/2022 7:00:00 PM 10.03 50.054 0.14 7.35 1.78 12.38
10/21/2022 7:15:00 PM 10.02 50.036 0.14 7.34 1.83 12.34
10/21/2022 7:30:00 PM 10.01 50.018 0.141 7.32 1.78 12.3
10/21/2022 7:45:00 PM 9.98 49.964 0.141 7.31 1.81 12.29
10/21/2022 8:00:00 PM 9.94 49.892 0.141 7.32 1.79 12.28
10/21/2022 8:15:00 PM 9.9 49.82 0.141 7.31 1.86 12.28
10/21/2022 8:30:00 PM 9.86 49.748 0.141 7.31 1.87 12.29
10/21/2022 8:45:00 PM 9.8 49.64 0.141 7.31 1.93 12.31
10/21/2022 9:00:00 PM 9.74 49.532 0.142 7.3 1.82 12.33
10/21/2022 9:15:00 PM 9.67 49.406 0.142 7.31 1.95 12.34
10/21/2022 9:30:00 PM 9.6 49.28 0.142 7.32 1.86 12.38
10/21/2022 9:45:00 PM 9.54 49.172 0.142 7.3 1.87 12.39
10/21/2022 10:00:00 PM 9.48 49.064 0.142 7.3 1.79 12.4
10/21/2022 10:15:00 PM 9.42 48.956 0.142 7.29 1.92 12.4
10/21/2022 10:30:00 PM 9.34 48.812 0.142 7.29 1.79 12.4
10/21/2022 10:45:00 PM 9.28 48.704 0.142 7.3 1.75 12.45
10/21/2022 11:00:00 PM 9.22 48.596 0.142 7.3 1.76 12.5
10/21/2022 11:15:00 PM 9.15 48.47 0.142 7.3 1.74 12.51
10/21/2022 11:30:00 PM 9.1 48.38 0.142 7.3 1.78 12.54
10/21/2022 11:45:00 PM 9.05 48.29 0.142 7.29 1.83 12.55
10/22/2022 12:00:00 AM 9 48.2 0.142 7.29 6.02 12.49
10/22/2022 12:15:00 AM 8.94 48.092 0.142 7.3 1.93 12.53
10/22/2022 12:30:00 AM 8.9 48.02 0.142 7.29 4.59 12.49
10/22/2022 12:45:00 AM 8.85 47.93 0.142 7.29 1.88 12.62
10/22/2022 1:00:00 AM 8.8 47.84 0.142 7.3 1.77 12.63
10/22/2022 1:15:00 AM 8.76 47.768 0.142 7.3 1.79 12.66
10/22/2022 1:30:00 AM 8.72 47.696 0.142 7.29 1.8 12.66
10/22/2022 1:45:00 AM 8.67 47.606 0.142 7.3 1.78 12.7
10/22/2022 2:00:00 AM 8.65 47.57 0.142 7.29 1.82 12.69
10/22/2022 2:15:00 AM 8.6 47.48 0.142 7.3 1.84 12.73
10/22/2022 2:30:00 AM 8.56 47.408 0.142 7.29 1.86 12.74
10/22/2022 2:45:00 AM 8.52 47.336 0.142 7.29 1.87 12.73
10/22/2022 3:00:00 AM 8.48 47.264 0.142 7.3 1.8 12.76
10/22/2022 3:15:00 AM 8.45 47.21 0.142 7.3 1.93 12.75
10/22/2022 3:30:00 AM 8.43 47.174 0.142 7.27 1.76 12.76
10/22/2022 3:45:00 AM 8.39 47.102 0.142 7.29 1.8 12.77
10/22/2022 4:00:00 AM 8.35 47.03 0.142 7.29 1.77 12.81
10/22/2022 4:15:00 AM 8.32 46.976 0.143 7.29 1.79 12.81
10/22/2022 4:30:00 AM 8.28 46.904 0.143 7.29 1.75 12.82
10/22/2022 4:45:00 AM 8.25 46.85 0.143 7.29 1.77 12.84
10/22/2022 5:00:00 AM 8.21 46.778 0.143 7.29 1.89 12.85
10/22/2022 5:15:00 AM 8.17 46.706 0.143 7.29 1.78 12.86
10/22/2022 5:30:00 AM 8.13 46.634 0.143 7.29 1.83 12.89
10/22/2022 5:45:00 AM 8.11 46.598 0.143 7.28 1.76 12.88
10/22/2022 6:00:00 AM 8.07 46.526 0.143 7.29 1.77 12.9
10/22/2022 6:15:00 AM 8.03 46.454 0.143 7.3 1.79 12.93
10/22/2022 6:30:00 AM 8.01 46.418 0.143 7.28 1.98 12.92
10/22/2022 6:45:00 AM 7.99 46.382 0.143 7.28 1.85 12.94
10/22/2022 7:00:00 AM 7.96 46.328 0.143 7.27 1.86 12.94
10/22/2022 7:15:00 AM 7.94 46.292 0.143 7.28 19.59 12.95
10/22/2022 7:30:00 AM 7.9 46.22 0.143 7.28 2.06 12.96
10/22/2022 7:45:00 AM 7.88 46.184 0.143 7.27 2.01 12.99
10/22/2022 8:00:00 AM 7.85 46.13 0.143 7.28 2.55 13.06
10/22/2022 8:15:00 AM 7.84 46.112 0.143 7.3 1.96 13.16
10/22/2022 8:30:00 AM 7.83 46.094 0.143 7.31 1.8 13.25
10/22/2022 8:45:00 AM 7.84 46.112 0.143 7.33 1.85 13.34
10/22/2022 9:00:00 AM 7.86 46.148 0.142 7.35 1.81 13.44
10/22/2022 9:15:00 AM 7.88 46.184 0.142 7.37 1.95 13.54
10/22/2022 9:30:00 AM 7.93 46.274 0.142 7.4 1.82 13.64
10/22/2022 9:45:00 AM 8.01 46.418 0.142 7.43 1.77 13.73
10/22/2022 10:00:00 AM 8.14 46.652 0.142 7.47 1.81 13.89
10/22/2022 10:15:00 AM 8.3 46.94 0.142 7.53 1.81 14
10/22/2022 10:30:00 AM 8.46 47.228 0.142 7.57 1.79 14.1
10/22/2022 10:45:00 AM 8.65 47.57 0.142 7.6 1.95 14.18
10/22/2022 11:00:00 AM 8.83 47.894 0.142 7.68 1.75 14.24
10/22/2022 11:15:00 AM 9.05 48.29 0.142 7.68 1.76 14.34
10/22/2022 11:30:00 AM 9.24 48.632 0.141 7.71 1.72 14.32
10/22/2022 11:45:00 AM 9.45 49.01 0.141 7.72 1.79 14.31
10/22/2022 12:00:00 PM 9.65 49.37 0.141 7.74 1.83 14.31
10/22/2022 12:15:00 PM 9.82 49.676 0.141 7.75 2.64 14.27
10/22/2022 12:30:00 PM 9.99 49.982 0.141 7.77 1.79 14.22
10/22/2022 12:45:00 PM 10.14 50.252 0.141 7.76 1.76 14.18
10/22/2022 1:00:00 PM 10.25 50.45 0.141 7.79 1.76 14.12
10/22/2022 1:15:00 PM 10.28 50.504 0.141 7.78 1.78 14.06
10/22/2022 1:30:00 PM 10.32 50.576 0.141 7.79 1.76 13.99
10/22/2022 1:45:00 PM 10.36 50.648 0.141 7.78 1.71 13.91
10/22/2022 2:00:00 PM 10.43 50.774 0.141 7.71 1.96 13.85
10/22/2022 2:15:00 PM 10.44 50.792 0.141 7.69 1.8 13.78
10/22/2022 2:30:00 PM 10.46 50.828 0.141 7.67 1.75 13.69
10/22/2022 2:45:00 PM 10.46 50.828 0.141 7.65 2.03 13.62
10/22/2022 3:00:00 PM 10.44 50.792 0.141 7.62 1.74 13.52
10/22/2022 3:15:00 PM 10.44 50.792 0.141 7.58 1.83 13.4
10/22/2022 3:30:00 PM 10.44 50.792 0.141 7.58 1.79 13.36
10/22/2022 3:45:00 PM 10.44 50.792 0.141 7.58 1.74 13.26
10/22/2022 4:00:00 PM 10.46 50.828 0.141 7.54 1.94 13.17
10/22/2022 4:15:00 PM 10.47 50.846 0.141 7.5 1.89 13.09
10/22/2022 4:30:00 PM 10.49 50.882 0.141 7.49 1.75 13.02
10/22/2022 4:45:00 PM 10.51 50.918 0.141 7.47 1.96 12.96
10/22/2022 5:00:00 PM 10.53 50.954 0.142 7.46 1.8 12.89
10/22/2022 5:15:00 PM 10.54 50.972 0.141 7.45 4.62 12.81
10/22/2022 5:30:00 PM 10.56 51.008 0.142 7.43 1.99 12.73
10/22/2022 5:45:00 PM 10.57 51.026 0.142 7.41 3.14 12.66
10/22/2022 6:00:00 PM 10.59 51.062 0.142 7.39 1.83 12.58
10/22/2022 6:15:00 PM 10.6 51.08 0.142 7.38 1.98 12.51
10/22/2022 6:30:00 PM 10.61 51.098 0.142 7.34 1.75 12.4
10/22/2022 6:45:00 PM 10.61 51.098 0.142 7.33 1.76 12.3
10/22/2022 7:00:00 PM 10.61 51.098 0.142 7.32 1.83 12.24
10/22/2022 7:15:00 PM 10.61 51.098 0.142 7.3 1.77 12.17
10/22/2022 7:30:00 PM 10.6 51.08 0.142 7.29 1.79 12.13
10/22/2022 7:45:00 PM 10.59 51.062 0.142 7.29 1.79 12.11
10/22/2022 8:00:00 PM 10.58 51.044 0.143 7.27 1.86 12.1
10/22/2022 8:15:00 PM 10.55 50.99 0.143 7.28 1.93 12.09
10/22/2022 8:30:00 PM 10.52 50.936 0.143 7.28 1.87 12.08
10/22/2022 8:45:00 PM 10.47 50.846 0.143 7.27 1.88 12.1
10/22/2022 9:00:00 PM 10.43 50.774 0.143 7.27 1.93 12.11
10/22/2022 9:15:00 PM 10.38 50.684 0.143 7.28 1.85 12.1
10/22/2022 9:30:00 PM 10.33 50.594 0.144 7.27 1.81 12.1
10/22/2022 9:45:00 PM 10.27 50.486 0.144 7.27 1.95 12.13
10/22/2022 10:00:00 PM 10.2 50.36 0.144 7.26 1.9 12.15
10/22/2022 10:15:00 PM 10.15 50.27 0.144 7.27 2.12 12.18
10/22/2022 10:30:00 PM 10.08 50.144 0.144 7.26 1.88 12.2
10/22/2022 10:45:00 PM 10.02 50.036 0.144 7.27 1.86 12.22
10/22/2022 11:00:00 PM 9.96 49.928 0.144 7.27 1.85 12.25
10/22/2022 11:15:00 PM 9.89 49.802 0.144 7.27 1.82 12.27
10/22/2022 11:30:00 PM 9.83 49.694 0.144 7.28 1.85 12.31
10/22/2022 11:45:00 PM 9.78 49.604 0.144 7.27 1.82 12.31
10/23/2022 12:00:00 AM 9.72 49.496 0.144 7.26 1.87 12.32
10/23/2022 12:15:00 AM 9.65 49.37 0.144 7.27 1.76 12.36
10/23/2022 12:30:00 AM 9.59 49.262 0.144 7.27 1.77 12.39
10/23/2022 12:45:00 AM 9.53 49.154 0.144 7.28 1.76 12.4
10/23/2022 1:00:00 AM 9.47 49.046 0.144 7.28 1.9 12.44
10/23/2022 1:15:00 AM 9.43 48.974 0.144 7.27 1.8 12.44
10/23/2022 1:30:00 AM 9.37 48.866 0.144 7.28 1.81 12.46
10/23/2022 1:45:00 AM 9.31 48.758 0.144 7.28 1.84 12.49
10/23/2022 2:00:00 AM 9.26 48.668 0.144 7.28 1.83 12.49
10/23/2022 2:15:00 AM 9.21 48.578 0.144 7.27 1.8 12.51
10/23/2022 2:30:00 AM 9.16 48.488 0.144 7.27 1.83 12.53
10/23/2022 2:45:00 AM 9.1 48.38 0.144 7.27 1.77 12.53
10/23/2022 3:00:00 AM 9.05 48.29 0.144 7.27 1.8 12.56
10/23/2022 3:15:00 AM 9 48.2 0.144 7.27 1.77 12.58
10/23/2022 3:30:00 AM 8.96 48.128 0.144 7.28 1.73 12.58
10/23/2022 3:45:00 AM 8.91 48.038 0.144 7.27 1.78 12.62
10/23/2022 4:00:00 AM 8.85 47.93 0.144 7.28 1.8 12.64
10/23/2022 4:15:00 AM 8.81 47.858 0.144 7.27 1.78 12.66
10/23/2022 4:30:00 AM 8.77 47.786 0.144 7.27 1.83 12.67
10/23/2022 4:45:00 AM 8.73 47.714 0.145 7.28 1.82 12.67
10/23/2022 5:00:00 AM 8.68 47.624 0.145 7.28 1.78 12.69
10/23/2022 5:15:00 AM 8.64 47.552 0.145 7.28 1.81 12.72
10/23/2022 5:30:00 AM 8.59 47.462 0.144 7.28 1.81 12.74
10/23/2022 5:45:00 AM 8.54 47.372 0.145 7.26 1.79 12.78
10/23/2022 6:00:00 AM 8.5 47.3 0.145 7.28 1.85 12.8
10/23/2022 6:15:00 AM 8.46 47.228 0.145 7.28 1.76 12.81
10/23/2022 6:30:00 AM 8.43 47.174 0.145 7.28 1.76 12.84
10/23/2022 6:45:00 AM 8.4 47.12 0.145 7.27 1.79 12.84
10/23/2022 7:00:00 AM 8.37 47.066 0.145 7.28 1.77 12.85
10/23/2022 7:15:00 AM 8.33 46.994 0.145 7.28 1.83 12.86
10/23/2022 7:30:00 AM 8.29 46.922 0.145 7.28 1.92 12.89
10/23/2022 7:45:00 AM 8.27 46.886 0.145 7.28 1.99 12.84
10/23/2022 8:00:00 AM 8.23 46.814 0.145 7.28 1.87 12.87
10/23/2022 8:15:00 AM 8.21 46.778 0.145 7.3 1.97 13.04
10/23/2022 8:30:00 AM 8.21 46.778 0.144 7.3 1.96 13.15
10/23/2022 8:45:00 AM 8.22 46.796 0.144 7.33 1.91 13.34
10/23/2022 9:00:00 AM 8.23 46.814 0.144 7.38 2 13.54
10/23/2022 9:15:00 AM 8.26 46.868 0.144 7.42 1.84 13.72
10/23/2022 9:30:00 AM 8.3 46.94 0.144 7.45 1.84 13.89
10/23/2022 9:45:00 AM 8.35 47.03 0.144 7.5 1.92 13.99
10/23/2022 10:00:00 AM 8.43 47.174 0.144 7.54 1.83 14.16
10/23/2022 10:15:00 AM 8.52 47.336 0.143 7.58 1.87 14.27
10/23/2022 10:30:00 AM 8.6 47.48 0.143 7.63 2.05 14.36
10/23/2022 10:45:00 AM 8.68 47.624 0.143 7.68 1.97 14.42
10/23/2022 11:00:00 AM 8.8 47.84 0.143 7.72 1.84 14.47
10/23/2022 11:15:00 AM 8.9 48.02 0.143 7.76 3.18 14.53
10/23/2022 11:30:00 AM 9.03 48.254 0.143 7.78 2.81 14.55
10/23/2022 11:45:00 AM 9.17 48.506 0.143 7.83 1.81 14.56
10/23/2022 12:00:00 PM 9.38 48.884 0.142 7.89 1.79 14.62
10/23/2022 12:15:00 PM 9.6 49.28 0.142 7.93 1.75 14.62
10/23/2022 12:30:00 PM 9.72 49.496 0.142 8 1.8 14.61
10/23/2022 12:45:00 PM 9.85 49.73 0.142 7.97 1.73 14.51
10/23/2022 1:00:00 PM 9.95 49.91 0.142 8.01 1.67 14.48
10/23/2022 1:15:00 PM 10.06 50.108 0.142 8.02 1.75 14.5
10/23/2022 1:30:00 PM 10.16 50.288 0.142 8.03 1.69 14.48
10/23/2022 1:45:00 PM 10.28 50.504 0.142 8.04 1.74 14.44
10/23/2022 2:00:00 PM 10.39 50.702 0.142 7.98 1.75 14.36
10/23/2022 2:15:00 PM 10.47 50.846 0.142 8.07 1.78 14.35
10/23/2022 2:30:00 PM 10.54 50.972 0.142 8.05 1.83 14.22
10/23/2022 2:45:00 PM 10.6 51.08 0.142 8.04 1.79 14.14
10/23/2022 3:00:00 PM 10.67 51.206 0.142 7.94 1.74 14.02
10/23/2022 3:15:00 PM 10.76 51.368 0.142 7.98 1.73 14.03
10/23/2022 3:30:00 PM 10.84 51.512 0.142 7.99 1.76 14
10/23/2022 3:45:00 PM 10.9 51.62 0.142 7.95 1.83 13.83
10/23/2022 4:00:00 PM 10.94 51.692 0.142 7.83 1.76 13.65
10/23/2022 4:15:00 PM 10.97 51.746 0.142 7.77 1.77 13.46
10/23/2022 4:30:00 PM 11 51.8 0.142 7.68 1.74 13.24
10/23/2022 4:45:00 PM 11.02 51.836 0.142 7.63 1.71 13.09
10/23/2022 5:00:00 PM 11.04 51.872 0.142 7.55 1.76 12.91
10/23/2022 5:15:00 PM 11.05 51.89 0.143 7.5 1.72 12.79
10/23/2022 5:30:00 PM 11.06 51.908 0.143 7.48 1.72 12.7
10/23/2022 5:45:00 PM 11.07 51.926 0.143 7.45 1.86 12.61
10/23/2022 6:00:00 PM 11.07 51.926 0.143 7.41 1.71 12.47
10/23/2022 6:15:00 PM 11.08 51.944 0.143 7.39 1.75 12.39
10/23/2022 6:30:00 PM 11.08 51.944 0.143 7.35 1.77 12.26
10/23/2022 6:45:00 PM 11.08 51.944 0.144 7.34 1.73 12.21
10/23/2022 7:00:00 PM 11.08 51.944 0.144 7.32 1.73 12.09
10/23/2022 7:15:00 PM 11.08 51.944 0.144 7.3 1.74 12.03
10/23/2022 7:30:00 PM 11.07 51.926 0.144 7.28 1.77 12.01
10/23/2022 7:45:00 PM 11.07 51.926 0.144 7.27 1.74 11.96
10/23/2022 8:00:00 PM 11.07 51.926 0.145 7.27 1.78 11.94
10/23/2022 8:15:00 PM 11.06 51.908 0.145 7.27 1.76 11.98
10/23/2022 8:30:00 PM 11.06 51.908 0.145 7.26 1.76 11.94
10/23/2022 8:45:00 PM 11.05 51.89 0.145 7.26 1.72 11.93
10/23/2022 9:00:00 PM 11.05 51.89 0.145 7.25 1.77 11.94
10/23/2022 9:15:00 PM 11.04 51.872 0.145 7.25 1.8 11.93
10/23/2022 9:30:00 PM 11.04 51.872 0.145 7.24 1.82 11.88
10/23/2022 9:45:00 PM 11.03 51.854 0.145 7.25 2.01 11.93
10/23/2022 10:00:00 PM 11.03 51.854 0.145 7.25 1.81 11.93
10/23/2022 10:15:00 PM 11.02 51.836 0.145 7.25 1.8 11.92
10/23/2022 10:30:00 PM 11.02 51.836 0.145 7.24 1.79 11.92
10/23/2022 10:45:00 PM 11.02 51.836 0.145 7.22 1.76 11.88
10/23/2022 11:00:00 PM 11.01 51.818 0.145 7.23 1.8 11.91
10/23/2022 11:15:00 PM 11 51.8 0.145 7.22 3.43 11.9
10/23/2022 11:30:00 PM 10.99 51.782 0.146 7.23 1.98 11.88
10/23/2022 11:45:00 PM 10.98 51.764 0.146 7.21 1.77 11.9
10/24/2022 12:00:00 AM 10.98 51.764 0.146 7.22 1.83 11.91
10/24/2022 12:15:00 AM 10.97 51.746 0.146 7.21 1.79 11.89
10/24/2022 12:30:00 AM 10.97 51.746 0.146 7.21 1.75 11.88
10/24/2022 12:45:00 AM 10.96 51.728 0.146 7.21 1.73 11.89
10/24/2022 1:00:00 AM 10.96 51.728 0.146 7.21 1.83 11.89
10/24/2022 1:15:00 AM 10.96 51.728 0.146 7.22 1.77 11.9
10/24/2022 1:30:00 AM 10.97 51.746 0.146 7.22 1.82 11.91
10/24/2022 1:45:00 AM 10.97 51.746 0.146 7.22 1.83 11.9
10/24/2022 2:00:00 AM 10.98 51.764 0.146 7.21 1.81 11.9
10/24/2022 2:15:00 AM 10.99 51.782 0.146 7.22 1.85 11.9
10/24/2022 2:30:00 AM 10.99 51.782 0.146 7.23 1.83 11.87
10/24/2022 2:45:00 AM 11 51.8 0.146 7.23 1.9 11.91
10/24/2022 3:00:00 AM 11.01 51.818 0.146 7.21 1.8 11.87
10/24/2022 3:15:00 AM 11.01 51.818 0.146 7.21 1.78 11.89
10/24/2022 3:30:00 AM 11.01 51.818 0.146 7.23 1.76 11.89
10/24/2022 3:45:00 AM 11.02 51.836 0.146 7.2 1.83 11.87
10/24/2022 4:00:00 AM 11.02 51.836 0.146 7.22 1.8 11.86
10/24/2022 4:15:00 AM 11.03 51.854 0.144 7.21 1.95 11.87
10/24/2022 4:30:00 AM 11.05 51.89 0.142 7.21 2.41 11.88
10/24/2022 4:45:00 AM 11.07 51.926 0.14 7.21 2.47 11.87
10/24/2022 5:00:00 AM 11.08 51.944 0.139 7.2 2.53 11.85
10/24/2022 5:15:00 AM 11.08 51.944 0.138 7.19 2.8 11.84
10/24/2022 5:30:00 AM 11.08 51.944 0.138 7.18 2.52 11.79
10/24/2022 5:45:00 AM 11.09 51.962 0.138 7.17 2.41 11.74
10/24/2022 6:00:00 AM 11.09 51.962 0.138 7.16 2.23 11.75
10/24/2022 6:15:00 AM 11.1 51.98 0.137 7.14 2.2 11.72
10/24/2022 6:30:00 AM 11.1 51.98 0.137 7.13 2.04 11.73
10/24/2022 6:45:00 AM 11.11 51.998 0.137 7.14 2.49 11.72
10/24/2022 7:00:00 AM 11.11 51.998 0.138 7.14 2.31 11.7
10/24/2022 7:15:00 AM 11.11 51.998 0.138 7.14 6.28 11.78
10/24/2022 7:30:00 AM 11.12 52.016 0.139 7.14 2.1 11.77
10/24/2022 7:45:00 AM 11.12 52.016 0.139 7.15 3.75 11.8
10/24/2022 8:00:00 AM 11.12 52.016 0.139 7.17 2.3 11.83
10/24/2022 8:15:00 AM 11.13 52.034 0.139 7.17 1.95 11.94
10/24/2022 8:30:00 AM 11.13 52.034 0.139 7.17 2.03 12.01
10/24/2022 8:45:00 AM 11.15 52.07 0.139 7.18 1.91 12.07
10/24/2022 9:00:00 AM 11.17 52.106 0.139 7.21 1.89 12.19
10/24/2022 9:15:00 AM 11.21 52.178 0.139 7.22 1.89 12.32
10/24/2022 9:30:00 AM 11.25 52.25 0.139 7.25 1.88 12.43
10/24/2022 9:45:00 AM 11.28 52.304 0.139 7.3 1.97 12.54
10/24/2022 10:00:00 AM 11.33 52.394 0.139 7.36 1.89 12.68
10/24/2022 10:15:00 AM 11.42 52.556 0.139 7.43 1.86 12.87
10/24/2022 10:30:00 AM 11.49 52.682 0.139 7.46 1.87 13.03
10/24/2022 10:45:00 AM 11.55 52.79 0.139 7.49 1.8 13.13
10/24/2022 11:00:00 AM 11.62 52.916 0.139 7.51 1.9 13.16
10/24/2022 11:15:00 AM 11.69 53.042 0.138 7.57 1.89 13.24
10/24/2022 11:30:00 AM 11.74 53.132 0.138 7.56 1.88 13.25
10/24/2022 11:45:00 AM 11.76 53.168 0.138 7.54 1.93 13.1
10/24/2022 12:00:00 PM 11.78 53.204 0.138 7.49 1.87 12.98
10/24/2022 12:15:00 PM 11.81 53.258 0.138 7.51 2.19 12.92
10/24/2022 12:30:00 PM 11.84 53.312 0.139 7.52 1.91 12.92
10/24/2022 12:45:00 PM 11.89 53.402 0.139 7.54 1.99 13.06
10/24/2022 1:00:00 PM 11.94 53.492 0.139 7.57 1.9 13.07
10/24/2022 1:15:00 PM 11.99 53.582 0.139 7.56 1.85 13.09
10/24/2022 1:30:00 PM 12.06 53.708 0.139 7.64 2.35 13.14
10/24/2022 1:45:00 PM 12.15 53.87 0.139 7.67 1.99 13.26
10/24/2022 2:00:00 PM 12.23 54.014 0.139 7.75 2 13.35
10/24/2022 2:15:00 PM 12.31 54.158 0.139 7.79 1.83 13.35
10/24/2022 2:30:00 PM 12.4 54.32 0.14 7.84 1.89 13.43
10/24/2022 2:45:00 PM 12.45 54.41 0.14 7.82 1.84 13.39
10/24/2022 3:00:00 PM 12.49 54.482 0.14 7.67 1.84 13.23
10/24/2022 3:15:00 PM 12.49 54.482 0.14 7.69 1.86 13.09
10/24/2022 3:30:00 PM 12.49 54.482 0.141 7.62 1.84 12.82
10/24/2022 3:45:00 PM 12.48 54.464 0.141 7.57 1.85 12.66
10/24/2022 4:00:00 PM 12.48 54.464 0.141 7.52 1.87 12.57
10/24/2022 4:15:00 PM 12.5 54.5 0.141 7.52 1.83 12.56
10/24/2022 4:30:00 PM 12.52 54.536 0.141 7.53 1.84 12.6
10/24/2022 4:45:00 PM 12.54 54.572 0.141 7.53 1.9 12.58
10/24/2022 5:00:00 PM 12.54 54.572 0.142 7.49 1.82 12.47
10/24/2022 5:15:00 PM 12.54 54.572 0.142 7.44 1.83 12.31
10/24/2022 5:30:00 PM 12.53 54.554 0.142 7.39 1.79 12.13
10/24/2022 5:45:00 PM 12.52 54.536 0.143 7.38 1.82 12.03
10/24/2022 6:00:00 PM 12.5 54.5 0.143 7.35 1.84 11.93
10/24/2022 6:15:00 PM 12.49 54.482 0.143 7.32 1.84 11.83
10/24/2022 6:30:00 PM 12.47 54.446 0.143 7.3 1.89 11.75
10/24/2022 6:45:00 PM 12.45 54.41 0.143 7.28 1.83 11.67
10/24/2022 7:00:00 PM 12.44 54.392 0.143 7.26 1.91 11.65
10/24/2022 7:15:00 PM 12.42 54.356 0.143 7.26 1.83 11.62
10/24/2022 7:30:00 PM 12.41 54.338 0.143 7.25 1.87 11.59
10/24/2022 7:45:00 PM 12.4 54.32 0.143 7.23 1.81 11.59
10/24/2022 8:00:00 PM 12.39 54.302 0.143 7.23 1.96 11.58
10/24/2022 8:15:00 PM 12.37 54.266 0.143 7.23 1.87 11.59
10/24/2022 8:30:00 PM 12.36 54.248 0.143 7.21 1.85 11.6
10/24/2022 8:45:00 PM 12.35 54.23 0.144 7.22 1.92 11.59
10/24/2022 9:00:00 PM 12.34 54.212 0.144 7.2 1.92 11.6
10/24/2022 9:15:00 PM 12.33 54.194 0.144 7.22 1.87 11.6
10/24/2022 9:30:00 PM 12.32 54.176 0.144 7.21 1.81 11.58
10/24/2022 9:45:00 PM 12.31 54.158 0.144 7.19 1.87 11.56
10/24/2022 10:00:00 PM 12.3 54.14 0.144 7.19 1.79 11.56
10/24/2022 10:15:00 PM 12.29 54.122 0.144 7.19 1.85 11.55
10/24/2022 10:30:00 PM 12.28 54.104 0.144 7.18 1.97 11.58
10/24/2022 10:45:00 PM 12.28 54.104 0.144 7.18 1.83 11.58
10/24/2022 11:00:00 PM 12.27 54.086 0.144 7.19 1.72 11.57
10/24/2022 11:15:00 PM 12.27 54.086 0.145 7.18 1.83 11.58
10/24/2022 11:30:00 PM 12.26 54.068 0.145 7.18 3.1 11.6
10/24/2022 11:45:00 PM 12.25 54.05 0.145 7.17 1.91 11.57
10/25/2022 12:00:00 AM 12.25 54.05 0.145 7.17 2.59 11.59
10/25/2022 12:15:00 AM 12.24 54.032 0.145 7.15 2.26 11.57
10/25/2022 12:30:00 AM 12.24 54.032 0.145 7.17 1.82 11.57
10/25/2022 12:45:00 AM 12.24 54.032 0.145 7.16 1.98 11.57
10/25/2022 1:00:00 AM 12.23 54.014 0.145 7.17 1.8 11.58
10/25/2022 1:15:00 AM 12.23 54.014 0.145 7.15 1.85 11.56
10/25/2022 1:30:00 AM 12.23 54.014 0.145 7.17 1.83 11.6
10/25/2022 1:45:00 AM 12.23 54.014 0.145 7.18 1.79 11.57
10/25/2022 2:00:00 AM 12.23 54.014 0.145 7.18 1.88 11.6
10/25/2022 2:15:00 AM 12.23 54.014 0.145 7.16 2.34 11.55
10/25/2022 2:30:00 AM 12.22 53.996 0.145 7.15 1.87 11.55
10/25/2022 2:45:00 AM 12.22 53.996 0.144 7.16 2 11.56
10/25/2022 3:00:00 AM 12.22 53.996 0.144 7.15 1.88 11.55
10/25/2022 3:15:00 AM 12.22 53.996 0.144 7.14 1.81 11.53
10/25/2022 3:30:00 AM 12.22 53.996 0.144 7.14 1.76 11.52
10/25/2022 3:45:00 AM 12.22 53.996 0.144 7.15 1.8 11.55
10/25/2022 4:00:00 AM 12.22 53.996 0.144 7.12 1.87 11.51
10/25/2022 4:15:00 AM 12.22 53.996 0.144 7.14 1.86 11.51
10/25/2022 4:30:00 AM 12.22 53.996 0.144 7.12 1.84 11.53
10/25/2022 4:45:00 AM 12.22 53.996 0.144 7.12 1.8 11.5
10/25/2022 5:00:00 AM 12.23 54.014 0.144 7.12 1.86 11.5
10/25/2022 5:15:00 AM 12.22 53.996 0.144 7.13 1.86 11.52
10/25/2022 5:30:00 AM 12.22 53.996 0.144 7.1 2.08 11.44
10/25/2022 5:45:00 AM 12.22 53.996 0.144 7.12 2.62 11.5
10/25/2022 6:00:00 AM 12.22 53.996 0.144 7.13 4.13 11.51
10/25/2022 6:15:00 AM 12.22 53.996 0.144 7.13 1.86 11.54
10/25/2022 6:30:00 AM 12.23 54.014 0.144 7.11 1.88 11.5
10/25/2022 6:45:00 AM 12.23 54.014 0.144 7.12 1.84 11.51
10/25/2022 7:00:00 AM 12.23 54.014 0.144 7.11 1.83 11.46
10/25/2022 7:15:00 AM 12.24 54.032 0.144 7.09 1.91 11.45
10/25/2022 7:30:00 AM 12.24 54.032 0.143 7.1 1.79 11.48
10/25/2022 7:45:00 AM 12.23 54.014 0.143 7.07 1.92 11.5
10/25/2022 8:00:00 AM 12.24 54.032 0.143 7.08 1.91 11.54
10/25/2022 8:15:00 AM 12.25 54.05 0.143 7.1 1.92 11.57
10/25/2022 8:30:00 AM 12.27 54.086 0.143 7.08 1.89 11.63
10/25/2022 8:45:00 AM 12.29 54.122 0.143 7.11 1.85 11.67
10/25/2022 9:00:00 AM 12.31 54.158 0.143 7.08 1.8 11.66
10/25/2022 9:15:00 AM 12.33 54.194 0.143 7.13 1.79 11.78
10/25/2022 9:30:00 AM 12.36 54.248 0.143 7.13 2.24 11.91
10/25/2022 9:45:00 AM 12.39 54.302 0.143 7.15 1.83 12.03
10/25/2022 10:00:00 AM 12.44 54.392 0.142 7.16 1.75 12.11
10/25/2022 10:15:00 AM 12.5 54.5 0.142 7.2 2.32 12.17
10/25/2022 10:30:00 AM 12.57 54.626 0.142 7.23 1.76 12.47
10/25/2022 10:45:00 AM 12.65 54.77 0.142 7.18 1.79 12.56
10/25/2022 11:00:00 AM 12.74 54.932 0.141 7.17 1.8 12.63
10/25/2022 11:15:00 AM 12.83 55.094 0.141 7.19 1.84 12.65
10/25/2022 11:30:00 AM 12.96 55.328 0.141 7.06 1.79 12.65
10/25/2022 11:45:00 AM 13.07 55.526 0.141 7.02 1.76 12.55
10/25/2022 12:00:00 PM 13.24 55.832 0.141 7.22 1.88 12.73
10/25/2022 12:15:00 PM 13.44 56.192 0.141 6.95 1.8 12.39
10/25/2022 12:30:00 PM 13.57 56.426 0.141 6.95 1.82 12.61
10/25/2022 12:45:00 PM 13.65 56.57 0.143 6.73 1.79 11.92
10/25/2022 1:00:00 PM 13.75 56.75 0.14 6.84 1.85 12.5
10/25/2022 1:15:00 PM 13.75 56.75 0.141 6.87 1.8 12.13
10/25/2022 1:30:00 PM 13.8 56.84 0.14 6.96 1.79 12.15
10/25/2022 1:45:00 PM 13.9 57.02 0.141 6.77 1.76 12.22
10/25/2022 2:00:00 PM 13.92 57.056 0.144 6.28 1.8 10.88
10/25/2022 2:15:00 PM 14.03 57.254 0.142 6.65 1.88 11.43
10/25/2022 2:30:00 PM 13.98 57.164 0.143 6.19 1.97 10.69
10/25/2022 2:45:00 PM 14.06 57.308 0.142 6.49 1.82 11.25
10/25/2022 3:00:00 PM 14.06 57.308 0.142 6.44 1.77 11.19
10/25/2022 3:15:00 PM 14.14 57.452 0.141 6.54 1.81 11.85
10/25/2022 3:30:00 PM 14.15 57.47 0.143 6.56 1.85 11.94
10/25/2022 3:45:00 PM 14.16 57.488 0.14 6.91 1.81 11.7
10/25/2022 4:00:00 PM 13.97 57.146 0.143 6.21 1.83 10.14
10/25/2022 4:15:00 PM 14.12 57.416 0.14 6.62 1.77 10.93
10/25/2022 4:30:00 PM 14.04 57.272 0.141 6.66 1.86 11.2
10/25/2022 4:45:00 PM 14.06 57.308 0.141 6.68 1.89 11.35
10/25/2022 5:00:00 PM 14.03 57.254 0.141 6.97 1.95 11.13
10/25/2022 5:15:00 PM 14.02 57.236 0.14 6.97 1.81 10.97
10/25/2022 5:30:00 PM 13.97 57.146 0.141 6.91 1.9 11.01
10/25/2022 5:45:00 PM 13.96 57.128 0.141 6.99 1.8 11.03
10/25/2022 6:00:00 PM 13.93 57.074 0.142 6.88 1.86 10.77
10/25/2022 6:15:00 PM 13.92 57.056 0.141 6.85 1.79 10.6
10/25/2022 6:30:00 PM 13.88 56.984 0.141 6.95 1.82 10.52
10/25/2022 6:45:00 PM 13.8 56.84 0.141 6.69 1.96 10.19
10/25/2022 7:00:00 PM 13.83 56.894 0.141 6.91 1.77 10.45
10/25/2022 7:15:00 PM 13.77 56.786 0.141 6.84 1.9 10.38
10/25/2022 7:30:00 PM 13.76 56.768 0.141 6.9 1.95 10.41
10/25/2022 7:45:00 PM 13.76 56.768 0.141 6.91 1.87 10.4
10/25/2022 8:00:00 PM 13.74 56.732 0.141 6.83 1.89 10.53
10/25/2022 8:15:00 PM 13.74 56.732 0.142 6.89 1.81 10.29
10/25/2022 8:30:00 PM 13.71 56.678 0.142 6.96 1.85 10.51
10/25/2022 8:45:00 PM 13.68 56.624 0.142 6.9 1.81 10.56
10/25/2022 9:00:00 PM 13.61 56.498 0.142 6.94 1.77 10.39
10/25/2022 9:15:00 PM 13.54 56.372 0.142 6.89 1.84 10.52
10/25/2022 9:30:00 PM 13.47 56.246 0.142 6.9 1.8 10.49
10/25/2022 9:45:00 PM 13.39 56.102 0.142 6.93 1.85 10.41
10/25/2022 10:00:00 PM 13.36 56.048 0.142 6.91 1.82 10.47
10/25/2022 10:15:00 PM 13.33 55.994 0.142 6.94 1.86 10.57
10/25/2022 10:30:00 PM 13.28 55.904 0.142 6.89 2.12 10.47
10/25/2022 10:45:00 PM 13.23 55.814 0.142 6.84 1.86 10.46
10/25/2022 11:00:00 PM 13.23 55.814 0.142 6.92 1.8 10.68
10/25/2022 11:15:00 PM 13.2 55.76 0.142 6.93 1.89 10.7
10/25/2022 11:30:00 PM 13.19 55.742 0.142 6.93 1.84 10.53
10/25/2022 11:45:00 PM 13.18 55.724 0.142 6.9 1.9 10.69
10/26/2022 12:00:00 AM 13.17 55.706 0.142 6.93 1.86 10.63
10/26/2022 12:15:00 AM 13.14 55.652 0.142 6.83 1.97 10.48
10/26/2022 12:30:00 AM 13.13 55.634 0.142 6.91 1.91 10.85
10/26/2022 12:45:00 AM 13.14 55.652 0.142 6.91 1.85 10.66
10/26/2022 1:00:00 AM 13.12 55.616 0.142 6.91 1.83 10.7
10/26/2022 1:15:00 AM 13.12 55.616 0.142 6.91 1.78 10.54
10/26/2022 1:30:00 AM 13.09 55.562 0.142 6.86 2.14 10.63
10/26/2022 1:45:00 AM 13.11 55.598 0.142 6.88 1.81 10.64
10/26/2022 2:00:00 AM 13.09 55.562 0.142 6.88 1.83 10.54
10/26/2022 2:15:00 AM 13.12 55.616 0.142 6.85 1.79 10.7
10/26/2022 2:30:00 AM 13.12 55.616 0.141 6.91 1.86 10.67
10/26/2022 2:45:00 AM 13.12 55.616 0.142 6.81 2.06 10.58
10/26/2022 3:00:00 AM 13.14 55.652 0.142 6.87 2 10.74
10/26/2022 3:15:00 AM 13.13 55.634 0.142 6.81 1.87 10.6
10/26/2022 3:30:00 AM 13.15 55.67 0.142 6.93 1.85 10.57
10/26/2022 3:45:00 AM 13.17 55.706 0.142 6.91 1.89 10.75
10/26/2022 4:00:00 AM 13.18 55.724 0.142 6.93 1.83 10.64
10/26/2022 4:15:00 AM 13.2 55.76 0.142 6.91 1.83 10.69
10/26/2022 4:30:00 AM 13.22 55.796 0.142 6.93 1.93 10.72
10/26/2022 4:45:00 AM 13.22 55.796 0.142 6.96 2.11 10.71
10/26/2022 5:00:00 AM 13.23 55.814 0.142 6.92 2.05 10.69
10/26/2022 5:15:00 AM 13.24 55.832 0.142 6.88 2.24 10.56
10/26/2022 5:30:00 AM 13.26 55.868 0.142 6.96 2.29 10.63
10/26/2022 5:45:00 AM 13.26 55.868 0.142 6.92 1.82 10.61
10/26/2022 6:00:00 AM 13.28 55.904 0.142 6.92 1.85 10.67
10/26/2022 6:15:00 AM 13.28 55.904 0.142 6.96 1.81 10.6
10/26/2022 6:30:00 AM 13.3 55.94 0.142 6.92 1.88 10.38
10/26/2022 6:45:00 AM 13.33 55.994 0.142 6.9 1.85 10.57
10/26/2022 7:00:00 AM 13.33 55.994 0.142 6.95 1.9 10.7
10/26/2022 7:15:00 AM 13.35 56.03 0.142 6.94 1.91 10.74
10/26/2022 7:30:00 AM 13.36 56.048 0.142 6.92 1.87 10.54
10/26/2022 7:45:00 AM 13.37 56.066 0.142 6.91 2 10.61
10/26/2022 8:00:00 AM 13.35 56.03 0.142 6.94 1.84 10.67
10/26/2022 8:15:00 AM 13.36 56.048 0.142 6.88 1.87 10.77
10/26/2022 8:30:00 AM 13.37 56.066 0.142 6.95 1.81 10.84
10/26/2022 8:45:00 AM 13.4 56.12 0.142 6.98 1.88 10.97
10/26/2022 9:00:00 AM 13.38 56.084 0.141 6.91 1.78 10.85
10/26/2022 9:15:00 AM 13.43 56.174 0.142 7.04 1.81 10.77
10/26/2022 9:30:00 AM 13.46 56.228 0.141 6.98 1.87 11.3
10/26/2022 9:45:00 AM 13.48 56.264 0.142 6.96 1.87 11.24
10/26/2022 10:00:00 AM 13.49 56.282 0.141 6.87 1.97 11.19
10/26/2022 10:15:00 AM 13.56 56.408 0.141 6.82 2.1 11.47
10/26/2022 10:30:00 AM 13.66 56.588 0.141 6.87 2.2 11.71
10/26/2022 10:45:00 AM 13.83 56.894 0.141 6.69 2.66 11.77
10/26/2022 11:00:00 AM 14.07 57.326 0.141 6.75 2.19 12.04
10/26/2022 11:15:00 AM 14.21 57.578 0.141 6.88 2.13 11.85
10/26/2022 11:30:00 AM 14.36 57.848 0.141 6.8 2.1 11.6
10/26/2022 11:45:00 AM 14.42 57.956 0.141 6.67 2 11.4
10/26/2022 12:00:00 PM 14.5 58.1 0.141 6.46 2.03 11.08
10/26/2022 12:15:00 PM 14.63 58.334 0.141 6.49 1.9 11.49
10/26/2022 12:30:00 PM 14.84 58.712 0.14 6.84 1.83 11.42
10/26/2022 12:45:00 PM 14.84 58.712 0.141 6.57 1.9 11.08
10/26/2022 1:00:00 PM 14.87 58.766 0.14 6.55 1.94 10.94
10/26/2022 1:15:00 PM 14.91 58.838 0.14 6.62 2.04 11.34
10/26/2022 1:30:00 PM 14.9 58.82 0.14 6.67 2.11 11.83
10/26/2022 1:45:00 PM 14.8 58.64 0.14 6.89 1.9 11.29
10/26/2022 2:00:00 PM 14.8 58.64 0.14 6.53 1.93 11.35
10/26/2022 2:15:00 PM 14.9 58.82 0.14 6.74 1.83 11.13
10/26/2022 2:30:00 PM 14.87 58.766 0.14 6.69 1.88 11.12
10/26/2022 2:45:00 PM 14.93 58.874 0.14 6.77 1.84 11.2
10/26/2022 3:00:00 PM 14.88 58.784 0.14 6.53 1.85 11.44
10/26/2022 3:15:00 PM 14.77 58.586 0.14 6.43 1.88 10.93
10/26/2022 3:30:00 PM 14.89 58.802 0.14 6.61 1.8 10.67
10/26/2022 3:45:00 PM 14.9 58.82 0.14 6.7 1.81 10.89
10/26/2022 4:00:00 PM 14.86 58.748 0.14 6.53 1.84 10.05
10/26/2022 4:15:00 PM 14.93 58.874 0.14 6.69 1.88 11.15
10/26/2022 4:30:00 PM 14.67 58.406 0.141 6.37 1.84 9.66
10/26/2022 4:45:00 PM 14.72 58.496 0.141 6.53 2.14 9.9
10/26/2022 5:00:00 PM 14.6 58.28 0.141 6.36 2.17 9.59
10/26/2022 5:15:00 PM 14.65 58.37 0.141 6.44 2.21 9.83
10/26/2022 5:30:00 PM 14.64 58.352 0.141 6.54 1.91 10.23
10/26/2022 5:45:00 PM 14.62 58.316 0.141 6.53 1.9 9.85
10/26/2022 6:00:00 PM 14.57 58.226 0.141 6.59 1.9 9.98
10/26/2022 6:15:00 PM 14.5 58.1 0.141 6.48 1.83 9.58
10/26/2022 6:30:00 PM 14.53 58.154 0.141 6.64 2.03 9.74
10/26/2022 6:45:00 PM 14.45 58.01 0.141 6.65 1.89 9.42
10/26/2022 7:00:00 PM 14.32 57.776 0.142 6.34 1.95 9.27
10/26/2022 7:15:00 PM 14.29 57.722 0.142 6.36 1.94 9.11
10/26/2022 7:30:00 PM 14.26 57.668 0.142 6.41 2.03 9.14
10/26/2022 7:45:00 PM 14.27 57.686 0.142 6.66 1.95 9.62
10/26/2022 8:00:00 PM 14.3 57.74 0.142 6.75 1.82 10.21
10/26/2022 8:15:00 PM 14.13 57.434 0.142 6.55 2.55 9.63
10/26/2022 8:30:00 PM 14.11 57.398 0.141 6.66 1.88 9.33
10/26/2022 8:45:00 PM 14.03 57.254 0.142 6.65 1.84 9.48
10/26/2022 9:00:00 PM 13.99 57.182 0.142 6.76 1.85 9.76
10/26/2022 9:15:00 PM 13.95 57.11 0.142 6.9 2.02 10.09
10/26/2022 9:30:00 PM 13.89 57.002 0.142 6.86 1.84 10.18
10/26/2022 9:45:00 PM 13.84 56.912 0.142 6.72 2.21 9.76
10/26/2022 10:00:00 PM 13.79 56.822 0.142 6.92 1.84 10.1
10/26/2022 10:15:00 PM 13.78 56.804 0.142 6.9 1.92 10.07
10/26/2022 10:30:00 PM 13.73 56.714 0.142 6.86 1.91 10.2
10/26/2022 10:45:00 PM 13.67 56.606 0.142 6.92 1.89 10.22
10/26/2022 11:00:00 PM 13.6 56.48 0.142 6.92 1.88 10.13
10/26/2022 11:15:00 PM 13.55 56.39 0.142 6.92 1.92 10.1
10/26/2022 11:30:00 PM 13.51 56.318 0.142 6.95 1.88 10.43
10/26/2022 11:45:00 PM 13.47 56.246 0.142 6.91 1.97 10.42
10/27/2022 12:00:00 AM 13.42 56.156 0.142 6.98 1.81 10.37
10/27/2022 12:15:00 AM 13.35 56.03 0.142 6.91 1.86 10.35
10/27/2022 12:30:00 AM 13.28 55.904 0.142 6.87 1.82 10.19
10/27/2022 12:45:00 AM 13.24 55.832 0.142 6.92 1.74 10.42
10/27/2022 1:00:00 AM 13.18 55.724 0.142 6.97 1.8 10.43
10/27/2022 1:15:00 AM 13.11 55.598 0.141 6.93 1.82 10.53
10/27/2022 1:30:00 AM 13.09 55.562 0.142 6.96 1.75 10.35
10/27/2022 1:45:00 AM 13.05 55.49 0.142 6.88 1.91 10.53
10/27/2022 2:00:00 AM 13.05 55.49 0.141 6.95 1.77 10.46
10/27/2022 2:15:00 AM 13.03 55.454 0.142 6.95 1.86 10.53
10/27/2022 2:30:00 AM 12.99 55.382 0.142 7.01 1.74 10.6
10/27/2022 2:45:00 AM 12.94 55.292 0.142 6.96 1.82 10.64
10/27/2022 3:00:00 AM 12.92 55.256 0.141 6.97 1.75 10.71
10/27/2022 3:15:00 AM 12.9 55.22 0.142 7.07 1.82 10.82
10/27/2022 3:30:00 AM 12.87 55.166 0.142 7.1 1.8 10.95
10/27/2022 3:45:00 AM 12.83 55.094 0.142 7.02 1.8 10.91
10/27/2022 4:00:00 AM 12.8 55.04 0.142 7.02 1.89 10.95
10/27/2022 4:15:00 AM 12.76 54.968 0.142 7 1.81 10.83
10/27/2022 4:30:00 AM 12.75 54.95 0.142 6.94 1.81 10.73
10/27/2022 4:45:00 AM 12.73 54.914 0.142 7.02 1.78 10.79
10/27/2022 5:00:00 AM 12.71 54.878 0.142 7.04 1.83 10.8
10/27/2022 5:15:00 AM 12.69 54.842 0.142 7.06 1.83 10.87
10/27/2022 5:30:00 AM 12.66 54.788 0.142 7.04 1.83 10.86
10/27/2022 5:45:00 AM 12.63 54.734 0.142 6.99 1.79 10.86
10/27/2022 6:00:00 AM 12.59 54.662 0.142 7.1 1.78 11.04
10/27/2022 6:15:00 AM 12.55 54.59 0.142 7.09 1.85 11.1
10/27/2022 6:30:00 AM 12.5 54.5 0.142 7.12 1.85 11.13
10/27/2022 6:45:00 AM 12.45 54.41 0.141 7.09 1.87 11.2
10/27/2022 7:00:00 AM 12.4 54.32 0.142 7.15 1.83 11.31
10/27/2022 7:15:00 AM 12.34 54.212 0.142 7.13 1.76 11.25
10/27/2022 7:30:00 AM 12.28 54.104 0.142 7.18 1.86 11.31
10/27/2022 7:45:00 AM 12.21 53.978 0.141 7.07 1.8 11.2
10/27/2022 8:00:00 AM 12.15 53.87 0.142 7.12 2.09 11.27
10/27/2022 8:15:00 AM 12.11 53.798 0.142 7.13 2.11 11.35
10/27/2022 8:30:00 AM 12.08 53.744 0.141 7.14 2.08 11.47
10/27/2022 8:45:00 AM 12.06 53.708 0.141 7.13 1.9 11.48
10/27/2022 9:00:00 AM 12.04 53.672 0.141 7.09 1.85 11.5
10/27/2022 9:15:00 AM 12.02 53.636 0.141 7.16 1.83 11.65
10/27/2022 9:30:00 AM 12.01 53.618 0.141 7.18 1.97 11.98
10/27/2022 9:45:00 AM 12 53.6 0.141 7.23 1.81 12.05
10/27/2022 10:00:00 AM 12 53.6 0.141 7.26 1.97 12.13
10/27/2022 10:15:00 AM 12.02 53.636 0.141 7.26 1.76 12.4
10/27/2022 10:30:00 AM 12.07 53.726 0.14 7.26 1.93 12.6
10/27/2022 10:45:00 AM 12.13 53.834 0.14 7.36 3.83 12.88
10/27/2022 11:00:00 AM 12.19 53.942 0.14 7.38 1.83 12.85
10/27/2022 11:15:00 AM 12.28 54.104 0.14 7.44 1.83 12.97
10/27/2022 11:30:00 AM 12.38 54.284 0.14 7.5 2.22 13.07
10/27/2022 11:45:00 AM 12.48 54.464 0.139 7.5 1.82 13.01
10/27/2022 12:00:00 PM 12.59 54.662 0.139 7.45 1.8 13.11
10/27/2022 12:15:00 PM 12.69 54.842 0.139 7.52 1.79 13.18
10/27/2022 12:30:00 PM 12.77 54.986 0.139 7.42 1.77 13.1
10/27/2022 12:45:00 PM 12.81 55.058 0.139 7.51 1.82 13.16
10/27/2022 1:00:00 PM 12.79 55.022 0.139 7.51 1.71 13.08
10/27/2022 1:15:00 PM 12.73 54.914 0.139 7.43 1.77 12.96
10/27/2022 1:30:00 PM 12.67 54.806 0.139 7.5 1.77 12.93
10/27/2022 1:45:00 PM 12.63 54.734 0.139 7.52 1.75 12.92
10/27/2022 2:00:00 PM 12.56 54.608 0.139 7.55 1.87 12.91
10/27/2022 2:15:00 PM 12.49 54.482 0.139 7.51 2.06 12.79
10/27/2022 2:30:00 PM 12.41 54.338 0.139 7.44 1.93 12.76
10/27/2022 2:45:00 PM 12.34 54.212 0.14 7.45 1.76 12.69
10/27/2022 3:00:00 PM 12.27 54.086 0.139 7.39 1.8 12.63
10/27/2022 3:15:00 PM 12.19 53.942 0.139 7.34 1.8 12.51
10/27/2022 3:30:00 PM 12.11 53.798 0.14 7.33 1.81 12.41
10/27/2022 3:45:00 PM 12.06 53.708 0.14 7.29 1.92 12.34
10/27/2022 4:00:00 PM 12 53.6 0.14 7.27 1.77 12.24
10/27/2022 4:15:00 PM 11.96 53.528 0.14 7.27 1.83 12.21
10/27/2022 4:30:00 PM 11.93 53.474 0.14 7.26 1.78 12.17
10/27/2022 4:45:00 PM 11.93 53.474 0.14 7.19 1.8 12.04
10/27/2022 5:00:00 PM 11.9 53.42 0.139 7.22 1.76 11.98
10/27/2022 5:15:00 PM 11.9 53.42 0.139 7.17 1.79 11.89
10/27/2022 5:30:00 PM 11.89 53.402 0.139 7.19 1.78 11.82
10/27/2022 5:45:00 PM 11.88 53.384 0.14 7.2 1.73 11.81
10/27/2022 6:00:00 PM 11.88 53.384 0.14 7.11 1.85 11.76
10/27/2022 6:15:00 PM 11.87 53.366 0.14 7.16 1.78 11.53
10/27/2022 6:30:00 PM 11.86 53.348 0.14 7.09 1.82 11.58
10/27/2022 6:45:00 PM 11.85 53.33 0.14 7.11 1.78 11.46
10/27/2022 7:00:00 PM 11.82 53.276 0.14 7.12 1.81 11.5
10/27/2022 7:15:00 PM 11.79 53.222 0.14 7.08 1.9 11.37
10/27/2022 7:30:00 PM 11.76 53.168 0.14 7.07 1.8 11.45
10/27/2022 7:45:00 PM 11.72 53.096 0.14 7.06 1.89 11.38
10/27/2022 8:00:00 PM 11.64 52.952 0.141 7.1 1.79 11.31
10/27/2022 8:15:00 PM 11.58 52.844 0.141 7.06 2.03 11.37
10/27/2022 8:30:00 PM 11.51 52.718 0.141 7.08 1.81 11.39
10/27/2022 8:45:00 PM 11.43 52.574 0.141 7.07 1.74 11.37
10/27/2022 9:00:00 PM 11.35 52.43 0.141 7.07 1.76 11.36
10/27/2022 9:15:00 PM 11.26 52.268 0.141 7.1 1.77 11.47
10/27/2022 9:30:00 PM 11.18 52.124 0.141 7.07 1.76 11.46
10/27/2022 9:45:00 PM 11.08 51.944 0.141 7.1 1.77 11.44
10/27/2022 10:00:00 PM 11 51.8 0.141 7.08 1.8 11.53
10/27/2022 10:15:00 PM 10.92 51.656 0.141 7.07 1.79 11.53
10/27/2022 10:30:00 PM 10.86 51.548 0.141 7.04 1.85 11.5
10/27/2022 10:45:00 PM 10.75 51.35 0.141 7.1 1.81 11.59
10/27/2022 11:00:00 PM 10.65 51.17 0.141 7.13 1.77 11.85
10/27/2022 11:15:00 PM 10.55 50.99 0.141 7.15 1.82 11.87
10/27/2022 11:30:00 PM 10.49 50.882 0.141 7.14 1.76 11.78
10/27/2022 11:45:00 PM 10.4 50.72 0.141 7.16 1.74 11.89
10/28/2022 12:00:00 AM 10.37 50.666 0.141 7.15 1.82 11.92
10/28/2022 12:15:00 AM 10.26 50.468 0.141 7.17 1.78 11.96
10/28/2022 12:30:00 AM 10.2 50.36 0.141 7.15 1.79 12.05
10/28/2022 12:45:00 AM 10.12 50.216 0.141 7.17 1.82 11.98
10/28/2022 1:00:00 AM 10.08 50.144 0.141 7.16 1.81 12.01
10/28/2022 1:15:00 AM 9.98 49.964 0.141 7.16 1.78 12.03
10/28/2022 1:30:00 AM 9.91 49.838 0.141 7.18 1.8 12.06
10/28/2022 1:45:00 AM 9.85 49.73 0.141 7.13 1.74 12.08
10/28/2022 2:00:00 AM 9.79 49.622 0.141 7.16 1.83 12.15
10/28/2022 2:15:00 AM 9.72 49.496 0.141 7.16 1.79 12.18
10/28/2022 2:30:00 AM 9.66 49.388 0.141 7.19 1.91 12.07
10/28/2022 2:45:00 AM 9.6 49.28 0.14 7.19 1.81 12.25
10/28/2022 3:00:00 AM 9.55 49.19 0.14 7.18 1.8 12.26
10/28/2022 3:15:00 AM 9.48 49.064 0.14 7.21 1.84 12.36
10/28/2022 3:30:00 AM 9.45 49.01 0.14 7.18 2.27 12.38
10/28/2022 3:45:00 AM 9.39 48.902 0.14 7.19 1.93 12.34
10/28/2022 4:00:00 AM 9.33 48.794 0.14 7.18 1.83 12.42
10/28/2022 4:15:00 AM 9.3 48.74 0.14 7.17 1.77 12.41
10/28/2022 4:30:00 AM 9.24 48.632 0.14 7.17 1.78 12.42
10/28/2022 4:45:00 AM 9.18 48.524 0.14 7.18 1.83 12.44
10/28/2022 5:00:00 AM 9.14 48.452 0.14 7.18 1.81 12.46
10/28/2022 5:15:00 AM 9.09 48.362 0.14 7.18 1.83 12.5
10/28/2022 5:30:00 AM 9.05 48.29 0.14 7.15 1.89 12.5
10/28/2022 5:45:00 AM 9.01 48.218 0.14 7.18 1.84 12.5
10/28/2022 6:00:00 AM 8.94 48.092 0.14 7.17 1.89 12.56
10/28/2022 6:15:00 AM 8.91 48.038 0.14 7.18 1.83 12.56
10/28/2022 6:30:00 AM 8.87 47.966 0.14 7.15 1.79 12.52
10/28/2022 6:45:00 AM 8.84 47.912 0.14 7.18 1.86 12.57
10/28/2022 7:00:00 AM 8.8 47.84 0.14 7.18 1.79 12.57
10/28/2022 7:15:00 AM 8.76 47.768 0.14 7.2 1.82 12.58
10/28/2022 7:30:00 AM 8.74 47.732 0.14 7.17 1.99 12.61
10/28/2022 7:45:00 AM 8.72 47.696 0.14 7.17 11.11 12.59
10/28/2022 8:00:00 AM 8.66 47.588 0.14 7.21 2.04 12.66
10/28/2022 8:15:00 AM 8.65 47.57 0.14 7.21 1.96 12.76
10/28/2022 8:30:00 AM 8.66 47.588 0.14 7.22 1.97 12.91
10/28/2022 8:45:00 AM 8.64 47.552 0.14 7.24 1.81 13.04
10/28/2022 9:00:00 AM 8.65 47.57 0.14 7.26 1.81 13.1
10/28/2022 9:15:00 AM 8.66 47.588 0.14 7.28 1.82 13.3
10/28/2022 9:30:00 AM 8.69 47.642 0.14 7.34 1.78 13.48
10/28/2022 9:45:00 AM 8.74 47.732 0.14 7.39 1.84 13.62
10/28/2022 10:00:00 AM 8.81 47.858 0.139 7.42 1.79 13.81
10/28/2022 10:15:00 AM 8.87 47.966 0.139 7.43 1.81 13.9
10/28/2022 10:30:00 AM 8.95 48.11 0.139 7.51 1.91 14.02
10/28/2022 10:45:00 AM 9.1 48.38 0.139 7.57 1.86 14.03
10/28/2022 11:00:00 AM 9.25 48.65 0.139 7.59 2.17 14.18
10/28/2022 11:15:00 AM 9.37 48.866 0.138 7.59 1.88 14.2
10/28/2022 11:30:00 AM 9.43 48.974 0.139 7.61 1.84 14.24
10/28/2022 11:45:00 AM 9.53 49.154 0.138 7.62 1.75 14.16
10/28/2022 12:00:00 PM 9.66 49.388 0.138 7.67 1.81 14.29
10/28/2022 12:15:00 PM 9.77 49.586 0.138 7.61 1.81 14.25
10/28/2022 12:30:00 PM 9.95 49.91 0.138 7.54 1.76 14.32
10/28/2022 12:45:00 PM 10.1 50.18 0.138 7.59 1.77 14.2
10/28/2022 1:00:00 PM 10.2 50.36 0.138 7.61 1.86 14.25
10/28/2022 1:15:00 PM 10.25 50.45 0.138 7.56 1.81 14.2
10/28/2022 1:30:00 PM 10.27 50.486 0.138 7.59 1.78 14.14
10/28/2022 1:45:00 PM 10.31 50.558 0.138 7.55 1.76 14.1
10/28/2022 2:00:00 PM 10.37 50.666 0.138 7.52 1.72 14
10/28/2022 2:15:00 PM 10.38 50.684 0.138 7.52 1.77 13.9
10/28/2022 2:30:00 PM 10.37 50.666 0.138 7.5 1.79 13.82
10/28/2022 2:45:00 PM 10.38 50.684 0.138 7.5 1.81 13.72
10/28/2022 3:00:00 PM 10.39 50.702 0.138 7.47 1.82 13.67
10/28/2022 3:15:00 PM 10.44 50.792 0.138 7.41 1.81 13.63
10/28/2022 3:30:00 PM 10.44 50.792 0.138 7.5 1.77 13.64
10/28/2022 3:45:00 PM 10.49 50.882 0.138 7.43 1.77 13.63
10/28/2022 4:00:00 PM 10.58 51.044 0.138 7.44 1.72 13.6
10/28/2022 4:15:00 PM 10.6 51.08 0.138 7.55 1.72 13.53
10/28/2022 4:30:00 PM 10.65 51.17 0.138 7.57 1.75 13.54
10/28/2022 4:45:00 PM 10.72 51.296 0.138 7.51 1.83 13.44
10/28/2022 5:00:00 PM 10.77 51.386 0.138 7.51 1.79 13.3
10/28/2022 5:15:00 PM 10.82 51.476 0.138 7.47 1.79 13.14
10/28/2022 5:30:00 PM 10.85 51.53 0.138 7.43 1.74 13
10/28/2022 5:45:00 PM 10.87 51.566 0.138 7.41 1.87 12.81
10/28/2022 6:00:00 PM 10.87 51.566 0.138 7.33 2.09 12.65
10/28/2022 6:15:00 PM 10.86 51.548 0.139 7.35 1.97 12.45
10/28/2022 6:30:00 PM 10.84 51.512 0.139 7.31 2.3 12.32
10/28/2022 6:45:00 PM 10.82 51.476 0.139 7.27 1.97 12.2
10/28/2022 7:00:00 PM 10.78 51.404 0.139 7.26 2.37 12.12
10/28/2022 7:15:00 PM 10.75 51.35 0.14 7.25 1.88 12.07
10/28/2022 7:30:00 PM 10.72 51.296 0.14 7.22 1.73 12.03
10/28/2022 7:45:00 PM 10.67 51.206 0.14 7.22 1.87 12.01
10/28/2022 8:00:00 PM 10.61 51.098 0.14 7.23 1.79 12.02
10/28/2022 8:15:00 PM 10.56 51.008 0.14 7.23 1.78 12.03
10/28/2022 8:30:00 PM 10.49 50.882 0.141 7.22 1.79 12.05
10/28/2022 8:45:00 PM 10.42 50.756 0.141 7.22 1.81 12.07
10/28/2022 9:00:00 PM 10.32 50.576 0.141 7.23 1.77 12.07
10/28/2022 9:15:00 PM 10.25 50.45 0.141 7.22 1.78 12.11
10/28/2022 9:30:00 PM 10.17 50.306 0.141 7.2 1.84 12.09
10/28/2022 9:45:00 PM 10.1 50.18 0.141 7.2 1.85 12.11
10/28/2022 10:00:00 PM 9.99 49.982 0.141 7.22 1.79 12.15
10/28/2022 10:15:00 PM 9.93 49.874 0.141 7.22 1.82 12.19
10/28/2022 10:30:00 PM 9.85 49.73 0.141 7.18 1.76 12.18
10/28/2022 10:45:00 PM 9.77 49.586 0.141 7.21 1.8 12.22
10/28/2022 11:00:00 PM 9.69 49.442 0.141 7.22 1.81 12.26
10/28/2022 11:15:00 PM 9.61 49.298 0.141 7.22 1.76 12.26
10/28/2022 11:30:00 PM 9.54 49.172 0.141 7.21 1.79 12.29
10/28/2022 11:45:00 PM 9.46 49.028 0.142 7.22 1.78 12.32
10/29/2022 12:00:00 AM 9.39 48.902 0.142 7.21 1.8 12.34
10/29/2022 12:15:00 AM 9.32 48.776 0.142 7.22 1.78 12.39
10/29/2022 12:30:00 AM 9.26 48.668 0.142 7.23 3.03 12.43
10/29/2022 12:45:00 AM 9.18 48.524 0.142 7.21 1.94 12.42
10/29/2022 1:00:00 AM 9.1 48.38 0.142 7.24 1.8 12.47
10/29/2022 1:15:00 AM 9.05 48.29 0.142 7.22 1.87 12.48
10/29/2022 1:30:00 AM 8.98 48.164 0.142 7.23 1.79 12.52
10/29/2022 1:45:00 AM 8.92 48.056 0.142 7.22 1.8 12.53
10/29/2022 2:00:00 AM 8.84 47.912 0.142 7.23 1.84 12.57
10/29/2022 2:15:00 AM 8.79 47.822 0.142 7.22 1.86 12.57
10/29/2022 2:30:00 AM 8.72 47.696 0.142 7.23 2.04 12.6
10/29/2022 2:45:00 AM 8.67 47.606 0.142 7.22 1.84 12.6
10/29/2022 3:00:00 AM 8.6 47.48 0.142 7.23 1.79 12.63
10/29/2022 3:15:00 AM 8.55 47.39 0.142 7.23 1.76 12.68
10/29/2022 3:30:00 AM 8.48 47.264 0.142 7.22 1.86 12.69
10/29/2022 3:45:00 AM 8.42 47.156 0.142 7.21 1.79 12.73
10/29/2022 4:00:00 AM 8.39 47.102 0.142 7.22 1.83 12.7
10/29/2022 4:15:00 AM 8.32 46.976 0.142 7.23 1.86 12.77
10/29/2022 4:30:00 AM 8.27 46.886 0.142 7.21 1.82 12.77
10/29/2022 4:45:00 AM 8.22 46.796 0.142 7.21 2 12.77
10/29/2022 5:00:00 AM 8.15 46.67 0.142 7.22 1.93 12.81
10/29/2022 5:15:00 AM 8.1 46.58 0.142 7.22 2.54 12.83
10/29/2022 5:30:00 AM 8.06 46.508 0.142 7.21 2.42 12.83
10/29/2022 5:45:00 AM 8 46.4 0.142 7.22 2.12 12.86
10/29/2022 6:00:00 AM 7.97 46.346 0.142 7.21 2.46 12.87
10/29/2022 6:15:00 AM 7.91 46.238 0.142 7.22 2.23 12.86
10/29/2022 6:30:00 AM 7.88 46.184 0.142 7.22 2.07 12.92
10/29/2022 6:45:00 AM 7.84 46.112 0.142 7.22 1.86 12.92
10/29/2022 7:00:00 AM 7.8 46.04 0.142 7.21 1.94 12.94
10/29/2022 7:15:00 AM 7.79 46.022 0.142 7.22 1.78 12.95
10/29/2022 7:30:00 AM 7.77 45.986 0.142 7.23 1.77 12.97
10/29/2022 7:45:00 AM 7.75 45.95 0.142 7.24 2 13.01
10/29/2022 8:00:00 AM 7.74 45.932 0.142 7.24 2.2 13.04
10/29/2022 8:15:00 AM 7.73 45.914 0.142 7.24 1.74 13.1
10/29/2022 8:30:00 AM 7.71 45.878 0.142 7.27 1.8 13.25
10/29/2022 8:45:00 AM 7.72 45.896 0.142 7.29 1.75 13.35
10/29/2022 9:00:00 AM 7.75 45.95 0.142 7.32 1.78 13.51
10/29/2022 9:15:00 AM 7.77 45.986 0.142 7.31 1.79 13.61
10/29/2022 9:30:00 AM 7.78 46.004 0.142 7.37 1.77 13.83
10/29/2022 9:45:00 AM 7.83 46.094 0.142 7.39 1.78 13.95
10/29/2022 10:00:00 AM 7.85 46.13 0.141 7.47 1.78 14.11
10/29/2022 10:15:00 AM 7.9 46.22 0.141 7.49 1.78 14.25
10/29/2022 10:30:00 AM 8.02 46.436 0.141 7.55 1.82 14.33
10/29/2022 10:45:00 AM 8.25 46.85 0.141 7.57 1.76 14.48
10/29/2022 11:00:00 AM 8.39 47.102 0.141 7.64 1.76 14.56
10/29/2022 11:15:00 AM 8.63 47.534 0.141 7.66 1.8 14.59
10/29/2022 11:30:00 AM 8.8 47.84 0.141 7.61 1.8 14.66
10/29/2022 11:45:00 AM 8.91 48.038 0.141 7.72 1.78 14.64
10/29/2022 12:00:00 PM 9.06 48.308 0.141 7.7 1.77 14.62
10/29/2022 12:15:00 PM 9.19 48.542 0.141 7.71 1.77 14.57
10/29/2022 12:30:00 PM 9.34 48.812 0.14 7.7 1.74 14.52
10/29/2022 12:45:00 PM 9.43 48.974 0.14 7.74 1.76 14.46
10/29/2022 1:00:00 PM 9.48 49.064 0.141 7.77 1.79 14.42
10/29/2022 1:15:00 PM 9.47 49.046 0.141 7.75 1.78 14.37
10/29/2022 1:30:00 PM 9.5 49.1 0.141 7.72 1.74 14.26
10/29/2022 1:45:00 PM 9.51 49.118 0.141 7.71 1.75 14.21
10/29/2022 2:00:00 PM 9.54 49.172 0.141 7.67 1.73 14.11
10/29/2022 2:15:00 PM 9.52 49.136 0.141 7.68 1.8 14.11
10/29/2022 2:30:00 PM 9.57 49.226 0.141 7.62 2.12 14.02
10/29/2022 2:45:00 PM 9.54 49.172 0.141 7.61 1.81 13.95
10/29/2022 3:00:00 PM 9.51 49.118 0.141 7.59 1.77 13.84
10/29/2022 3:15:00 PM 9.51 49.118 0.141 7.56 1.74 13.75
10/29/2022 3:30:00 PM 9.5 49.1 0.141 7.57 1.81 13.65
10/29/2022 3:45:00 PM 9.51 49.118 0.141 7.51 2.19 13.56
10/29/2022 4:00:00 PM 9.51 49.118 0.141 7.48 1.75 13.44
10/29/2022 4:15:00 PM 9.52 49.136 0.141 7.48 1.79 13.37
10/29/2022 4:30:00 PM 9.52 49.136 0.141 7.44 1.8 13.27
10/29/2022 4:45:00 PM 9.53 49.154 0.141 7.47 1.74 13.22
10/29/2022 5:00:00 PM 9.55 49.19 0.141 7.43 1.75 13.17
10/29/2022 5:15:00 PM 9.56 49.208 0.141 7.41 1.78 13.09
10/29/2022 5:30:00 PM 9.56 49.208 0.141 7.4 1.74 13
10/29/2022 5:45:00 PM 9.59 49.262 0.141 7.38 1.71 12.91
10/29/2022 6:00:00 PM 9.6 49.28 0.141 7.35 1.76 12.81
10/29/2022 6:15:00 PM 9.6 49.28 0.141 7.34 1.75 12.7
10/29/2022 6:30:00 PM 9.59 49.262 0.141 7.33 1.8 12.6
10/29/2022 6:45:00 PM 9.58 49.244 0.141 7.32 1.77 12.56
10/29/2022 7:00:00 PM 9.57 49.226 0.141 7.31 1.75 12.48
10/29/2022 7:15:00 PM 9.55 49.19 0.142 7.3 1.76 12.41
10/29/2022 7:30:00 PM 9.53 49.154 0.142 7.26 1.81 12.41
10/29/2022 7:45:00 PM 9.49 49.082 0.142 7.27 1.8 12.38
10/29/2022 8:00:00 PM 9.45 49.01 0.142 7.26 1.76 12.35
10/29/2022 8:15:00 PM 9.4 48.92 0.142 7.25 1.8 12.35
10/29/2022 8:30:00 PM 9.36 48.848 0.142 7.23 1.78 12.35
10/29/2022 8:45:00 PM 9.3 48.74 0.142 7.25 1.78 12.36
10/29/2022 9:00:00 PM 9.23 48.614 0.143 7.25 1.81 12.37
10/29/2022 9:15:00 PM 9.16 48.488 0.143 7.25 1.79 12.42
10/29/2022 9:30:00 PM 9.1 48.38 0.143 7.24 1.75 12.41
10/29/2022 9:45:00 PM 9.02 48.236 0.143 7.26 1.79 12.44
10/29/2022 10:00:00 PM 8.94 48.092 0.143 7.26 1.83 12.46
10/29/2022 10:15:00 PM 8.87 47.966 0.143 7.25 1.79 12.49
10/29/2022 10:30:00 PM 8.8 47.84 0.143 7.24 1.92 12.52
10/29/2022 10:45:00 PM 8.73 47.714 0.143 7.24 1.86 12.54
10/29/2022 11:00:00 PM 8.66 47.588 0.143 7.25 1.86 12.57
10/29/2022 11:15:00 PM 8.59 47.462 0.143 7.25 1.79 12.6
10/29/2022 11:30:00 PM 8.51 47.318 0.144 7.26 1.84 12.62
10/29/2022 11:45:00 PM 8.46 47.228 0.144 7.24 1.8 12.58
10/30/2022 12:00:00 AM 8.36 47.048 0.144 7.26 1.8 12.64
10/30/2022 12:15:00 AM 8.31 46.958 0.144 7.24 1.78 12.66
10/30/2022 12:30:00 AM 8.24 46.832 0.144 7.25 1.81 12.7
10/30/2022 12:45:00 AM 8.16 46.688 0.144 7.24 1.78 12.73
10/30/2022 1:00:00 AM 8.1 46.58 0.144 7.26 1.77 12.75
10/30/2022 1:15:00 AM 8.05 46.49 0.144 7.24 1.78 12.75
10/30/2022 1:30:00 AM 7.98 46.364 0.144 7.26 1.77 12.8
10/30/2022 1:45:00 AM 7.9 46.22 0.144 7.26 1.78 12.83
10/30/2022 2:00:00 AM 7.86 46.148 0.144 7.23 1.79 12.84
10/30/2022 2:15:00 AM 7.81 46.058 0.144 7.24 1.81 12.85
10/30/2022 2:30:00 AM 7.75 45.95 0.144 7.24 1.79 12.88
10/30/2022 2:45:00 AM 7.7 45.86 0.144 7.25 1.85 12.9
10/30/2022 3:00:00 AM 7.61 45.698 0.144 7.25 1.86 12.9
10/30/2022 3:15:00 AM 7.57 45.626 0.144 7.24 1.83 12.92
10/30/2022 3:30:00 AM 7.52 45.536 0.144 7.25 1.7 12.96
10/30/2022 3:45:00 AM 7.47 45.446 0.144 7.26 1.75 13
10/30/2022 4:00:00 AM 7.42 45.356 0.144 7.26 1.86 12.98
10/30/2022 4:15:00 AM 7.38 45.284 0.144 7.26 1.77 13
10/30/2022 4:30:00 AM 7.33 45.194 0.144 7.25 1.83 13.02
10/30/2022 4:45:00 AM 7.27 45.086 0.144 7.26 1.81 13.01
10/30/2022 5:00:00 AM 7.24 45.032 0.144 7.26 1.8 13.04
10/30/2022 5:15:00 AM 7.18 44.924 0.144 7.26 1.83 13.03
10/30/2022 5:30:00 AM 7.14 44.852 0.144 7.24 1.79 13.09
10/30/2022 5:45:00 AM 7.12 44.816 0.144 7.25 1.85 13.06
10/30/2022 6:00:00 AM 7.07 44.726 0.144 7.26 1.81 13.12
10/30/2022 6:15:00 AM 7.03 44.654 0.144 7.25 1.9 13.16
10/30/2022 6:30:00 AM 6.98 44.564 0.144 7.25 1.82 13.16
10/30/2022 6:45:00 AM 6.91 44.438 0.144 7.25 1.83 13.21
10/30/2022 7:00:00 AM 6.92 44.456 0.144 7.25 1.78 13.22
10/30/2022 7:15:00 AM 6.9 44.42 0.144 7.25 1.81 13.21
10/30/2022 7:30:00 AM 6.85 44.33 0.145 7.25 1.75 13.26
10/30/2022 7:45:00 AM 6.84 44.312 0.144 7.23 1.77 13.27
10/30/2022 8:00:00 AM 6.78 44.204 0.144 7.26 2 13.31
10/30/2022 8:15:00 AM 6.78 44.204 0.144 7.28 1.9 13.41
10/30/2022 8:30:00 AM 6.79 44.222 0.144 7.31 2.11 13.54
10/30/2022 8:45:00 AM 6.81 44.258 0.144 7.32 1.81 13.71
10/30/2022 9:00:00 AM 6.86 44.348 0.144 7.36 1.79 13.88
10/30/2022 9:15:00 AM 6.91 44.438 0.144 7.39 1.79 14.08
10/30/2022 9:30:00 AM 6.96 44.528 0.144 7.43 1.8 14.23
10/30/2022 9:45:00 AM 7 44.6 0.144 7.48 1.79 14.34
10/30/2022 10:00:00 AM 7.06 44.708 0.144 7.49 1.78 14.45
10/30/2022 10:15:00 AM 7.11 44.798 0.143 7.5 1.79 14.51
10/30/2022 10:30:00 AM 7.15 44.87 0.143 7.57 1.86 14.56
10/30/2022 10:45:00 AM 7.31 45.158 0.143 7.59 1.78 14.63
10/30/2022 11:00:00 AM 7.51 45.518 0.143 7.69 1.79 14.82
10/30/2022 11:15:00 AM 7.7 45.86 0.143 7.7 1.81 14.93
10/30/2022 11:30:00 AM 7.87 46.166 0.143 7.7 1.74 14.96
10/30/2022 11:45:00 AM 8.11 46.598 0.142 7.64 1.76 14.99
10/30/2022 12:00:00 PM 8.28 46.904 0.142 7.73 1.74 14.9
10/30/2022 12:15:00 PM 8.42 47.156 0.142 7.71 1.77 14.95
10/30/2022 12:30:00 PM 8.63 47.534 0.142 7.71 1.77 14.87
10/30/2022 12:45:00 PM 8.78 47.804 0.142 7.72 1.77 14.82
10/30/2022 1:00:00 PM 8.88 47.984 0.142 7.76 1.75 14.78
10/30/2022 1:15:00 PM 8.95 48.11 0.142 7.68 1.77 14.64
10/30/2022 1:30:00 PM 8.95 48.11 0.142 7.73 1.73 14.56
10/30/2022 1:45:00 PM 9.01 48.218 0.142 7.69 1.8 14.51
10/30/2022 2:00:00 PM 9.02 48.236 0.143 7.8 1.74 14.38
10/30/2022 2:15:00 PM 9.1 48.38 0.142 7.71 1.82 14.53
10/30/2022 2:30:00 PM 9.14 48.452 0.142 7.64 1.79 14.36
10/30/2022 2:45:00 PM 9.14 48.452 0.143 7.64 1.77 14.28
10/30/2022 3:00:00 PM 9.17 48.506 0.143 7.61 1.77 14.27
10/30/2022 3:15:00 PM 9.11 48.398 0.143 7.67 1.74 14.15
10/30/2022 3:30:00 PM 9.1 48.38 0.143 7.72 1.8 14.11
10/30/2022 3:45:00 PM 9.12 48.416 0.143 7.7 1.8 13.98
10/30/2022 4:00:00 PM 9.15 48.47 0.143 7.68 1.77 13.91
10/30/2022 4:15:00 PM 9.18 48.524 0.143 7.64 1.81 13.83
10/30/2022 4:30:00 PM 9.2 48.56 0.143 7.63 1.76 13.73
10/30/2022 4:45:00 PM 9.23 48.614 0.143 7.59 1.74 13.61
10/30/2022 5:00:00 PM 9.28 48.704 0.142 7.54 1.79 13.52
10/30/2022 5:15:00 PM 9.31 48.758 0.143 7.55 1.77 13.46
10/30/2022 5:30:00 PM 9.35 48.83 0.143 7.5 1.76 13.34
10/30/2022 5:45:00 PM 9.37 48.866 0.143 7.48 1.79 13.24
10/30/2022 6:00:00 PM 9.39 48.902 0.143 7.45 1.72 13.12
10/30/2022 6:15:00 PM 9.4 48.92 0.143 7.41 1.73 12.92
10/30/2022 6:30:00 PM 9.39 48.902 0.143 7.38 1.8 12.74
10/30/2022 6:45:00 PM 9.39 48.902 0.143 7.35 1.83 12.61
10/30/2022 7:00:00 PM 9.39 48.902 0.143 7.33 1.79 12.47
10/30/2022 7:15:00 PM 9.38 48.884 0.143 7.31 1.78 12.47
10/30/2022 7:30:00 PM 9.37 48.866 0.144 7.31 1.82 12.43
10/30/2022 7:45:00 PM 9.37 48.866 0.144 7.3 1.77 12.37
10/30/2022 8:00:00 PM 9.35 48.83 0.144 7.28 1.81 12.34
10/30/2022 8:15:00 PM 9.33 48.794 0.144 7.29 1.77 12.33
10/30/2022 8:30:00 PM 9.3 48.74 0.144 7.28 1.81 12.33
10/30/2022 8:45:00 PM 9.27 48.686 0.144 7.28 2 12.3
10/30/2022 9:00:00 PM 9.26 48.668 0.144 7.27 1.99 12.29
10/30/2022 9:15:00 PM 9.25 48.65 0.144 7.26 3.24 12.3
10/30/2022 9:30:00 PM 9.22 48.596 0.145 7.26 2.01 12.32
10/30/2022 9:45:00 PM 9.19 48.542 0.145 7.26 1.8 12.31
10/30/2022 10:00:00 PM 9.16 48.488 0.145 7.27 1.85 12.32
10/30/2022 10:15:00 PM 9.12 48.416 0.145 7.26 1.77 12.33
10/30/2022 10:30:00 PM 9.09 48.362 0.145 7.26 1.82 12.33
10/30/2022 10:45:00 PM 9.05 48.29 0.145 7.27 1.8 12.37
10/30/2022 11:00:00 PM 9.02 48.236 0.145 7.25 1.86 12.35
10/30/2022 11:15:00 PM 8.96 48.128 0.145 7.25 1.78 12.37
10/30/2022 11:30:00 PM 8.9 48.02 0.145 7.26 1.82 12.39
10/30/2022 11:45:00 PM 8.86 47.948 0.145 7.26 1.81 12.41
10/31/2022 12:00:00 AM 8.8 47.84 0.146 7.26 1.76 12.41
10/31/2022 12:15:00 AM 8.77 47.786 0.146 7.27 1.77 12.44
10/31/2022 12:30:00 AM 8.73 47.714 0.145 7.25 1.83 12.45
10/31/2022 12:45:00 AM 8.7 47.66 0.146 7.26 1.82 12.46
10/31/2022 1:00:00 AM 8.67 47.606 0.146 7.26 1.78 12.49
10/31/2022 1:15:00 AM 8.65 47.57 0.146 7.25 1.78 12.5
10/31/2022 1:30:00 AM 8.62 47.516 0.146 7.26 1.85 12.48
10/31/2022 1:45:00 AM 8.59 47.462 0.146 7.28 1.72 12.51
10/31/2022 2:00:00 AM 8.56 47.408 0.146 7.24 1.8 12.5
10/31/2022 2:15:00 AM 8.51 47.318 0.146 7.25 1.79 12.51
10/31/2022 2:30:00 AM 8.48 47.264 0.146 7.23 2.04 12.51
10/31/2022 2:45:00 AM 8.43 47.174 0.146 7.25 1.96 12.54
10/31/2022 3:00:00 AM 8.39 47.102 0.146 7.24 2 12.55
10/31/2022 3:15:00 AM 8.36 47.048 0.146 7.25 1.87 12.57
10/31/2022 3:30:00 AM 8.3 46.94 0.146 7.25 1.98 12.59
10/31/2022 3:45:00 AM 8.28 46.904 0.146 7.25 1.95 12.6
10/31/2022 4:00:00 AM 8.23 46.814 0.146 7.26 1.79 12.63
10/31/2022 4:15:00 AM 8.22 46.796 0.146 7.25 1.89 12.62
10/31/2022 4:30:00 AM 8.17 46.706 0.146 7.25 1.8 12.62
10/31/2022 4:45:00 AM 8.14 46.652 0.146 7.26 1.78 12.65
10/31/2022 5:00:00 AM 8.11 46.598 0.146 7.25 1.8 12.67
10/31/2022 5:15:00 AM 8.11 46.598 0.146 7.25 1.78 12.66
10/31/2022 5:30:00 AM 8.1 46.58 0.146 7.25 1.83 12.66
10/31/2022 5:45:00 AM 8.11 46.598 0.146 7.25 1.8 12.66
10/31/2022 6:00:00 AM 8.09 46.562 0.146 7.25 1.83 12.59
10/31/2022 6:15:00 AM 8.08 46.544 0.146 7.25 1.82 12.69
10/31/2022 6:30:00 AM 8.09 46.562 0.146 7.25 1.79 12.66
10/31/2022 6:45:00 AM 8.07 46.526 0.146 7.25 1.77 12.64
10/31/2022 7:00:00 AM 8.07 46.526 0.146 7.25 1.81 12.66
10/31/2022 7:15:00 AM 8.03 46.454 0.146 7.25 1.78 12.67
10/31/2022 7:30:00 AM 8.03 46.454 0.146 7.23 1.84 12.69
10/31/2022 7:45:00 AM 8 46.4 0.146 7.25 1.82 12.69
10/31/2022 8:00:00 AM 7.98 46.364 0.146 7.25 1.93 12.76
10/31/2022 8:15:00 AM 7.97 46.346 0.146 7.28 1.83 12.84
10/31/2022 8:30:00 AM 7.98 46.364 0.146 7.29 1.81 12.94
10/31/2022 8:45:00 AM 7.98 46.364 0.146 7.31 1.82 13.04
10/31/2022 9:00:00 AM 8.02 46.436 0.146 7.32 1.83 13.21
10/31/2022 9:15:00 AM 8.06 46.508 0.146 7.34 1.79 13.3
10/31/2022 9:30:00 AM 8.11 46.598 0.145 7.4 1.78 13.49
10/31/2022 9:45:00 AM 8.22 46.796 0.145 7.44 1.8 13.63
10/31/2022 10:00:00 AM 8.4 47.12 0.145 7.48 1.74 14.01
10/31/2022 10:15:00 AM 8.5 47.3 0.145 7.59 1.82 14.18
10/31/2022 10:30:00 AM 8.72 47.696 0.144 7.67 1.83 14.36
10/31/2022 10:45:00 AM 8.93 48.074 0.144 7.71 1.76 14.44
10/31/2022 11:00:00 AM 9.19 48.542 0.144 7.83 1.82 14.55
10/31/2022 11:15:00 AM 9.4 48.92 0.144 7.89 2.9 14.62
10/31/2022 11:30:00 AM 9.5 49.1 0.144 7.94 1.86 14.66
10/31/2022 11:45:00 AM 9.56 49.208 0.144 7.94 1.8 14.58
10/31/2022 12:00:00 PM 9.62 49.316 0.144 7.96 1.79 14.48
10/31/2022 12:15:00 PM 9.71 49.478 0.143 8 1.76 14.54
10/31/2022 12:30:00 PM 9.78 49.604 0.143 8.02 1.75 14.47
10/31/2022 12:45:00 PM 9.89 49.802 0.143 8 1.78 14.43
10/31/2022 1:00:00 PM 10.01 50.018 0.143 8.06 1.76 14.46
10/31/2022 1:15:00 PM 10.09 50.162 0.143 8.08 1.75 14.4
10/31/2022 1:30:00 PM 10.18 50.324 0.143 8.09 1.78 14.32
10/31/2022 1:45:00 PM 10.26 50.468 0.143 8.15 1.82 14.28
10/31/2022 2:00:00 PM 10.34 50.612 0.143 8.1 1.76 14.2
10/31/2022 2:15:00 PM 10.43 50.774 0.143 8.13 1.72 14.08
10/31/2022 2:30:00 PM 10.5 50.9 0.142 8.09 1.77 13.97
10/31/2022 2:45:00 PM 10.59 51.062 0.142 8.1 1.78 13.95
10/31/2022 3:00:00 PM 10.69 51.242 0.142 8.14 1.7 14
10/31/2022 3:15:00 PM 10.76 51.368 0.142 8.1 1.75 13.95
10/31/2022 3:30:00 PM 10.83 51.494 0.142 8.08 1.8 13.91
10/31/2022 3:45:00 PM 10.89 51.602 0.143 8.06 1.73 13.78
10/31/2022 4:00:00 PM 10.95 51.71 0.143 7.99 1.88 13.74
10/31/2022 4:15:00 PM 10.99 51.782 0.143 7.96 1.76 13.65
10/31/2022 4:30:00 PM 11.02 51.836 0.143 7.89 1.72 13.47
10/31/2022 4:45:00 PM 11.05 51.89 0.143 7.8 1.77 13.3
10/31/2022 5:00:00 PM 11.07 51.926 0.143 7.7 1.78 13.16
10/31/2022 5:15:00 PM 11.09 51.962 0.143 7.58 1.79 12.96
10/31/2022 5:30:00 PM 11.1 51.98 0.143 7.53 1.75 12.66
10/31/2022 5:45:00 PM 11.1 51.98 0.144 7.46 1.76 12.55
10/31/2022 6:00:00 PM 11.1 51.98 0.144 7.42 1.8 12.36
10/31/2022 6:15:00 PM 11.1 51.98 0.144 7.37 2.01 12.15
10/31/2022 6:30:00 PM 11.1 51.98 0.144 7.35 1.77 11.99
10/31/2022 6:45:00 PM 11.11 51.998 0.144 7.33 1.83 11.96
10/31/2022 7:00:00 PM 11.11 51.998 0.145 7.31 1.85 11.85
10/31/2022 7:15:00 PM 11.11 51.998 0.145 7.3 1.8 11.78
10/31/2022 7:30:00 PM 11.11 51.998 0.145 7.27 1.79 11.74
10/31/2022 7:45:00 PM 11.11 51.998 0.145 7.27 1.81 11.66
10/31/2022 8:00:00 PM 11.11 51.998 0.145 7.26 1.84 11.67
10/31/2022 8:15:00 PM 11.11 51.998 0.145 7.25 2 11.59
10/31/2022 8:30:00 PM 11.12 52.016 0.146 7.24 1.94 11.61
10/31/2022 8:45:00 PM 11.12 52.016 0.146 7.25 2.08 11.63
10/31/2022 9:00:00 PM 11.13 52.034 0.146 7.23 1.99 11.61
10/31/2022 9:15:00 PM 11.13 52.034 0.146 7.23 3.09 11.59
10/31/2022 9:30:00 PM 11.13 52.034 0.146 7.21 1.83 11.41
10/31/2022 9:45:00 PM 11.13 52.034 0.146 7.22 1.93 11.59
10/31/2022 10:00:00 PM 11.13 52.034 0.146 7.22 1.78 11.61
10/31/2022 10:15:00 PM 11.13 52.034 0.146 7.21 1.84 11.56
10/31/2022 10:30:00 PM 11.12 52.016 0.146 7.21 1.84 11.6
10/31/2022 10:45:00 PM 11.13 52.034 0.146 7.2 2.03 11.57
10/31/2022 11:00:00 PM 11.12 52.016 0.146 7.21 1.81 11.61
10/31/2022 11:15:00 PM 11.12 52.016 0.146 7.21 1.81 11.61
10/31/2022 11:30:00 PM 11.12 52.016 0.146 7.2 1.8 11.59
10/31/2022 11:45:00 PM 11.12 52.016 0.146 7.22 1.78 11.59
11/1/2022 12:00:00 AM 11.12 52.016 0.146 7.19 1.78 11.57
11/1/2022 12:15:00 AM 11.12 52.016 0.146 7.2 1.78 11.59
11/1/2022 12:30:00 AM 11.12 52.016 0.147 7.2 1.77 11.59
11/1/2022 12:45:00 AM 11.12 52.016 0.147 7.19 1.81 11.56
11/1/2022 1:00:00 AM 11.12 52.016 0.147 7.19 1.75 11.57
11/1/2022 1:15:00 AM 11.13 52.034 0.147 7.19 1.77 11.56
11/1/2022 1:30:00 AM 11.13 52.034 0.147 7.19 1.78 11.58
11/1/2022 1:45:00 AM 11.13 52.034 0.147 7.19 1.79 11.55
11/1/2022 2:00:00 AM 11.14 52.052 0.147 7.19 1.82 11.47
11/1/2022 2:15:00 AM 11.15 52.07 0.146 7.18 1.78 11.55
11/1/2022 2:30:00 AM 11.16 52.088 0.146 7.19 1.84 11.6
11/1/2022 2:45:00 AM 11.16 52.088 0.146 7.19 1.95 11.57
11/1/2022 3:00:00 AM 11.17 52.106 0.146 7.18 1.89 11.54
11/1/2022 3:15:00 AM 11.17 52.106 0.146 7.19 1.8 11.58
11/1/2022 3:30:00 AM 11.16 52.088 0.146 7.19 1.86 11.57
11/1/2022 3:45:00 AM 11.16 52.088 0.146 7.19 1.84 11.56
11/1/2022 4:00:00 AM 11.15 52.07 0.146 7.18 1.83 11.55
11/1/2022 4:15:00 AM 11.16 52.088 0.146 7.19 1.8 11.51
11/1/2022 4:30:00 AM 11.16 52.088 0.146 7.19 1.72 11.55
11/1/2022 4:45:00 AM 11.16 52.088 0.146 7.19 1.82 11.55
11/1/2022 5:00:00 AM 11.17 52.106 0.146 7.18 1.84 11.57
11/1/2022 5:15:00 AM 11.17 52.106 0.146 7.18 1.8 11.57
11/1/2022 5:30:00 AM 11.17 52.106 0.146 7.16 2.12 11.56
11/1/2022 5:45:00 AM 11.16 52.088 0.146 7.19 1.81 11.56
11/1/2022 6:00:00 AM 11.13 52.034 0.146 7.19 1.75 11.58
11/1/2022 6:15:00 AM 11.1 51.98 0.146 7.18 1.8 11.56
11/1/2022 6:30:00 AM 11.07 51.926 0.146 7.17 1.78 11.58
11/1/2022 6:45:00 AM 11.06 51.908 0.146 7.18 1.84 11.58
11/1/2022 7:00:00 AM 11.06 51.908 0.146 7.16 2.06 11.56
11/1/2022 7:15:00 AM 11.07 51.926 0.147 7.18 1.79 11.6
11/1/2022 7:30:00 AM 11.07 51.926 0.147 7.17 1.75 11.59
11/1/2022 7:45:00 AM 11.07 51.926 0.147 7.17 1.79 11.56
11/1/2022 8:00:00 AM 11.08 51.944 0.147 7.17 2 11.5
11/1/2022 8:15:00 AM 11.09 51.962 0.147 7.18 1.83 11.49
11/1/2022 8:30:00 AM 11.11 51.998 0.147 7.2 1.84 11.61
11/1/2022 8:45:00 AM 11.13 52.034 0.147 7.22 1.78 11.77
11/1/2022 9:00:00 AM 11.17 52.106 0.147 7.24 1.74 12.09
11/1/2022 9:15:00 AM 11.22 52.196 0.146 7.3 1.78 12.2
11/1/2022 9:30:00 AM 11.27 52.286 0.146 7.34 1.74 12.54
11/1/2022 9:45:00 AM 11.32 52.376 0.146 7.38 1.92 12.57
11/1/2022 10:00:00 AM 11.37 52.466 0.146 7.42 1.79 12.71
11/1/2022 10:15:00 AM 11.44 52.592 0.146 7.48 1.76 12.94
11/1/2022 10:30:00 AM 11.54 52.772 0.145 7.54 1.81 13.15
11/1/2022 10:45:00 AM 11.59 52.862 0.145 7.56 1.82 13.21
11/1/2022 11:00:00 AM 11.61 52.898 0.145 7.55 1.81 13.12
11/1/2022 11:15:00 AM 11.62 52.916 0.145 7.51 1.73 12.95
11/1/2022 11:30:00 AM 11.64 52.952 0.145 7.49 1.79 12.78
11/1/2022 11:45:00 AM 11.67 53.006 0.144 7.46 2.02 12.71
11/1/2022 12:00:00 PM 11.7 53.06 0.143 7.43 2.24 12.62
11/1/2022 12:15:00 PM 11.74 53.132 0.141 7.4 2.28 12.5
11/1/2022 12:30:00 PM 11.79 53.222 0.14 7.37 2.58 12.41
11/1/2022 12:45:00 PM 11.85 53.33 0.139 7.38 2.74 12.46
11/1/2022 1:00:00 PM 11.95 53.51 0.138 7.47 2.59 12.89
11/1/2022 1:15:00 PM 12.05 53.69 0.138 7.55 2.43 13.28
11/1/2022 1:30:00 PM 12.1 53.78 0.137 7.59 2.28 13.25
11/1/2022 1:45:00 PM 12.13 53.834 0.137 7.48 2.29 13.03
11/1/2022 2:00:00 PM 12.14 53.852 0.136 7.39 2.49 12.75
11/1/2022 2:15:00 PM 12.15 53.87 0.136 7.32 2.17 12.53
11/1/2022 2:30:00 PM 12.2 53.96 0.136 7.35 2.18 12.69
11/1/2022 2:45:00 PM 12.28 54.104 0.136 7.31 2.17 12.64
11/1/2022 3:00:00 PM 12.35 54.23 0.137 7.48 2.05 12.73
11/1/2022 3:15:00 PM 12.39 54.302 0.137 7.53 2 13.04
11/1/2022 3:30:00 PM 12.43 54.374 0.137 7.54 2 13.01
11/1/2022 3:45:00 PM 12.44 54.392 0.138 7.37 1.94 12.89
11/1/2022 4:00:00 PM 12.43 54.374 0.138 7.38 1.91 12.83
11/1/2022 4:15:00 PM 12.39 54.302 0.138 7.39 1.97 12.57
11/1/2022 4:30:00 PM 12.37 54.266 0.138 7.39 1.96 12.43
11/1/2022 4:45:00 PM 12.36 54.248 0.138 7.37 1.99 12.48
11/1/2022 5:00:00 PM 12.35 54.23 0.138 7.32 2 12.32
11/1/2022 5:15:00 PM 12.35 54.23 0.139 7.27 1.98 12.21
11/1/2022 5:30:00 PM 12.33 54.194 0.139 7.2 3.04 12.02
11/1/2022 5:45:00 PM 12.31 54.158 0.14 7.27 1.92 11.8
11/1/2022 6:00:00 PM 12.28 54.104 0.14 7.17 1.96 11.75
11/1/2022 6:15:00 PM 12.24 54.032 0.14 7.2 1.9 11.46
11/1/2022 6:30:00 PM 12.22 53.996 0.141 7.22 1.96 11.42
11/1/2022 6:45:00 PM 12.21 53.978 0.141 7.17 2.06 11.52
11/1/2022 7:00:00 PM 12.21 53.978 0.141 7.2 1.92 11.53
11/1/2022 7:15:00 PM 12.18 53.924 0.141 7.18 1.94 11.48
11/1/2022 7:30:00 PM 12.18 53.924 0.141 7.18 1.97 11.34
11/1/2022 7:45:00 PM 12.18 53.924 0.142 7.14 1.93 11.37
11/1/2022 8:00:00 PM 12.17 53.906 0.142 7.16 1.9 11.44
11/1/2022 8:15:00 PM 12.16 53.888 0.142 7.19 1.9 11.48
11/1/2022 8:30:00 PM 12.16 53.888 0.142 7.16 1.89 11.49
11/1/2022 8:45:00 PM 12.15 53.87 0.142 7.2 1.86 11.48
11/1/2022 9:00:00 PM 12.13 53.834 0.143 7.17 1.93 11.44
11/1/2022 9:15:00 PM 12.1 53.78 0.143 7.18 1.88 11.45
11/1/2022 9:30:00 PM 12.08 53.744 0.143 7.17 1.88 11.47
11/1/2022 9:45:00 PM 12.06 53.708 0.143 7.16 1.93 11.42
11/1/2022 10:00:00 PM 12.05 53.69 0.143 7.16 1.89 11.42
11/1/2022 10:15:00 PM 12.03 53.654 0.143 7.16 1.85 11.48
11/1/2022 10:30:00 PM 12.02 53.636 0.144 7.17 1.9 11.47
11/1/2022 10:45:00 PM 12 53.6 0.143 7.16 1.92 11.48
11/1/2022 11:00:00 PM 11.95 53.51 0.144 7.17 1.92 11.49
11/1/2022 11:15:00 PM 11.9 53.42 0.144 7.15 1.85 11.44
11/1/2022 11:30:00 PM 11.84 53.312 0.144 7.19 1.87 11.55
11/1/2022 11:45:00 PM 11.79 53.222 0.144 7.17 1.86 11.56
11/2/2022 12:00:00 AM 11.74 53.132 0.144 7.17 1.84 11.53
11/2/2022 12:15:00 AM 11.7 53.06 0.144 7.16 1.86 11.46
11/2/2022 12:30:00 AM 11.65 52.97 0.144 7.17 2.28 11.58
11/2/2022 12:45:00 AM 11.6 52.88 0.144 7.18 2.02 11.6
11/2/2022 1:00:00 AM 11.55 52.79 0.144 7.16 1.89 11.61
11/2/2022 1:15:00 AM 11.5 52.7 0.144 7.18 1.88 11.58
11/2/2022 1:30:00 AM 11.45 52.61 0.144 7.16 1.99 11.62
11/2/2022 1:45:00 AM 11.4 52.52 0.144 7.16 1.82 11.6
11/2/2022 2:00:00 AM 11.35 52.43 0.144 7.17 1.9 11.61
11/2/2022 2:15:00 AM 11.3 52.34 0.144 7.17 2.08 11.66
11/2/2022 2:30:00 AM 11.26 52.268 0.145 7.17 2.04 11.68
11/2/2022 2:45:00 AM 11.22 52.196 0.144 7.15 1.94 11.72
11/2/2022 3:00:00 AM 11.17 52.106 0.145 7.15 1.88 11.56
11/2/2022 3:15:00 AM 11.14 52.052 0.145 7.16 1.9 11.79
11/2/2022 3:30:00 AM 11.1 51.98 0.145 7.16 1.98 11.73
11/2/2022 3:45:00 AM 11.07 51.926 0.145 7.17 1.93 11.75
11/2/2022 4:00:00 AM 11.06 51.908 0.145 7.18 1.97 11.75
11/2/2022 4:15:00 AM 11.06 51.908 0.145 7.16 1.93 11.77
11/2/2022 4:30:00 AM 11.06 51.908 0.145 7.17 2 11.74
11/2/2022 4:45:00 AM 11.05 51.89 0.145 7.16 1.96 11.64
11/2/2022 5:00:00 AM 11.05 51.89 0.145 7.17 2.36 11.69
11/2/2022 5:15:00 AM 11.05 51.89 0.145 7.18 2.04 11.61
11/2/2022 5:30:00 AM 11.05 51.89 0.145 7.17 1.95 11.84
11/2/2022 5:45:00 AM 11.05 51.89 0.145 7.17 1.92 11.84
11/2/2022 6:00:00 AM 11.06 51.908 0.145 7.16 1.97 11.83
11/2/2022 6:15:00 AM 11.05 51.89 0.145 7.17 1.95 11.84
11/2/2022 6:30:00 AM 11.06 51.908 0.145 7.16 1.94 11.84
11/2/2022 6:45:00 AM 11.06 51.908 0.145 7.15 1.96 11.86
11/2/2022 7:00:00 AM 11.05 51.89 0.145 7.15 1.95 11.83
11/2/2022 7:15:00 AM 11.02 51.836 0.145 7.17 1.93 11.8
11/2/2022 7:30:00 AM 11 51.8 0.145 7.15 2.41 11.85
11/2/2022 7:45:00 AM 10.98 51.764 0.145 7.12 1.94 11.87
11/2/2022 8:00:00 AM 10.96 51.728 0.145 7.18 1.95 11.89
11/2/2022 8:15:00 AM 10.94 51.692 0.145 7.18 1.88 11.98
11/2/2022 8:30:00 AM 10.94 51.692 0.145 7.18 2.38 12.02
11/2/2022 8:45:00 AM 10.96 51.728 0.145 7.19 1.93 12.1
11/2/2022 9:00:00 AM 10.99 51.782 0.144 7.21 1.89 12.23
11/2/2022 9:15:00 AM 11.01 51.818 0.144 7.23 1.95 12.25
11/2/2022 9:30:00 AM 11.06 51.908 0.144 7.28 1.89 12.58
11/2/2022 9:45:00 AM 11.09 51.962 0.144 7.32 1.97 12.82
11/2/2022 10:00:00 AM 11.14 52.052 0.143 7.35 1.84 13.02
11/2/2022 10:15:00 AM 11.21 52.178 0.143 7.42 1.98 13.03
11/2/2022 10:30:00 AM 11.31 52.358 0.143 7.38 2.16 13.18
11/2/2022 10:45:00 AM 11.45 52.61 0.143 7.43 1.89 13.2
11/2/2022 11:00:00 AM 11.57 52.826 0.143 7.5 1.9 13.44
11/2/2022 11:15:00 AM 11.69 53.042 0.142 7.52 1.85 13.41
11/2/2022 11:30:00 AM 11.79 53.222 0.142 7.47 1.82 13.56
11/2/2022 11:45:00 AM 11.85 53.33 0.142 7.55 1.89 13.55
11/2/2022 12:00:00 PM 11.9 53.42 0.142 7.58 1.82 13.55
11/2/2022 12:15:00 PM 11.98 53.564 0.142 7.6 1.95 13.58
11/2/2022 12:30:00 PM 12.06 53.708 0.142 7.52 1.86 13.43
11/2/2022 12:45:00 PM 12.1 53.78 0.142 7.63 1.88 13.49
11/2/2022 1:00:00 PM 12.12 53.816 0.142 7.49 2.05 13.45
11/2/2022 1:15:00 PM 12.1 53.78 0.142 7.51 2.73 13.31
11/2/2022 1:30:00 PM 12.08 53.744 0.142 7.59 1.88 13.29
11/2/2022 1:45:00 PM 12.1 53.78 0.142 7.46 2 13.17
11/2/2022 2:00:00 PM 12.11 53.798 0.141 7.34 1.93 13.17
11/2/2022 2:15:00 PM 12.11 53.798 0.141 7.31 1.9 13.08
11/2/2022 2:30:00 PM 12.1 53.78 0.141 7.4 1.96 12.99
11/2/2022 2:45:00 PM 12.1 53.78 0.141 7.41 1.98 12.89
11/2/2022 3:00:00 PM 12.09 53.762 0.141 7.38 1.87 12.79
11/2/2022 3:15:00 PM 12.1 53.78 0.141 7.32 1.82 12.7
11/2/2022 3:30:00 PM 12.09 53.762 0.141 7.37 1.9 12.66
11/2/2022 3:45:00 PM 12.1 53.78 0.141 7.31 1.83 12.51
11/2/2022 4:00:00 PM 12.11 53.798 0.141 7.27 1.85 12.4
11/2/2022 4:15:00 PM 12.12 53.816 0.141 7.27 1.86 12.34
11/2/2022 4:30:00 PM 12.13 53.834 0.141 7.23 1.9 12.25
11/2/2022 4:45:00 PM 12.14 53.852 0.141 7.24 1.95 12.18
11/2/2022 5:00:00 PM 12.16 53.888 0.141 7.26 1.9 12.1
11/2/2022 5:15:00 PM 12.17 53.906 0.141 7.22 1.87 12.06
11/2/2022 5:30:00 PM 12.18 53.924 0.141 7.09 1.91 11.88
11/2/2022 5:45:00 PM 12.19 53.942 0.141 7.14 1.92 11.71
11/2/2022 6:00:00 PM 12.19 53.942 0.141 7.13 1.9 11.66
11/2/2022 6:15:00 PM 12.19 53.942 0.141 7.13 1.93 11.6
11/2/2022 6:30:00 PM 12.18 53.924 0.141 7.09 1.88 11.46
11/2/2022 6:45:00 PM 12.17 53.906 0.141 7.08 1.94 11.44
11/2/2022 7:00:00 PM 12.14 53.852 0.141 7.1 1.9 11.45
11/2/2022 7:15:00 PM 12.1 53.78 0.141 7.05 2.03 11.46
11/2/2022 7:30:00 PM 12.07 53.726 0.142 7.05 1.97 11.48
11/2/2022 7:45:00 PM 12 53.6 0.142 7.1 1.83 11.43
11/2/2022 8:00:00 PM 11.93 53.474 0.142 7.11 1.85 11.44
11/2/2022 8:15:00 PM 11.86 53.348 0.142 7.12 1.93 11.51
11/2/2022 8:30:00 PM 11.79 53.222 0.142 7.1 1.92 11.5
11/2/2022 8:45:00 PM 11.7 53.06 0.142 7.07 2 11.56
11/2/2022 9:00:00 PM 11.63 52.934 0.142 7.08 1.99 11.54
11/2/2022 9:15:00 PM 11.55 52.79 0.142 7.07 1.97 11.6
11/2/2022 9:30:00 PM 11.47 52.646 0.142 7.11 1.87 11.6
11/2/2022 9:45:00 PM 11.4 52.52 0.142 7.06 2.14 11.66
11/2/2022 10:00:00 PM 11.33 52.394 0.142 7.13 1.92 11.63
11/2/2022 10:15:00 PM 11.25 52.25 0.142 7.09 1.82 11.68
11/2/2022 10:30:00 PM 11.19 52.142 0.142 7.11 1.88 11.72
11/2/2022 10:45:00 PM 11.12 52.016 0.142 7.09 1.95 11.78
11/2/2022 11:00:00 PM 11.05 51.89 0.142 7.11 2.01 11.76
11/2/2022 11:15:00 PM 10.99 51.782 0.142 7.11 1.94 11.82
11/2/2022 11:30:00 PM 10.92 51.656 0.142 7.13 2.01 11.83
11/2/2022 11:45:00 PM 10.85 51.53 0.142 7.14 1.91 11.85
11/3/2022 12:00:00 AM 10.81 51.458 0.142 7.11 1.85 11.91
11/3/2022 12:15:00 AM 10.73 51.314 0.142 7.1 1.94 11.92
11/3/2022 12:30:00 AM 10.68 51.224 0.142 7.11 1.91 11.91
11/3/2022 12:45:00 AM 10.62 51.116 0.142 7.13 1.89 11.95
11/3/2022 1:00:00 AM 10.58 51.044 0.142 7.13 1.97 11.96
11/3/2022 1:15:00 AM 10.52 50.936 0.142 7.1 1.97 11.99
11/3/2022 1:30:00 AM 10.49 50.882 0.142 7.14 1.89 12.01
11/3/2022 1:45:00 AM 10.47 50.846 0.142 7.13 2 12.02
11/3/2022 2:00:00 AM 10.47 50.846 0.142 7.12 1.88 12.04
11/3/2022 2:15:00 AM 10.44 50.792 0.142 7.12 1.87 12.06
11/3/2022 2:30:00 AM 10.44 50.792 0.142 7.12 1.88 12.03
11/3/2022 2:45:00 AM 10.42 50.756 0.142 7.14 1.87 12.05
11/3/2022 3:00:00 AM 10.41 50.738 0.142 7.13 1.92 12.07
11/3/2022 3:15:00 AM 10.4 50.72 0.142 7.13 1.88 12.04
11/3/2022 3:30:00 AM 10.39 50.702 0.142 7.14 1.93 12.06
11/3/2022 3:45:00 AM 10.39 50.702 0.142 7.13 1.87 12.08
11/3/2022 4:00:00 AM 10.36 50.648 0.142 7.17 1.95 12.1
11/3/2022 4:15:00 AM 10.38 50.684 0.142 7.11 1.93 12.04
11/3/2022 4:30:00 AM 10.36 50.648 0.142 7.15 1.87 12.03
11/3/2022 4:45:00 AM 10.36 50.648 0.142 7.15 1.8 12.09
11/3/2022 5:00:00 AM 10.35 50.63 0.142 7.13 1.91 12.05
11/3/2022 5:15:00 AM 10.34 50.612 0.142 7.14 1.96 12.07
11/3/2022 5:30:00 AM 10.35 50.63 0.141 7.14 2.01 12.07
11/3/2022 5:45:00 AM 10.33 50.594 0.142 7.12 2 12.11
11/3/2022 6:00:00 AM 10.32 50.576 0.141 7.13 2.03 12.09
11/3/2022 6:15:00 AM 10.31 50.558 0.141 7.1 1.92 12.04
11/3/2022 6:30:00 AM 10.3 50.54 0.141 7.14 1.88 12.06
11/3/2022 6:45:00 AM 10.28 50.504 0.141 7.13 2.15 12.08
11/3/2022 7:00:00 AM 10.27 50.486 0.141 7.13 1.92 12.07
11/3/2022 7:15:00 AM 10.26 50.468 0.141 7.11 2.01 11.88
11/3/2022 7:30:00 AM 10.25 50.45 0.141 7.12 2.01 11.98
11/3/2022 7:45:00 AM 10.24 50.432 0.141 7.13 1.95 11.89
11/3/2022 8:00:00 AM 10.26 50.468 0.141 7.09 1.9 12.07
11/3/2022 8:15:00 AM 10.22 50.396 0.141 7.14 1.92 11.98
11/3/2022 8:30:00 AM 10.22 50.396 0.141 7.13 1.87 12.17
11/3/2022 8:45:00 AM 10.21 50.378 0.141 7.15 1.9 12.17
11/3/2022 9:00:00 AM 10.21 50.378 0.141 7.15 1.82 12.27
11/3/2022 9:15:00 AM 10.21 50.378 0.141 7.2 1.85 12.47
11/3/2022 9:30:00 AM 10.23 50.414 0.141 7.2 1.88 12.62
11/3/2022 9:45:00 AM 10.26 50.468 0.141 7.16 1.87 12.64
11/3/2022 10:00:00 AM 10.32 50.576 0.14 7.09 1.86 12.68
11/3/2022 10:15:00 AM 10.35 50.63 0.14 7.16 1.84 12.81
11/3/2022 10:30:00 AM 10.36 50.648 0.14 7.21 1.87 13.05
11/3/2022 10:45:00 AM 10.38 50.684 0.14 7.26 1.84 13.01
11/3/2022 11:00:00 AM 10.44 50.792 0.14 7.29 1.86 13.23
11/3/2022 11:15:00 AM 10.57 51.026 0.14 7.27 2.84 13.51
11/3/2022 11:30:00 AM 10.73 51.314 0.139 7.4 2.01 13.69
11/3/2022 11:45:00 AM 10.94 51.692 0.139 7.32 1.92 13.79
11/3/2022 12:00:00 PM 11.07 51.926 0.139 7.35 1.94 13.7
11/3/2022 12:15:00 PM 11.24 52.232 0.139 7.25 1.91 13.73
11/3/2022 12:30:00 PM 11.34 52.412 0.139 7.32 2.09 13.72
11/3/2022 12:45:00 PM 11.4 52.52 0.139 7.44 1.96 13.58
11/3/2022 1:00:00 PM 11.46 52.628 0.139 7.41 1.87 13.61
11/3/2022 1:15:00 PM 11.48 52.664 0.139 7.28 1.84 13.45
11/3/2022 1:30:00 PM 11.46 52.628 0.139 7.34 1.86 13.45
11/3/2022 1:45:00 PM 11.45 52.61 0.139 7.38 1.86 13.26
11/3/2022 2:00:00 PM 11.42 52.556 0.139 7.43 1.92 13.13
11/3/2022 2:15:00 PM 11.45 52.61 0.139 7.38 1.85 13.15
11/3/2022 2:30:00 PM 11.5 52.7 0.139 7.2 1.92 13.11
11/3/2022 2:45:00 PM 11.45 52.61 0.139 7.35 1.83 12.92
11/3/2022 3:00:00 PM 11.51 52.718 0.139 7.25 1.88 12.95
11/3/2022 3:15:00 PM 11.49 52.682 0.139 7.17 1.87 12.82
11/3/2022 3:30:00 PM 11.5 52.7 0.139 7.18 1.86 12.75
11/3/2022 3:45:00 PM 11.53 52.754 0.139 7.11 1.88 12.59
11/3/2022 4:00:00 PM 11.52 52.736 0.139 7.13 1.85 12.51
11/3/2022 4:15:00 PM 11.53 52.754 0.139 7.13 1.87 12.34
11/3/2022 4:30:00 PM 11.54 52.772 0.139 7.18 1.9 12.31
11/3/2022 4:45:00 PM 11.53 52.754 0.139 7.26 1.85 12.29
11/3/2022 5:00:00 PM 11.56 52.808 0.139 7.1 1.96 12.15
11/3/2022 5:15:00 PM 11.58 52.844 0.139 7.17 1.9 12.11
11/3/2022 5:30:00 PM 11.61 52.898 0.139 7.12 1.9 11.98
11/3/2022 5:45:00 PM 11.61 52.898 0.139 7.14 1.94 11.91
11/3/2022 6:00:00 PM 11.62 52.916 0.139 7.11 1.87 11.89
11/3/2022 6:15:00 PM 11.62 52.916 0.139 7.12 1.97 11.79
11/3/2022 6:30:00 PM 11.64 52.952 0.14 7.11 6.13 11.73
11/3/2022 6:45:00 PM 11.7 53.06 0.14 7.09 7.18 11.67
11/3/2022 7:00:00 PM 11.63 52.934 0.138 7.09 6.01 11.81
11/3/2022 7:15:00 PM 11.45 52.61 0.137 7.17 5.7 12.09
11/3/2022 7:30:00 PM 11.33 52.394 0.136 6.81 6.21 12.08
11/3/2022 7:45:00 PM 11.17 52.106 0.135 6.97 4.98 12.23
11/3/2022 8:00:00 PM 11.12 52.016 0.134 7.1 6.69 12.1
11/3/2022 8:15:00 PM 11.03 51.854 0.133 7.17 4.7 12.25
11/3/2022 8:30:00 PM 11.02 51.836 0.132 7.22 4.13 12.28
11/3/2022 8:45:00 PM 11 51.8 0.131 7.23 4.71 12.31
11/3/2022 9:00:00 PM 11 51.8 0.131 7.22 6.12 12.25
11/3/2022 9:15:00 PM 11.02 51.836 0.131 7.17 3.73 12.25
11/3/2022 9:30:00 PM 11.01 51.818 0.13 7.18 3.87 12.25
11/3/2022 9:45:00 PM 11 51.8 0.13 7.13 3.67 12.26
11/3/2022 10:00:00 PM 10.97 51.746 0.13 7.17 3.76 12.27
11/3/2022 10:15:00 PM 11.01 51.818 0.13 6.94 3.38 12.05
11/3/2022 10:30:00 PM 10.96 51.728 0.13 6.98 3.72 12.03
11/3/2022 10:45:00 PM 10.97 51.746 0.129 7 3.28 11.95
11/3/2022 11:00:00 PM 10.92 51.656 0.129 7.04 3.25 12.12
11/3/2022 11:15:00 PM 10.87 51.566 0.129 7 3.22 12.2
11/3/2022 11:30:00 PM 10.86 51.548 0.129 7.04 3.11 12.15
11/3/2022 11:45:00 PM 10.81 51.458 0.129 7.04 3.05 12.23
11/4/2022 12:00:00 AM 10.78 51.404 0.129 7 2.99 12.08
11/4/2022 12:15:00 AM 10.73 51.314 0.129 6.92 2.97 12.18
11/4/2022 12:30:00 AM 10.74 51.332 0.129 6.94 2.91 11.95
11/4/2022 12:45:00 AM 10.7 51.26 0.13 6.71 2.97 12.08
11/4/2022 1:00:00 AM 10.64 51.152 0.129 6.89 3.15 12.1
11/4/2022 1:15:00 AM 10.6 51.08 0.129 6.87 2.88 12.11
11/4/2022 1:30:00 AM 10.54 50.972 0.129 6.88 2.77 12.03
11/4/2022 1:45:00 AM 10.51 50.918 0.129 6.87 2.61 12.03
11/4/2022 2:00:00 AM 10.46 50.828 0.129 6.74 2.72 12.15
11/4/2022 2:15:00 AM 10.43 50.774 0.129 6.9 2.71 12.14
11/4/2022 2:30:00 AM 10.37 50.666 0.129 6.83 2.61 12.12
11/4/2022 2:45:00 AM 10.34 50.612 0.13 6.84 2.88 12.04
11/4/2022 3:00:00 AM 10.31 50.558 0.13 6.94 2.69 12.21
11/4/2022 3:15:00 AM 10.24 50.432 0.129 6.75 2.76 12.24
11/4/2022 3:30:00 AM 10.2 50.36 0.129 6.97 3.22 12.13
11/4/2022 3:45:00 AM 10.11 50.198 0.129 7.05 2.83 12.25
11/4/2022 4:00:00 AM 10.12 50.216 0.129 7.01 2.67 12.2
11/4/2022 4:15:00 AM 10.03 50.054 0.13 7.09 2.63 12.34
11/4/2022 4:30:00 AM 9.96 49.928 0.129 7.09 2.62 12.37
11/4/2022 4:45:00 AM 9.93 49.874 0.129 7.13 2.62 12.35
11/4/2022 5:00:00 AM 9.9 49.82 0.129 7.13 2.77 12.4
11/4/2022 5:15:00 AM 9.85 49.73 0.13 7.15 2.58 12.47
11/4/2022 5:30:00 AM 9.82 49.676 0.13 7.13 2.55 12.46
11/4/2022 5:45:00 AM 9.79 49.622 0.129 7.16 2.57 12.5
11/4/2022 6:00:00 AM 9.75 49.55 0.13 7.16 2.65 12.52
11/4/2022 6:15:00 AM 9.71 49.478 0.129 7.17 2.69 12.59
11/4/2022 6:30:00 AM 9.69 49.442 0.13 7.12 2.54 12.5
11/4/2022 6:45:00 AM 9.66 49.388 0.13 7.16 2.74 12.57
11/4/2022 7:00:00 AM 9.62 49.316 0.13 7.16 2.44 12.53
11/4/2022 7:15:00 AM 9.59 49.262 0.13 7.14 2.47 12.57
11/4/2022 7:30:00 AM 9.56 49.208 0.13 7.14 2.63 12.47
11/4/2022 7:45:00 AM 9.56 49.208 0.13 7.12 3.34 12.52
11/4/2022 8:00:00 AM 9.54 49.172 0.13 7.13 2.59 12.53
11/4/2022 8:15:00 AM 9.54 49.172 0.13 7.15 2.61 12.63
11/4/2022 8:30:00 AM 9.53 49.154 0.13 7.17 2.52 12.76
11/4/2022 8:45:00 AM 9.54 49.172 0.13 7.21 2.76 12.83
11/4/2022 9:00:00 AM 9.56 49.208 0.13 7.21 2.75 12.88
11/4/2022 9:15:00 AM 9.59 49.262 0.13 7.21 2.48 12.93
11/4/2022 9:30:00 AM 9.61 49.298 0.13 7.25 2.42 13.02
11/4/2022 9:45:00 AM 9.69 49.442 0.13 7.22 2.3 13.07
11/4/2022 10:00:00 AM 9.79 49.622 0.13 7.23 2.41 13.12
11/4/2022 10:15:00 AM 9.85 49.73 0.13 7.28 2.45 13.16
11/4/2022 10:30:00 AM 9.96 49.928 0.13 7.27 2.33 13.15
11/4/2022 10:45:00 AM 10.13 50.234 0.13 7.27 2.33 13.27
11/4/2022 11:00:00 AM 10.27 50.486 0.13 7.29 2.26 13.31
11/4/2022 11:15:00 AM 10.45 50.81 0.13 7.3 3.3 13.32
11/4/2022 11:30:00 AM 10.57 51.026 0.13 7.33 2.28 13.29
11/4/2022 11:45:00 AM 10.64 51.152 0.13 7.37 2.27 13.35
11/4/2022 12:00:00 PM 10.8 51.44 0.131 7.33 2.27 13.28
11/4/2022 12:15:00 PM 10.93 51.674 0.131 7.33 2.33 13.25
11/4/2022 12:30:00 PM 11.01 51.818 0.131 7.35 2.68 13.21
11/4/2022 12:45:00 PM 11.12 52.016 0.131 7.39 2.31 13.23
11/4/2022 1:00:00 PM 11.22 52.196 0.131 7.35 2.4 13.15
11/4/2022 1:15:00 PM 11.27 52.286 0.131 7.29 2.38 13.01
11/4/2022 1:30:00 PM 11.38 52.484 0.131 7.33 2.28 13
11/4/2022 1:45:00 PM 11.47 52.646 0.131 7.36 2.16 13.03
11/4/2022 2:00:00 PM 11.56 52.808 0.131 7.36 2.25 12.93
11/4/2022 2:15:00 PM 11.67 53.006 0.131 7.36 2.18 12.88
11/4/2022 2:30:00 PM 11.78 53.204 0.131 7.31 2.27 12.79
11/4/2022 2:45:00 PM 11.84 53.312 0.131 7.26 2.18 12.79
11/4/2022 3:00:00 PM 11.86 53.348 0.131 7.29 2.17 12.5
11/4/2022 3:15:00 PM 11.89 53.402 0.131 7.26 2.18 12.48
11/4/2022 3:30:00 PM 11.95 53.51 0.131 7.27 2.13 12.43
11/4/2022 3:45:00 PM 12.01 53.618 0.131 7.24 2.23 12.42
11/4/2022 4:00:00 PM 12.08 53.744 0.132 7.12 2.2 12.24
11/4/2022 4:15:00 PM 12.14 53.852 0.132 6.98 2.17 12.12
11/4/2022 4:30:00 PM 12.19 53.942 0.132 7.15 2.09 12.15
11/4/2022 4:45:00 PM 12.25 54.05 0.132 7.06 2.15 12.16
11/4/2022 5:00:00 PM 12.29 54.122 0.132 7.06 2.65 12.05
11/4/2022 5:15:00 PM 12.31 54.158 0.132 7.12 2.13 11.86
11/4/2022 5:30:00 PM 12.33 54.194 0.132 7.06 2.22 11.78
11/4/2022 5:45:00 PM 12.35 54.23 0.133 6.96 2.13 11.63
11/4/2022 6:00:00 PM 12.33 54.194 0.132 6.98 2.32 11.59
11/4/2022 6:15:00 PM 12.32 54.176 0.133 6.99 2.1 11.38
11/4/2022 6:30:00 PM 12.29 54.122 0.133 6.98 2.13 11.48
11/4/2022 6:45:00 PM 12.28 54.104 0.133 6.96 2.12 11.28
11/4/2022 7:00:00 PM 12.23 54.014 0.134 6.98 2.24 11.43
11/4/2022 7:15:00 PM 12.17 53.906 0.133 7.03 2.38 11.38
11/4/2022 7:30:00 PM 12.12 53.816 0.134 7.06 2.39 11.5
11/4/2022 7:45:00 PM 12.1 53.78 0.134 6.91 2.24 11.39
11/4/2022 8:00:00 PM 12.02 53.636 0.134 7.04 2.25 11.4
11/4/2022 8:15:00 PM 11.96 53.528 0.134 7.08 2.24 11.5
11/4/2022 8:30:00 PM 11.93 53.474 0.134 6.99 2.2 11.34
11/4/2022 8:45:00 PM 11.88 53.384 0.134 7.05 2.58 11.48
11/4/2022 9:00:00 PM 11.84 53.312 0.134 7.04 2.13 11.47
11/4/2022 9:15:00 PM 11.81 53.258 0.134 7.03 2.13 11.44
11/4/2022 9:30:00 PM 11.75 53.15 0.134 6.99 2.17 11.48
11/4/2022 9:45:00 PM 11.71 53.078 0.135 7.06 2.51 11.54
11/4/2022 10:00:00 PM 11.69 53.042 0.135 7.03 2.09 11.47
11/4/2022 10:15:00 PM 11.64 52.952 0.135 6.99 2.17 11.51
11/4/2022 10:30:00 PM 11.62 52.916 0.135 7.01 2.14 11.43
11/4/2022 10:45:00 PM 11.58 52.844 0.135 7 2.17 11.58
11/4/2022 11:00:00 PM 11.56 52.808 0.135 7.01 2.07 11.44
11/4/2022 11:15:00 PM 11.54 52.772 0.135 7.02 2.2 11.57
11/4/2022 11:30:00 PM 11.53 52.754 0.135 6.98 2.07 11.52
11/4/2022 11:45:00 PM 11.51 52.718 0.135 7.03 2.11 11.51
11/5/2022 12:00:00 AM 11.49 52.682 0.135 7.05 2.14 11.4
11/5/2022 12:15:00 AM 11.51 52.718 0.135 7 2.06 11.57
11/5/2022 12:30:00 AM 11.5 52.7 0.135 7.05 2.11 11.5
11/5/2022 12:45:00 AM 11.52 52.736 0.135 6.96 2.22 11.47
11/5/2022 1:00:00 AM 11.51 52.718 0.135 7 2.12 11.44
11/5/2022 1:15:00 AM 11.52 52.736 0.136 7.05 2.23 11.53
11/5/2022 1:30:00 AM 11.53 52.754 0.135 7 2.21 11.48
11/5/2022 1:45:00 AM 11.55 52.79 0.135 7.02 2.05 11.49
11/5/2022 2:00:00 AM 11.58 52.844 0.135 6.99 2.22 11.43
11/5/2022 2:15:00 AM 11.59 52.862 0.135 7.05 2.08 11.51
11/5/2022 2:30:00 AM 11.61 52.898 0.135 6.96 2.06 11.44
11/5/2022 2:45:00 AM 11.64 52.952 0.135 7 2.2 11.34
11/5/2022 3:00:00 AM 11.69 53.042 0.135 7 2.07 11.39
11/5/2022 3:15:00 AM 11.73 53.114 0.135 7.01 2.09 11.43
11/5/2022 3:30:00 AM 11.75 53.15 0.135 7.03 2.05 11.26
11/5/2022 3:45:00 AM 11.79 53.222 0.136 7 2.05 11.33
11/5/2022 4:00:00 AM 11.8 53.24 0.136 7.02 2.07 11.3
11/5/2022 4:15:00 AM 11.85 53.33 0.136 6.97 2.05 11.39
11/5/2022 4:30:00 AM 11.87 53.366 0.136 7.03 2.1 11.35
11/5/2022 4:45:00 AM 11.93 53.474 0.136 7.02 2.03 11.38
11/5/2022 5:00:00 AM 11.97 53.546 0.136 6.94 2.05 11.35
11/5/2022 5:15:00 AM 12 53.6 0.136 6.96 2.04 11.28
11/5/2022 5:30:00 AM 12.03 53.654 0.136 6.98 2.14 11.32
11/5/2022 5:45:00 AM 12.07 53.726 0.136 6.97 2.06 11.27
11/5/2022 6:00:00 AM 12.12 53.816 0.136 6.96 2.1 10.86
11/5/2022 6:15:00 AM 12.13 53.834 0.136 6.9 7.86 11.08
11/5/2022 6:30:00 AM 12.16 53.888 0.136 6.99 6.2 11.16
11/5/2022 6:45:00 AM 12.18 53.924 0.136 7.01 2.22 11.2
11/5/2022 7:00:00 AM 12.21 53.978 0.136 7 2.33 11.21
11/5/2022 7:15:00 AM 12.24 54.032 0.136 6.94 2.09 11.23
11/5/2022 7:30:00 AM 12.26 54.068 0.136 6.97 2.16 11.24
11/5/2022 7:45:00 AM 12.28 54.104 0.136 7.02 2.01 11.18
11/5/2022 8:00:00 AM 12.31 54.158 0.136 6.9 2.15 11.03
11/5/2022 8:15:00 AM 12.34 54.212 0.136 6.99 2.04 11.07
11/5/2022 8:30:00 AM 12.38 54.284 0.136 7 2.02 11.28
11/5/2022 8:45:00 AM 12.42 54.356 0.136 6.89 2.13 11.25
11/5/2022 9:00:00 AM 12.45 54.41 0.136 7.01 2.07 11.25
11/5/2022 9:15:00 AM 12.5 54.5 0.136 6.89 2.01 11.38
11/5/2022 9:30:00 AM 12.59 54.662 0.136 7.01 13.26 11.62
11/5/2022 9:45:00 AM 12.66 54.788 0.137 6.88 2.54 11.49
11/5/2022 10:00:00 AM 12.74 54.932 0.136 6.88 2.75 11.83
11/5/2022 10:15:00 AM 12.81 55.058 0.136 7 2.14 11.87
11/5/2022 10:30:00 AM 12.88 55.184 0.136 6.9 2.16 11.37
11/5/2022 10:45:00 AM 12.97 55.346 0.136 7 2.01 11.98
11/5/2022 11:00:00 AM 13.01 55.418 0.136 6.87 2.05 11.3
11/5/2022 11:15:00 AM 13.1 55.58 0.137 6.34 2.33 10.48
11/5/2022 11:30:00 AM 13.17 55.706 0.137 6.22 2.07 10.27
11/5/2022 11:45:00 AM 13.26 55.868 0.137 6.27 2.03 10.24
11/5/2022 12:00:00 PM 13.33 55.994 0.136 6.19 2.01 10.08
11/5/2022 12:15:00 PM 13.44 56.192 0.136 6.18 1.95 10.42
11/5/2022 12:30:00 PM 13.5 56.3 0.136 6.32 2.07 10.09
11/5/2022 12:45:00 PM 13.52 56.336 0.136 6.12 2.12 9.75
11/5/2022 1:00:00 PM 13.58 56.444 0.135 6.09 1.98 9.19
11/5/2022 1:15:00 PM 13.8 56.84 0.135 6.13 1.96 10.7
11/5/2022 1:30:00 PM 13.75 56.75 0.135 6.09 1.9 9.73
11/5/2022 1:45:00 PM 13.89 57.002 0.135 6.15 1.92 9.76
11/5/2022 2:00:00 PM 13.92 57.056 0.135 6.16 1.99 10.57
11/5/2022 2:15:00 PM 13.77 56.786 0.135 6.08 1.93 9.49
11/5/2022 2:30:00 PM 13.77 56.786 0.135 6.11 2.01 9.5
11/5/2022 2:45:00 PM 13.81 56.858 0.135 6.09 1.97 8.8
11/5/2022 3:00:00 PM 13.81 56.858 0.136 6.15 1.86 9.07
11/5/2022 3:15:00 PM 13.88 56.984 0.135 6.11 1.95 9.14
11/5/2022 3:30:00 PM 13.98 57.164 0.135 6.12 2.09 9.05
11/5/2022 3:45:00 PM 13.96 57.128 0.135 6.1 2 9.66
11/5/2022 4:00:00 PM 13.97 57.146 0.135 6.08 2.01 9.05
11/5/2022 4:15:00 PM 13.9 57.02 0.135 6.09 1.96 8.7
11/5/2022 4:30:00 PM 14.01 57.218 0.135 6.09 2.16 9.07
11/5/2022 4:45:00 PM 14.01 57.218 0.136 6.11 1.96 8.65
11/5/2022 5:00:00 PM 14.15 57.47 0.136 6.1 2.23 9.39
11/5/2022 5:15:00 PM 14.29 57.722 0.136 6.3 1.94 9.77
11/5/2022 5:30:00 PM 14.17 57.506 0.135 6.14 1.93 8.51
11/5/2022 5:45:00 PM 14.21 57.578 0.135 6.16 2.02 9.36
11/5/2022 6:00:00 PM 14.37 57.866 0.135 6.2 2.04 9.43
11/5/2022 6:15:00 PM 13.92 57.056 0.136 6.08 1.94 8.51
11/5/2022 6:30:00 PM 14.13 57.434 0.135 6.21 2 8.83
11/5/2022 6:45:00 PM 14.28 57.704 0.135 6.43 1.97 8.98
11/5/2022 7:00:00 PM 14.01 57.218 0.135 6.09 1.96 8.66
11/5/2022 7:15:00 PM 13.91 57.038 0.135 6.09 1.91 7.97
11/5/2022 7:30:00 PM 13.86 56.948 0.136 6.08 1.99 8.12
11/5/2022 7:45:00 PM 13.88 56.984 0.135 6.15 1.96 8.37
11/5/2022 8:00:00 PM 13.89 57.002 0.135 6.15 2.03 8.95
11/5/2022 8:15:00 PM 13.94 57.092 0.136 6.19 1.98 8.81
11/5/2022 8:30:00 PM 13.78 56.804 0.136 6.05 1.9 8.55
11/5/2022 8:45:00 PM 13.74 56.732 0.137 6.06 2.07 7.87
11/5/2022 9:00:00 PM 13.76 56.768 0.137 6.15 3.53 8.55
11/5/2022 9:15:00 PM 13.87 56.966 0.138 6.31 2.26 8.42
11/5/2022 9:30:00 PM 14.04 57.272 0.138 6.31 2.06 9.2
11/5/2022 9:45:00 PM 13.82 56.876 0.137 6.28 2.21 8.11
11/5/2022 10:00:00 PM 13.88 56.984 0.137 6.18 2.04 8.94
11/5/2022 10:15:00 PM 13.74 56.732 0.137 6.12 2.19 8.49
11/5/2022 10:30:00 PM 13.83 56.894 0.137 6.22 1.89 8.34
11/5/2022 10:45:00 PM 13.85 56.93 0.136 6.23 1.96 9.57
11/5/2022 11:00:00 PM 13.73 56.714 0.138 6.13 2.12 8.49
11/5/2022 11:15:00 PM 13.76 56.768 0.136 6.14 2.14 8.52
11/5/2022 11:30:00 PM 13.71 56.678 0.136 6.07 2.12 8.42
11/5/2022 11:45:00 PM 13.9 57.02 0.138 6.55 1.97 8.78
11/6/2022 12:00:00 AM 13.79 56.822 0.137 6.17 1.98 8.96
11/6/2022 12:15:00 AM 13.63 56.534 0.137 6.07 2.35 7.9
11/6/2022 12:30:00 AM 13.59 56.462 0.136 6.02 2.59 7.93
11/6/2022 12:45:00 AM 13.73 56.714 0.136 6.08 2.14 8.8
11/6/2022 1:00:00 AM 13.78 56.804 0.136 6.18 2.06 9
11/6/2022 1:15:00 AM 13.78 56.804 0.139 6.25 2.11 9.1
11/6/2022 1:30:00 AM 13.92 57.056 0.137 6.6 2.08 9.28
11/6/2022 1:45:00 AM 13.88 56.984 0.138 6.39 2.07 8.87
11/6/2022 2:00:00 AM 13.67 56.606 0.137 6.08 2.02 8.01
11/6/2022 2:15:00 AM 13.7 56.66 0.136 6.11 2.09 8.33
11/6/2022 2:30:00 AM 13.63 56.534 0.137 6.05 2.03 7.81
11/6/2022 2:45:00 AM 13.84 56.912 0.135 6.33 2.1 8.95
11/6/2022 3:00:00 AM 13.88 56.984 0.135 6.23 2.26 8.68
11/6/2022 3:15:00 AM 13.77 56.786 0.138 6.13 2.01 8.87
11/6/2022 3:30:00 AM 13.83 56.894 0.136 6.29 2.02 9.03
11/6/2022 3:45:00 AM 13.74 56.732 0.136 6.09 2.15 8.2
11/6/2022 4:00:00 AM 13.78 56.804 0.138 6.13 2.09 8.01
11/6/2022 4:15:00 AM 13.77 56.786 0.137 6.06 2.45 8.02
11/6/2022 4:30:00 AM 13.9 57.02 0.136 6.13 2.21 9.21
11/6/2022 4:45:00 AM 13.91 57.038 0.137 6.21 1.95 9
11/6/2022 5:00:00 AM 13.94 57.092 0.136 6.13 1.99 7.71
11/6/2022 5:15:00 AM 14.02 57.236 0.138 6.26 1.92 8.49
11/6/2022 5:30:00 AM 13.84 56.912 0.137 6.13 1.98 8.09
11/6/2022 5:45:00 AM 13.9 57.02 0.139 6.23 2.01 8.17
11/6/2022 6:00:00 AM 14.04 57.272 0.138 6.22 2.08 9.08
11/6/2022 6:15:00 AM 13.82 56.876 0.137 6.11 2.09 8.04
11/6/2022 6:30:00 AM 13.81 56.858 0.137 6.13 1.94 8.48
11/6/2022 6:45:00 AM 13.81 56.858 0.136 6.11 1.85 7.96
11/6/2022 7:00:00 AM 14.04 57.272 0.138 6.32 1.89 8.76
11/6/2022 7:15:00 AM 13.92 57.056 0.137 6.13 2.03 8.26
11/6/2022 7:30:00 AM 14 57.2 0.137 6.23 2.14 8.63
11/6/2022 7:45:00 AM 14.06 57.308 0.136 6.2 2.13 8.88
11/6/2022 8:00:00 AM 13.9 57.02 0.136 6.12 2.5 8.61
11/6/2022 8:15:00 AM 14.07 57.326 0.136 6.19 1.9 9.24
11/6/2022 8:30:00 AM 14.12 57.416 0.138 6.24 1.85 8.91
11/6/2022 8:45:00 AM 13.87 56.966 0.137 6.13 1.87 8.53
11/6/2022 9:00:00 AM 13.97 57.146 0.136 6.11 1.89 9.22
11/6/2022 9:15:00 AM 13.9 57.02 0.136 6.09 1.88 8.42
11/6/2022 9:30:00 AM 14.29 57.722 0.136 6.22 1.95 10.5
11/6/2022 9:45:00 AM 14.08 57.344 0.136 6.12 1.88 9.43
11/6/2022 10:00:00 AM 13.98 57.164 0.137 6.08 1.91 9.09
11/6/2022 10:15:00 AM 14.07 57.326 0.136 6.06 1.82 8.41
11/6/2022 10:30:00 AM 14.22 57.596 0.135 6.12 1.82 9.34
11/6/2022 10:45:00 AM 14.34 57.812 0.136 6.08 1.88 9.91
11/6/2022 11:00:00 AM 14.4 57.92 0.135 6.14 1.87 9.78
11/6/2022 11:15:00 AM 14.74 58.532 0.135 6.27 1.91 10.82
11/6/2022 11:30:00 AM 14.72 58.496 0.135 6.16 1.88 10.74
11/6/2022 11:45:00 AM 14.6 58.28 0.135 6.17 1.84 10.43
11/6/2022 12:00:00 PM 14.59 58.262 0.135 6.21 1.86 10.04
11/6/2022 12:15:00 PM 14.92 58.856 0.133 6.18 1.84 10.74
11/6/2022 12:30:00 PM 14.99 58.982 0.133 6.12 1.96 10.76
11/6/2022 12:45:00 PM 15.02 59.036 0.133 6.3 1.88 10.68
11/6/2022 1:00:00 PM 14.8 58.64 0.135 6.22 1.87 9.71
11/6/2022 1:15:00 PM 15.22 59.396 0.134 6.09 1.9 10.66
11/6/2022 1:30:00 PM 15.21 59.378 0.135 6.28 2.1 11.01
11/6/2022 1:45:00 PM 15.05 59.09 0.135 6.25 1.97 10.27
11/6/2022 2:00:00 PM 15.13 59.234 0.134 6.16 2 9.85
11/6/2022 2:15:00 PM 15.11 59.198 0.134 6.23 1.95 10.25
11/6/2022 2:30:00 PM 15.1 59.18 0.133 6.19 1.86 9.75
11/6/2022 2:45:00 PM 15.38 59.684 0.133 6.27 1.84 10.67
11/6/2022 3:00:00 PM 15.21 59.378 0.133 6.3 1.9 10.38
11/6/2022 3:15:00 PM 15.43 59.774 0.135 6.26 2.33 10.62
11/6/2022 3:30:00 PM 15.03 59.054 0.134 6.1 2.13 9.99
11/6/2022 3:45:00 PM 15.26 59.468 0.135 6.25 2.09 9.86
11/6/2022 4:00:00 PM 15.38 59.684 0.136 6.31 1.88 10.34
11/6/2022 4:15:00 PM 15.35 59.63 0.134 6.34 2 10.05
11/6/2022 4:30:00 PM 14.89 58.802 0.135 6.13 1.96 9.22
11/6/2022 4:45:00 PM 15.08 59.144 0.135 6.13 1.95 9.49
11/6/2022 5:00:00 PM 15.36 59.648 0.136 6.18 1.92 9.58
11/6/2022 5:15:00 PM 15.22 59.396 0.135 6.31 1.92 9.02
11/6/2022 5:30:00 PM 14.96 58.928 0.134 6.2 2.01 8.45
11/6/2022 5:45:00 PM 15.13 59.234 0.135 6.27 1.91 8.73
11/6/2022 6:00:00 PM 14.74 58.532 0.135 6.17 1.99 8.16
11/6/2022 6:15:00 PM 15.03 59.054 0.138 6.3 1.98 9.11
11/6/2022 6:30:00 PM 15.28 59.504 0.135 6.33 1.99 9.04
11/6/2022 6:45:00 PM 14.8 58.64 0.137 6.32 1.94 8.57
11/6/2022 7:00:00 PM 14.69 58.442 0.136 6.2 1.95 8.05
11/6/2022 7:15:00 PM 15.28 59.504 0.139 6.42 1.87 8.86
11/6/2022 7:30:00 PM 14.7 58.46 0.135 6.18 1.92 8.32
11/6/2022 7:45:00 PM 14.89 58.802 0.135 6.22 1.98 8.62
11/6/2022 8:00:00 PM 14.85 58.73 0.138 6.18 1.86 9.07
11/6/2022 8:15:00 PM 14.89 58.802 0.137 6.3 1.87 9.24
11/6/2022 8:30:00 PM 14.98 58.964 0.137 6.3 1.93 9.05
11/6/2022 8:45:00 PM 14.93 58.874 0.135 6.22 1.85 9.03
11/6/2022 9:00:00 PM 14.88 58.784 0.134 6.24 1.91 8.18
11/6/2022 9:15:00 PM 14.8 58.64 0.135 6.27 1.97 9.01
11/6/2022 9:30:00 PM 14.52 58.136 0.136 6.1 2.03 8.79
11/6/2022 9:45:00 PM 14.61 58.298 0.135 6.15 1.9 8.57
11/6/2022 10:00:00 PM 14.59 58.262 0.135 6.1 1.99 8.04
11/6/2022 10:15:00 PM 14.73 58.514 0.136 6.2 1.85 8.69
11/6/2022 10:30:00 PM 14.75 58.55 0.135 6.24 1.94 8.55
11/6/2022 10:45:00 PM 14.57 58.226 0.138 6.18 1.86 8.35
11/6/2022 11:00:00 PM 14.78 58.604 0.136 6.36 1.85 9.24
11/6/2022 11:15:00 PM 14.48 58.064 0.136 6.11 1.84 8.2
11/6/2022 11:30:00 PM 14.71 58.478 0.136 6.27 2.16 8.47
11/6/2022 11:45:00 PM 14.68 58.424 0.136 6.18 2.17 8.92
11/7/2022 12:00:00 AM 14.91 58.838 0.138 6.27 2.12 8.98
11/7/2022 12:15:00 AM 14.7 58.46 0.138 6.28 1.98 8.81
11/7/2022 12:30:00 AM 14.48 58.064 0.136 6.14 1.86 8.05
11/7/2022 12:45:00 AM 14.36 57.848 0.135 6.2 1.95 7.98
11/7/2022 1:00:00 AM 14.56 58.208 0.136 6.22 1.96 8.45
11/7/2022 1:15:00 AM 14.68 58.424 0.136 6.31 2.13 8.74
11/7/2022 1:30:00 AM 14.53 58.154 0.137 6.28 1.93 8.41
11/7/2022 1:45:00 AM 14.63 58.334 0.137 6.18 1.99 8.9
11/7/2022 2:00:00 AM 14.48 58.064 0.135 6.18 2.08 8.67
11/7/2022 2:15:00 AM 14.38 57.884 0.136 6.14 2.06 8.17
11/7/2022 2:30:00 AM 14.84 58.712 0.137 6.57 2.5 9.04
11/7/2022 2:45:00 AM 14.58 58.244 0.14 6.3 2.19 8.82
11/7/2022 3:00:00 AM 14.38 57.884 0.137 6.13 2.1 8.27
11/7/2022 3:15:00 AM 14.6 58.28 0.135 6.42 1.96 9.07
11/7/2022 3:30:00 AM 14.67 58.406 0.14 6.45 2.15 9.65
11/7/2022 3:45:00 AM 14.6 58.28 0.136 6.48 2.09 8.81
11/7/2022 4:00:00 AM 14.25 57.65 0.135 6.18 2.13 8.51
11/7/2022 4:15:00 AM 14.51 58.118 0.14 6.34 2.05 9.55
11/7/2022 4:30:00 AM 14.57 58.226 0.14 6.59 1.91 9.48
11/7/2022 4:45:00 AM 14.47 58.046 0.138 6.43 2 9.68
11/7/2022 5:00:00 AM 14.36 57.848 0.136 6.41 2.3 9.35
11/7/2022 5:15:00 AM 14.3 57.74 0.139 6.38 2.3 9.53
11/7/2022 5:30:00 AM 14.16 57.488 0.139 6.35 2.12 8.71
11/7/2022 5:45:00 AM 14.2 57.56 0.136 6.39 2.02 8.99
11/7/2022 6:00:00 AM 13.95 57.11 0.136 6.12 2.28 8.19
11/7/2022 6:15:00 AM 14.03 57.254 0.139 6.23 2.17 8.93
11/7/2022 6:30:00 AM 13.98 57.164 0.138 6.3 2.73 9.2
11/7/2022 6:45:00 AM 13.86 56.948 0.138 6.33 2.31 8.5
11/7/2022 7:00:00 AM 13.86 56.948 0.136 6.11 2.78 8.49
11/7/2022 7:15:00 AM 13.87 56.966 0.138 6.23 2.2 9.4
11/7/2022 7:30:00 AM 13.79 56.822 0.138 6.45 2.27 9.24
11/7/2022 7:45:00 AM 13.83 56.894 0.139 6.44 1.95 9.76
11/7/2022 8:00:00 AM 13.72 56.696 0.137 6.13 1.95 8.32
11/7/2022 8:15:00 AM 13.79 56.822 0.136 6.45 1.88 9.86
11/7/2022 8:30:00 AM 13.73 56.714 0.139 6.26 2.08 9.65
11/7/2022 8:45:00 AM 13.71 56.678 0.137 6.25 2.2 9.44
11/7/2022 9:00:00 AM 13.79 56.822 0.136 6.29 2.42 9.55
11/7/2022 9:15:00 AM 13.84 56.912 0.137 6.3 2.27 9.43
11/7/2022 9:30:00 AM 13.99 57.182 0.137 6.44 2.03 10.75
11/7/2022 9:45:00 AM 13.92 57.056 0.136 6.27 2.21 9.42
11/7/2022 10:00:00 AM 14.08 57.344 0.139 6.63 2.14 11.12
11/7/2022 10:15:00 AM 14.22 57.596 0.139 6.36 1.97 11.06
11/7/2022 10:30:00 AM 14.31 57.758 0.139 7.05 1.91 11.6
11/7/2022 10:45:00 AM 14.15 57.47 0.137 6.38 2.02 11.26
11/7/2022 11:00:00 AM 14.29 57.722 0.139 6.81 1.95 11.03
11/7/2022 11:15:00 AM 14.19 57.542 0.137 6.41 2.09 10.99
11/7/2022 11:30:00 AM 14.35 57.83 0.138 6.52 2.34 11.71
11/7/2022 11:45:00 AM 14.4 57.92 0.139 7.28 2 12.2
11/7/2022 12:00:00 PM 14.3 57.74 0.139 6.82 4.34 11.54
11/7/2022 12:15:00 PM 13.93 57.074 0.136 6.16 2.32 9.31
11/7/2022 12:30:00 PM 14.16 57.488 0.139 6.63 2.02 10.9
11/7/2022 12:45:00 PM 14.12 57.416 0.137 6.97 1.93 11.84
11/7/2022 1:00:00 PM 14.12 57.416 0.138 7.14 1.95 11.91
11/7/2022 1:15:00 PM 14.09 57.362 0.139 7.28 1.85 11.99
11/7/2022 1:30:00 PM 14.03 57.254 0.138 6.93 1.97 11.87
11/7/2022 1:45:00 PM 14 57.2 0.139 7.2 1.87 11.87
11/7/2022 2:00:00 PM 13.97 57.146 0.138 7.15 1.9 11.78
11/7/2022 2:15:00 PM 13.88 56.984 0.136 6.67 1.9 10.56
11/7/2022 2:30:00 PM 13.78 56.804 0.138 6.33 2.01 9.72
11/7/2022 2:45:00 PM 13.8 56.84 0.138 6.62 1.98 11.13
11/7/2022 3:00:00 PM 13.79 56.822 0.138 6.85 2.12 11.39
11/7/2022 3:15:00 PM 13.7 56.66 0.136 6.22 2.29 9.86
11/7/2022 3:30:00 PM 13.78 56.804 0.139 6.98 1.94 10.75
11/7/2022 3:45:00 PM 13.74 56.732 0.138 6.67 1.99 11.21
11/7/2022 4:00:00 PM 13.74 56.732 0.137 6.52 2.08 10.91
11/7/2022 4:15:00 PM 13.74 56.732 0.139 6.73 2.04 10.77
11/7/2022 4:30:00 PM 13.73 56.714 0.138 6.95 2.08 10.89
11/7/2022 4:45:00 PM 13.67 56.606 0.138 6.67 2.02 10.5
11/7/2022 5:00:00 PM 13.68 56.624 0.139 7.12 1.92 11.17
11/7/2022 5:15:00 PM 13.62 56.516 0.139 6.7 1.98 10.84
11/7/2022 5:30:00 PM 13.6 56.48 0.139 7.09 1.91 11.01
11/7/2022 5:45:00 PM 13.55 56.39 0.14 7.05 2.07 11.04
11/7/2022 6:00:00 PM 13.46 56.228 0.139 7.09 2.18 10.96
11/7/2022 6:15:00 PM 13.39 56.102 0.139 7.06 1.9 11.08
11/7/2022 6:30:00 PM 13.3 55.94 0.14 7.06 1.97 10.93
11/7/2022 6:45:00 PM 13.2 55.76 0.14 7.08 2.15 11.09
11/7/2022 7:00:00 PM 13.11 55.598 0.14 7.12 1.95 11.1
11/7/2022 7:15:00 PM 12.99 55.382 0.14 7.14 2.07 11.08
11/7/2022 7:30:00 PM 12.89 55.202 0.14 7.15 2.07 11.14
11/7/2022 7:45:00 PM 12.79 55.022 0.141 7.14 2.04 11.28
11/7/2022 8:00:00 PM 12.7 54.86 0.14 7.05 1.94 11.22
11/7/2022 8:15:00 PM 12.6 54.68 0.14 7.13 2.2 11.35
11/7/2022 8:30:00 PM 12.51 54.518 0.14 7.19 2.4 11.41
11/7/2022 8:45:00 PM 12.45 54.41 0.14 7.21 2.04 11.34
11/7/2022 9:00:00 PM 12.36 54.248 0.14 7.19 2 11.42
11/7/2022 9:15:00 PM 12.29 54.122 0.14 7.13 1.93 11.4
11/7/2022 9:30:00 PM 12.22 53.996 0.14 7.16 2.11 11.47
11/7/2022 9:45:00 PM 12.15 53.87 0.14 7.18 3.24 11.51
11/7/2022 10:00:00 PM 12.07 53.726 0.14 7.13 2.12 11.49
11/7/2022 10:15:00 PM 11.99 53.582 0.14 7.2 1.95 11.64
11/7/2022 10:30:00 PM 11.92 53.456 0.14 7.2 1.94 11.64
11/7/2022 10:45:00 PM 11.83 53.294 0.14 7.2 1.99 11.67
11/7/2022 11:00:00 PM 11.77 53.186 0.14 7.2 2.01 11.74
11/7/2022 11:15:00 PM 11.71 53.078 0.14 7.23 2 11.74
11/7/2022 11:30:00 PM 11.65 52.97 0.14 7.21 1.99 11.77
11/7/2022 11:45:00 PM 11.6 52.88 0.14 7.22 1.95 11.75
11/8/2022 12:00:00 AM 11.54 52.772 0.14 7.21 1.99 11.78
11/8/2022 12:15:00 AM 11.48 52.664 0.14 7.25 2 11.83
11/8/2022 12:30:00 AM 11.41 52.538 0.14 7.24 2.04 11.82
11/8/2022 12:45:00 AM 11.34 52.412 0.14 7.25 1.99 11.91
11/8/2022 1:00:00 AM 11.29 52.322 0.14 7.2 2.18 11.88
11/8/2022 1:15:00 AM 11.23 52.214 0.14 7.26 2.07 11.94
11/8/2022 1:30:00 AM 11.18 52.124 0.14 7.23 2.38 11.97
11/8/2022 1:45:00 AM 11.12 52.016 0.14 7.26 2.31 12.01
11/8/2022 2:00:00 AM 11.06 51.908 0.14 7.25 2.02 12.02
11/8/2022 2:15:00 AM 11.01 51.818 0.14 7.25 2.12 12.02
11/8/2022 2:30:00 AM 10.95 51.71 0.14 7.25 2.02 12.05
11/8/2022 2:45:00 AM 10.88 51.584 0.14 7.26 1.92 12.05
11/8/2022 3:00:00 AM 10.82 51.476 0.14 7.22 2.04 12.1
11/8/2022 3:15:00 AM 10.77 51.386 0.14 7.26 2.12 12.13
11/8/2022 3:30:00 AM 10.71 51.278 0.14 7.27 1.9 12.15
11/8/2022 3:45:00 AM 10.66 51.188 0.14 7.28 1.93 12.2
11/8/2022 4:00:00 AM 10.61 51.098 0.141 7.26 2.02 12.16
11/8/2022 4:15:00 AM 10.54 50.972 0.141 7.28 1.96 12.22
11/8/2022 4:30:00 AM 10.48 50.864 0.141 7.28 2.08 12.24
11/8/2022 4:45:00 AM 10.43 50.774 0.14 7.27 1.98 12.26
11/8/2022 5:00:00 AM 10.38 50.684 0.141 7.26 1.98 12.24
11/8/2022 5:15:00 AM 10.32 50.576 0.141 7.26 2.01 12.26
11/8/2022 5:30:00 AM 10.27 50.486 0.141 7.27 1.96 12.29
11/8/2022 5:45:00 AM 10.21 50.378 0.141 7.28 1.98 12.29
11/8/2022 6:00:00 AM 10.16 50.288 0.141 7.27 2.08 12.33
11/8/2022 6:15:00 AM 10.11 50.198 0.141 7.28 1.96 12.37
11/8/2022 6:30:00 AM 10.05 50.09 0.141 7.26 2.08 12.39
11/8/2022 6:45:00 AM 10 50 0.141 7.29 2 12.43
11/8/2022 7:00:00 AM 9.96 49.928 0.141 7.26 2.05 12.45
11/8/2022 7:15:00 AM 9.97 49.946 0.141 7.28 1.97 12.49
11/8/2022 7:30:00 AM 9.97 49.946 0.141 7.29 1.95 12.56
11/8/2022 7:45:00 AM 9.99 49.982 0.14 7.33 1.89 12.69
11/8/2022 8:00:00 AM 10 50 0.14 7.35 1.85 12.86
11/8/2022 8:15:00 AM 10.01 50.018 0.14 7.36 1.9 13
11/8/2022 8:30:00 AM 10.04 50.072 0.14 7.4 1.94 13.09
11/8/2022 8:45:00 AM 10.1 50.18 0.14 7.42 2.1 13.22
11/8/2022 9:00:00 AM 10.18 50.324 0.14 7.47 1.97 13.4
11/8/2022 9:15:00 AM 10.24 50.432 0.14 7.49 1.82 13.48
11/8/2022 9:30:00 AM 10.31 50.558 0.14 7.57 1.96 13.58
11/8/2022 9:45:00 AM 10.43 50.774 0.139 7.57 1.95 13.66
11/8/2022 10:00:00 AM 10.54 50.972 0.139 7.58 1.94 13.65
11/8/2022 10:15:00 AM 10.63 51.134 0.139 7.63 1.93 13.71
11/8/2022 10:30:00 AM 10.7 51.26 0.139 7.64 2.03 13.7
11/8/2022 10:45:00 AM 10.72 51.296 0.139 7.68 1.96 13.73
11/8/2022 11:00:00 AM 10.77 51.386 0.139 7.67 1.94 13.71
11/8/2022 11:15:00 AM 10.8 51.44 0.139 7.65 6.61 13.65
11/8/2022 11:30:00 AM 10.84 51.512 0.139 7.68 1.9 13.67
11/8/2022 11:45:00 AM 10.86 51.548 0.139 7.68 1.83 13.65
11/8/2022 12:00:00 PM 10.85 51.53 0.139 7.65 1.92 13.61
11/8/2022 12:15:00 PM 10.76 51.368 0.139 7.68 1.93 13.57
11/8/2022 12:30:00 PM 10.7 51.26 0.139 7.69 1.95 13.56
11/8/2022 12:45:00 PM 10.69 51.242 0.14 7.64 1.97 13.49
11/8/2022 1:00:00 PM 10.69 51.242 0.14 7.63 1.96 13.44
11/8/2022 1:15:00 PM 10.68 51.224 0.139 7.57 1.88 13.37
11/8/2022 1:30:00 PM 10.63 51.134 0.139 7.59 2.1 13.32
11/8/2022 1:45:00 PM 10.62 51.116 0.139 7.55 1.88 13.26
11/8/2022 2:00:00 PM 10.59 51.062 0.139 7.54 1.93 13.22
11/8/2022 2:15:00 PM 10.56 51.008 0.139 7.52 1.88 13.13
11/8/2022 2:30:00 PM 10.55 50.99 0.14 7.51 1.86 13.05
11/8/2022 2:45:00 PM 10.55 50.99 0.139 7.46 1.93 12.99
11/8/2022 3:00:00 PM 10.53 50.954 0.14 7.46 1.88 12.94
11/8/2022 3:15:00 PM 10.52 50.936 0.139 7.46 1.97 12.9
11/8/2022 3:30:00 PM 10.53 50.954 0.14 7.46 1.9 12.85
11/8/2022 3:45:00 PM 10.54 50.972 0.139 7.4 1.97 12.81
11/8/2022 4:00:00 PM 10.54 50.972 0.14 7.42 2.1 12.75
11/8/2022 4:15:00 PM 10.55 50.99 0.14 7.4 1.91 12.68
11/8/2022 4:30:00 PM 10.56 51.008 0.14 7.39 1.95 12.63
11/8/2022 4:45:00 PM 10.56 51.008 0.14 7.4 1.98 12.59
11/8/2022 5:00:00 PM 10.57 51.026 0.14 7.37 1.9 12.49
11/8/2022 5:15:00 PM 10.58 51.044 0.14 7.37 1.99 12.42
11/8/2022 5:30:00 PM 10.57 51.026 0.14 7.34 2.11 12.33
11/8/2022 5:45:00 PM 10.57 51.026 0.14 7.33 1.97 12.3
11/8/2022 6:00:00 PM 10.55 50.99 0.14 7.32 1.98 12.31
11/8/2022 6:15:00 PM 10.53 50.954 0.14 7.31 1.88 12.23
11/8/2022 6:30:00 PM 10.48 50.864 0.141 7.29 1.91 12.28
11/8/2022 6:45:00 PM 10.43 50.774 0.141 7.32 1.97 12.3
11/8/2022 7:00:00 PM 10.37 50.666 0.141 7.29 1.92 12.29
11/8/2022 7:15:00 PM 10.29 50.522 0.141 7.31 1.9 12.35
11/8/2022 7:30:00 PM 10.22 50.396 0.141 7.31 1.92 12.34
11/8/2022 7:45:00 PM 10.16 50.288 0.141 7.3 1.98 12.37
11/8/2022 8:00:00 PM 10.08 50.144 0.141 7.29 1.92 12.4
11/8/2022 8:15:00 PM 10.01 50.018 0.141 7.31 2.05 12.41
11/8/2022 8:30:00 PM 9.94 49.892 0.141 7.3 1.92 12.44
11/8/2022 8:45:00 PM 9.85 49.73 0.141 7.3 1.9 12.45
11/8/2022 9:00:00 PM 9.79 49.622 0.141 7.3 1.94 12.46
11/8/2022 9:15:00 PM 9.7 49.46 0.141 7.3 1.93 12.5
11/8/2022 9:30:00 PM 9.63 49.334 0.141 7.29 1.87 12.51
11/8/2022 9:45:00 PM 9.55 49.19 0.142 7.31 1.89 12.57
11/8/2022 10:00:00 PM 9.46 49.028 0.141 7.3 1.99 12.59
11/8/2022 10:15:00 PM 9.4 48.92 0.142 7.3 2 12.6
11/8/2022 10:30:00 PM 9.32 48.776 0.142 7.29 1.95 12.63
11/8/2022 10:45:00 PM 9.24 48.632 0.142 7.31 1.84 12.69
11/8/2022 11:00:00 PM 9.19 48.542 0.142 7.25 1.9 12.66
11/8/2022 11:15:00 PM 9.13 48.434 0.142 7.27 1.97 12.69
11/8/2022 11:30:00 PM 9.04 48.272 0.142 7.28 1.9 12.75
11/8/2022 11:45:00 PM 8.98 48.164 0.142 7.27 2.31 12.75
11/9/2022 12:00:00 AM 8.9 48.02 0.142 7.28 2.19 12.79
11/9/2022 12:15:00 AM 8.84 47.912 0.142 7.29 1.96 12.81
11/9/2022 12:30:00 AM 8.77 47.786 0.142 7.27 1.94 12.83
11/9/2022 12:45:00 AM 8.71 47.678 0.142 7.27 2.07 12.83
11/9/2022 1:00:00 AM 8.63 47.534 0.142 7.28 1.96 12.87
11/9/2022 1:15:00 AM 8.57 47.426 0.142 7.29 2 12.91
11/9/2022 1:30:00 AM 8.51 47.318 0.142 7.28 2.1 12.92
11/9/2022 1:45:00 AM 8.45 47.21 0.142 7.28 1.94 12.95
11/9/2022 2:00:00 AM 8.4 47.12 0.142 7.27 1.93 12.95
11/9/2022 2:15:00 AM 8.33 46.994 0.142 7.28 1.95 12.98
11/9/2022 2:30:00 AM 8.28 46.904 0.142 7.29 1.9 12.98
11/9/2022 2:45:00 AM 8.23 46.814 0.142 7.27 1.66 13.03
11/9/2022 3:00:00 AM 8.18 46.724 0.142 7.29 1.93 13.02
11/9/2022 3:15:00 AM 8.14 46.652 0.142 7.29 1.9 13.04
11/9/2022 3:30:00 AM 8.1 46.58 0.142 7.29 1.9 13.07
11/9/2022 3:45:00 AM 8.06 46.508 0.142 7.27 1.95 13.07
11/9/2022 4:00:00 AM 8 46.4 0.142 7.29 1.9 13.1
11/9/2022 4:15:00 AM 7.96 46.328 0.142 7.3 1.95 13.11
11/9/2022 4:30:00 AM 7.93 46.274 0.142 7.29 1.87 13.11
11/9/2022 4:45:00 AM 7.88 46.184 0.142 7.3 1.93 13.15
11/9/2022 5:00:00 AM 7.84 46.112 0.142 7.29 1.88 13.15
11/9/2022 5:15:00 AM 7.79 46.022 0.142 7.29 1.93 13.15
11/9/2022 5:30:00 AM 7.75 45.95 0.142 7.29 1.89 13.17
11/9/2022 5:45:00 AM 7.71 45.878 0.142 7.3 1.96 13.2
11/9/2022 6:00:00 AM 7.68 45.824 0.142 7.29 1.91 13.17
11/9/2022 6:15:00 AM 7.62 45.716 0.142 7.29 1.9 13.2
11/9/2022 6:30:00 AM 7.6 45.68 0.142 7.29 7.4 13.22
11/9/2022 6:45:00 AM 7.54 45.572 0.142 7.29 2.09 13.24
11/9/2022 7:00:00 AM 7.5 45.5 0.142 7.3 2 13.26
11/9/2022 7:15:00 AM 7.47 45.446 0.142 7.31 1.97 13.33
11/9/2022 7:30:00 AM 7.45 45.41 0.142 7.31 1.92 13.41
11/9/2022 7:45:00 AM 7.42 45.356 0.142 7.33 1.91 13.54
11/9/2022 8:00:00 AM 7.41 45.338 0.142 7.35 4.36 13.6
11/9/2022 8:15:00 AM 7.39 45.302 0.142 7.37 2.53 13.71
11/9/2022 8:30:00 AM 7.42 45.356 0.142 7.41 1.99 13.84
11/9/2022 8:45:00 AM 7.48 45.464 0.142 7.43 1.94 13.96
11/9/2022 9:00:00 AM 7.57 45.626 0.142 7.49 1.93 14.09
11/9/2022 9:15:00 AM 7.66 45.788 0.141 7.54 1.88 14.28
11/9/2022 9:30:00 AM 7.79 46.022 0.141 7.57 1.88 14.33
11/9/2022 9:45:00 AM 7.93 46.274 0.141 7.58 1.99 14.41
11/9/2022 10:00:00 AM 8.08 46.544 0.141 7.64 1.9 14.49
11/9/2022 10:15:00 AM 8.21 46.778 0.141 7.65 2.09 14.51
11/9/2022 10:30:00 AM 8.34 47.012 0.141 7.62 2.24 14.51
11/9/2022 10:45:00 AM 8.41 47.138 0.141 7.67 1.98 14.52
11/9/2022 11:00:00 AM 8.56 47.408 0.141 7.63 1.97 14.5
11/9/2022 11:15:00 AM 8.66 47.588 0.141 7.62 1.9 14.51
11/9/2022 11:30:00 AM 8.73 47.714 0.141 7.69 1.93 14.46
11/9/2022 11:45:00 AM 8.84 47.912 0.141 7.66 1.86 14.39
11/9/2022 12:00:00 PM 8.86 47.948 0.141 7.72 1.89 14.42
11/9/2022 12:15:00 PM 8.87 47.966 0.141 7.68 1.94 14.33
11/9/2022 12:30:00 PM 8.84 47.912 0.141 7.69 1.88 14.27
11/9/2022 12:45:00 PM 8.85 47.93 0.141 7.64 1.96 14.22
11/9/2022 1:00:00 PM 8.91 48.038 0.141 7.64 1.89 14.16
11/9/2022 1:15:00 PM 8.95 48.11 0.141 7.6 2.1 14.1
11/9/2022 1:30:00 PM 8.93 48.074 0.141 7.61 1.85 14.04
11/9/2022 1:45:00 PM 8.96 48.128 0.141 7.62 1.94 14.02
11/9/2022 2:00:00 PM 8.97 48.146 0.141 7.55 1.86 13.94
11/9/2022 2:15:00 PM 8.99 48.182 0.141 7.52 1.89 13.91
11/9/2022 2:30:00 PM 9.02 48.236 0.141 7.51 1.87 13.78
11/9/2022 2:45:00 PM 9.01 48.218 0.141 7.57 1.87 13.74
11/9/2022 3:00:00 PM 9.06 48.308 0.141 7.58 1.87 13.73
11/9/2022 3:15:00 PM 9.1 48.38 0.141 7.61 1.95 13.79
11/9/2022 3:30:00 PM 9.14 48.452 0.141 7.61 1.86 13.71
11/9/2022 3:45:00 PM 9.16 48.488 0.141 7.56 1.87 13.53
11/9/2022 4:00:00 PM 9.17 48.506 0.141 7.54 1.88 13.38
11/9/2022 4:15:00 PM 9.2 48.56 0.141 7.51 1.9 13.27
11/9/2022 4:30:00 PM 9.22 48.596 0.141 7.47 1.88 13.17
11/9/2022 4:45:00 PM 9.23 48.614 0.141 7.45 1.93 13.1
11/9/2022 5:00:00 PM 9.23 48.614 0.141 7.43 2.04 12.99
11/9/2022 5:15:00 PM 9.24 48.632 0.141 7.42 2.17 12.9
11/9/2022 5:30:00 PM 9.24 48.632 0.141 7.37 1.89 12.79
11/9/2022 5:45:00 PM 9.24 48.632 0.142 7.38 2 12.74
11/9/2022 6:00:00 PM 9.2 48.56 0.142 7.37 2.21 12.7
11/9/2022 6:15:00 PM 9.19 48.542 0.142 7.37 2.1 12.68
11/9/2022 6:30:00 PM 9.16 48.488 0.142 7.35 1.93 12.65
11/9/2022 6:45:00 PM 9.12 48.416 0.142 7.36 1.96 12.66
11/9/2022 7:00:00 PM 9.08 48.344 0.142 7.35 1.91 12.67
11/9/2022 7:15:00 PM 9.01 48.218 0.142 7.35 1.95 12.69
11/9/2022 7:30:00 PM 8.96 48.128 0.142 7.34 1.95 12.68
11/9/2022 7:45:00 PM 8.91 48.038 0.142 7.34 1.91 12.67
11/9/2022 8:00:00 PM 8.84 47.912 0.143 7.3 3.04 12.71
11/9/2022 8:15:00 PM 8.76 47.768 0.143 7.34 4.25 12.76
11/9/2022 8:30:00 PM 8.71 47.678 0.143 7.33 3.22 12.76
11/9/2022 8:45:00 PM 8.63 47.534 0.143 7.34 2.62 12.8
11/9/2022 9:00:00 PM 8.6 47.48 0.143 7.32 2.64 12.81
11/9/2022 9:15:00 PM 8.51 47.318 0.143 7.32 2.79 12.82
11/9/2022 9:30:00 PM 8.46 47.228 0.143 7.33 2.52 12.83
11/9/2022 9:45:00 PM 8.4 47.12 0.143 7.34 2.47 12.86
11/9/2022 10:00:00 PM 8.35 47.03 0.143 7.34 2.36 12.89
11/9/2022 10:15:00 PM 8.31 46.958 0.143 7.33 2.37 12.89
11/9/2022 10:30:00 PM 8.26 46.868 0.143 7.33 2.48 12.9
11/9/2022 10:45:00 PM 8.2 46.76 0.143 7.33 2.27 12.93
11/9/2022 11:00:00 PM 8.17 46.706 0.143 7.33 2.21 12.95
11/9/2022 11:15:00 PM 8.12 46.616 0.143 7.33 2.37 12.95
11/9/2022 11:30:00 PM 8.09 46.562 0.143 7.33 2.16 12.97
11/9/2022 11:45:00 PM 8.05 46.49 0.143 7.32 2.37 12.99
11/10/2022 12:00:00 AM 8.01 46.418 0.144 7.32 2.35 13.01
11/10/2022 12:15:00 AM 7.97 46.346 0.143 7.32 2.06 13
11/10/2022 12:30:00 AM 7.94 46.292 0.144 7.32 2.1 13.02
11/10/2022 12:45:00 AM 7.89 46.202 0.144 7.33 2.15 13.04
11/10/2022 1:00:00 AM 7.86 46.148 0.144 7.33 2.12 13.07
11/10/2022 1:15:00 AM 7.82 46.076 0.144 7.33 2.15 13.06
11/10/2022 1:30:00 AM 7.79 46.022 0.144 7.33 31.28 13.07
11/10/2022 1:45:00 AM 7.76 45.968 0.143 7.32 1.95 13.07
11/10/2022 2:00:00 AM 7.72 45.896 0.144 7.33 2.07 13.09
11/10/2022 2:15:00 AM 7.71 45.878 0.144 7.3 1.97 13.03
11/10/2022 2:30:00 AM 7.69 45.842 0.143 7.32 1.97 13.03
11/10/2022 2:45:00 AM 7.66 45.788 0.144 7.33 2 13.1
11/10/2022 3:00:00 AM 7.64 45.752 0.144 7.32 2.42 13.11
11/10/2022 3:15:00 AM 7.61 45.698 0.144 7.33 2.16 13.16
11/10/2022 3:30:00 AM 7.59 45.662 0.144 7.3 2.03 13.13
11/10/2022 3:45:00 AM 7.56 45.608 0.144 7.33 1.91 13.17
11/10/2022 4:00:00 AM 7.54 45.572 0.144 7.33 1.87 13.18
11/10/2022 4:15:00 AM 7.51 45.518 0.144 7.33 1.89 13.19
11/10/2022 4:30:00 AM 7.48 45.464 0.144 7.33 1.83 13.19
11/10/2022 4:45:00 AM 7.44 45.392 0.144 7.34 1.84 13.2
11/10/2022 5:00:00 AM 7.42 45.356 0.144 7.33 1.87 13.22
11/10/2022 5:15:00 AM 7.4 45.32 0.144 7.33 1.86 13.23
11/10/2022 5:30:00 AM 7.36 45.248 0.144 7.34 1.92 13.21
11/10/2022 5:45:00 AM 7.34 45.212 0.144 7.33 1.88 13.23
11/10/2022 6:00:00 AM 7.32 45.176 0.144 7.33 2.14 13.25
11/10/2022 6:15:00 AM 7.29 45.122 0.144 7.33 1.94 13.24
11/10/2022 6:30:00 AM 7.28 45.104 0.144 7.33 1.9 13.26
11/10/2022 6:45:00 AM 7.25 45.05 0.144 7.33 2.01 13.26
11/10/2022 7:00:00 AM 7.22 44.996 0.144 7.34 1.96 13.3
11/10/2022 7:15:00 AM 7.22 44.996 0.144 7.35 2.06 13.36
11/10/2022 7:30:00 AM 7.2 44.96 0.144 7.36 1.89 13.47
11/10/2022 7:45:00 AM 7.21 44.978 0.144 7.37 1.91 13.55
11/10/2022 8:00:00 AM 7.22 44.996 0.144 7.4 1.89 13.66
11/10/2022 8:15:00 AM 7.24 45.032 0.144 7.42 1.88 13.78
11/10/2022 8:30:00 AM 7.3 45.14 0.143 7.45 1.88 13.9